<?xml version="1.0" encoding="UTF-8" standalone="no" ?>
<gpx xmlns="http://www.topografix.com/GPX/1/1" xmlns:xsi="http://www.w3.org/2001/XMLSchema-instance" xsi:schemaLocation="http://www.topografix.com/GPX/1/1 http://www.topografix.com/GPX/1/1/gpx.xsd" version="1.1" creator="VisuGPX - https://www.visugpx.com">
  <metadata>
    <name>VTT - Chaumont-Gistoux - Brabant Wallon</name>
  </metadata>
  <trk>
    <name><![CDATA[VTT - Logan 1]]></name>
    <trkseg>
      <trkpt lat="50.68494" lon="4.69427">
        <ele>85.21</ele>
        <time>2020-05-23T08:19:03Z</time>
      </trkpt>
      <trkpt lat="50.68498" lon="4.69427">
        <ele>94.83</ele>
        <time>2020-05-23T08:19:17Z</time>
      </trkpt>
      <trkpt lat="50.68497" lon="4.69426">
        <ele>96.75</ele>
        <time>2020-05-23T08:19:36Z</time>
      </trkpt>
      <trkpt lat="50.68497" lon="4.69426">
        <ele>97.71</ele>
        <time>2020-05-23T08:19:42Z</time>
      </trkpt>
      <trkpt lat="50.685" lon="4.69433">
        <ele>95.79</ele>
        <time>2020-05-23T08:19:46Z</time>
      </trkpt>
      <trkpt lat="50.68502" lon="4.69434">
        <ele>95.79</ele>
        <time>2020-05-23T08:19:47Z</time>
      </trkpt>
      <trkpt lat="50.68505" lon="4.69432">
        <ele>95.79</ele>
        <time>2020-05-23T08:19:48Z</time>
      </trkpt>
      <trkpt lat="50.68508" lon="4.69429">
        <ele>95.79</ele>
        <time>2020-05-23T08:19:49Z</time>
      </trkpt>
      <trkpt lat="50.68509" lon="4.69425">
        <ele>95.31</ele>
        <time>2020-05-23T08:19:50Z</time>
      </trkpt>
      <trkpt lat="50.68509" lon="4.6942">
        <ele>95.31</ele>
        <time>2020-05-23T08:19:51Z</time>
      </trkpt>
      <trkpt lat="50.68509" lon="4.69415">
        <ele>94.83</ele>
        <time>2020-05-23T08:19:52Z</time>
      </trkpt>
      <trkpt lat="50.68507" lon="4.6941">
        <ele>94.83</ele>
        <time>2020-05-23T08:19:53Z</time>
      </trkpt>
      <trkpt lat="50.68506" lon="4.69405">
        <ele>94.83</ele>
        <time>2020-05-23T08:19:54Z</time>
      </trkpt>
      <trkpt lat="50.68505" lon="4.69401">
        <ele>94.35</ele>
        <time>2020-05-23T08:19:55Z</time>
      </trkpt>
      <trkpt lat="50.68504" lon="4.69393">
        <ele>94.35</ele>
        <time>2020-05-23T08:19:57Z</time>
      </trkpt>
      <trkpt lat="50.68506" lon="4.69389">
        <ele>94.35</ele>
        <time>2020-05-23T08:19:58Z</time>
      </trkpt>
      <trkpt lat="50.68508" lon="4.69386">
        <ele>94.35</ele>
        <time>2020-05-23T08:19:59Z</time>
      </trkpt>
      <trkpt lat="50.6851" lon="4.69384">
        <ele>94.83</ele>
        <time>2020-05-23T08:20:00Z</time>
      </trkpt>
      <trkpt lat="50.68512" lon="4.69382">
        <ele>94.83</ele>
        <time>2020-05-23T08:20:01Z</time>
      </trkpt>
      <trkpt lat="50.68513" lon="4.69381">
        <ele>94.83</ele>
        <time>2020-05-23T08:20:02Z</time>
      </trkpt>
      <trkpt lat="50.68515" lon="4.69381">
        <ele>94.83</ele>
        <time>2020-05-23T08:20:03Z</time>
      </trkpt>
      <trkpt lat="50.68518" lon="4.69381">
        <ele>94.83</ele>
        <time>2020-05-23T08:20:04Z</time>
      </trkpt>
      <trkpt lat="50.68521" lon="4.69381">
        <ele>94.83</ele>
        <time>2020-05-23T08:20:05Z</time>
      </trkpt>
      <trkpt lat="50.68544" lon="4.69392">
        <ele>94.83</ele>
        <time>2020-05-23T08:20:12Z</time>
      </trkpt>
      <trkpt lat="50.68547" lon="4.69396">
        <ele>94.35</ele>
        <time>2020-05-23T08:20:13Z</time>
      </trkpt>
      <trkpt lat="50.68558" lon="4.69407">
        <ele>94.35</ele>
        <time>2020-05-23T08:20:16Z</time>
      </trkpt>
      <trkpt lat="50.68565" lon="4.69417">
        <ele>94.35</ele>
        <time>2020-05-23T08:20:18Z</time>
      </trkpt>
      <trkpt lat="50.6857" lon="4.69427">
        <ele>94.35</ele>
        <time>2020-05-23T08:20:20Z</time>
      </trkpt>
      <trkpt lat="50.68572" lon="4.69433">
        <ele>94.35</ele>
        <time>2020-05-23T08:20:21Z</time>
      </trkpt>
      <trkpt lat="50.68593" lon="4.69485">
        <ele>94.35</ele>
        <time>2020-05-23T08:20:31Z</time>
      </trkpt>
      <trkpt lat="50.68603" lon="4.69526">
        <ele>94.35</ele>
        <time>2020-05-23T08:20:40Z</time>
      </trkpt>
      <trkpt lat="50.68605" lon="4.69536">
        <ele>93.87</ele>
        <time>2020-05-23T08:20:47Z</time>
      </trkpt>
      <trkpt lat="50.68606" lon="4.69545">
        <ele>95.31</ele>
        <time>2020-05-23T08:21:06Z</time>
      </trkpt>
      <trkpt lat="50.68606" lon="4.69546">
        <ele>94.83</ele>
        <time>2020-05-23T08:21:07Z</time>
      </trkpt>
      <trkpt lat="50.68606" lon="4.69548">
        <ele>94.83</ele>
        <time>2020-05-23T08:21:08Z</time>
      </trkpt>
      <trkpt lat="50.68607" lon="4.69551">
        <ele>94.83</ele>
        <time>2020-05-23T08:21:09Z</time>
      </trkpt>
      <trkpt lat="50.68607" lon="4.69556">
        <ele>94.35</ele>
        <time>2020-05-23T08:21:10Z</time>
      </trkpt>
      <trkpt lat="50.68607" lon="4.69561">
        <ele>94.35</ele>
        <time>2020-05-23T08:21:11Z</time>
      </trkpt>
      <trkpt lat="50.68613" lon="4.69606">
        <ele>93.87</ele>
        <time>2020-05-23T08:21:20Z</time>
      </trkpt>
      <trkpt lat="50.68621" lon="4.69644">
        <ele>94.35</ele>
        <time>2020-05-23T08:21:27Z</time>
      </trkpt>
      <trkpt lat="50.68624" lon="4.69662">
        <ele>94.83</ele>
        <time>2020-05-23T08:21:33Z</time>
      </trkpt>
      <trkpt lat="50.68626" lon="4.69665">
        <ele>94.83</ele>
        <time>2020-05-23T08:21:34Z</time>
      </trkpt>
      <trkpt lat="50.68628" lon="4.69668">
        <ele>94.83</ele>
        <time>2020-05-23T08:21:35Z</time>
      </trkpt>
      <trkpt lat="50.68631" lon="4.69669">
        <ele>94.83</ele>
        <time>2020-05-23T08:21:36Z</time>
      </trkpt>
      <trkpt lat="50.68633" lon="4.69668">
        <ele>95.31</ele>
        <time>2020-05-23T08:21:37Z</time>
      </trkpt>
      <trkpt lat="50.68636" lon="4.69668">
        <ele>95.31</ele>
        <time>2020-05-23T08:21:38Z</time>
      </trkpt>
      <trkpt lat="50.68638" lon="4.69666">
        <ele>95.31</ele>
        <time>2020-05-23T08:21:39Z</time>
      </trkpt>
      <trkpt lat="50.6866" lon="4.69657">
        <ele>95.79</ele>
        <time>2020-05-23T08:21:46Z</time>
      </trkpt>
      <trkpt lat="50.687" lon="4.69633">
        <ele>95.79</ele>
        <time>2020-05-23T08:21:56Z</time>
      </trkpt>
      <trkpt lat="50.68715" lon="4.69619">
        <ele>95.79</ele>
        <time>2020-05-23T08:22:00Z</time>
      </trkpt>
      <trkpt lat="50.6872" lon="4.69614">
        <ele>95.79</ele>
        <time>2020-05-23T08:22:01Z</time>
      </trkpt>
      <trkpt lat="50.68724" lon="4.69609">
        <ele>96.27</ele>
        <time>2020-05-23T08:22:02Z</time>
      </trkpt>
      <trkpt lat="50.68734" lon="4.69593">
        <ele>96.27</ele>
        <time>2020-05-23T08:22:05Z</time>
      </trkpt>
      <trkpt lat="50.68774" lon="4.69536">
        <ele>95.79</ele>
        <time>2020-05-23T08:22:16Z</time>
      </trkpt>
      <trkpt lat="50.68831" lon="4.69475">
        <ele>96.27</ele>
        <time>2020-05-23T08:22:28Z</time>
      </trkpt>
      <trkpt lat="50.68846" lon="4.69456">
        <ele>95.79</ele>
        <time>2020-05-23T08:22:31Z</time>
      </trkpt>
      <trkpt lat="50.68859" lon="4.69436">
        <ele>95.31</ele>
        <time>2020-05-23T08:22:34Z</time>
      </trkpt>
      <trkpt lat="50.68894" lon="4.69348">
        <ele>95.31</ele>
        <time>2020-05-23T08:22:45Z</time>
      </trkpt>
      <trkpt lat="50.6892" lon="4.69282">
        <ele>96.27</ele>
        <time>2020-05-23T08:22:54Z</time>
      </trkpt>
      <trkpt lat="50.68939" lon="4.69231">
        <ele>93.87</ele>
        <time>2020-05-23T08:23:04Z</time>
      </trkpt>
      <trkpt lat="50.68942" lon="4.69225">
        <ele>93.39</ele>
        <time>2020-05-23T08:23:05Z</time>
      </trkpt>
      <trkpt lat="50.68945" lon="4.69219">
        <ele>92.9</ele>
        <time>2020-05-23T08:23:06Z</time>
      </trkpt>
      <trkpt lat="50.68989" lon="4.69153">
        <ele>89.06</ele>
        <time>2020-05-23T08:23:16Z</time>
      </trkpt>
      <trkpt lat="50.6904" lon="4.6908">
        <ele>86.66</ele>
        <time>2020-05-23T08:23:26Z</time>
      </trkpt>
      <trkpt lat="50.69045" lon="4.69074">
        <ele>86.66</ele>
        <time>2020-05-23T08:23:27Z</time>
      </trkpt>
      <trkpt lat="50.69051" lon="4.69069">
        <ele>86.66</ele>
        <time>2020-05-23T08:23:28Z</time>
      </trkpt>
      <trkpt lat="50.69057" lon="4.69065">
        <ele>86.66</ele>
        <time>2020-05-23T08:23:29Z</time>
      </trkpt>
      <trkpt lat="50.69069" lon="4.6906">
        <ele>86.66</ele>
        <time>2020-05-23T08:23:31Z</time>
      </trkpt>
      <trkpt lat="50.69075" lon="4.6906">
        <ele>86.66</ele>
        <time>2020-05-23T08:23:32Z</time>
      </trkpt>
      <trkpt lat="50.69093" lon="4.69063">
        <ele>86.18</ele>
        <time>2020-05-23T08:23:35Z</time>
      </trkpt>
      <trkpt lat="50.69177" lon="4.69083">
        <ele>81.85</ele>
        <time>2020-05-23T08:23:47Z</time>
      </trkpt>
      <trkpt lat="50.69191" lon="4.69086">
        <ele>81.37</ele>
        <time>2020-05-23T08:23:49Z</time>
      </trkpt>
      <trkpt lat="50.69198" lon="4.69087">
        <ele>80.89</ele>
        <time>2020-05-23T08:23:50Z</time>
      </trkpt>
      <trkpt lat="50.69205" lon="4.69086">
        <ele>80.89</ele>
        <time>2020-05-23T08:23:51Z</time>
      </trkpt>
      <trkpt lat="50.69301" lon="4.69073">
        <ele>75.6</ele>
        <time>2020-05-23T08:24:04Z</time>
      </trkpt>
      <trkpt lat="50.69363" lon="4.69052">
        <ele>73.68</ele>
        <time>2020-05-23T08:24:13Z</time>
      </trkpt>
      <trkpt lat="50.69369" lon="4.69049">
        <ele>73.68</ele>
        <time>2020-05-23T08:24:14Z</time>
      </trkpt>
      <trkpt lat="50.69409" lon="4.69027">
        <ele>73.68</ele>
        <time>2020-05-23T08:24:23Z</time>
      </trkpt>
      <trkpt lat="50.69413" lon="4.69031">
        <ele>73.2</ele>
        <time>2020-05-23T08:24:24Z</time>
      </trkpt>
      <trkpt lat="50.69416" lon="4.69035">
        <ele>73.2</ele>
        <time>2020-05-23T08:24:25Z</time>
      </trkpt>
      <trkpt lat="50.6943" lon="4.69057">
        <ele>74.16</ele>
        <time>2020-05-23T08:24:30Z</time>
      </trkpt>
      <trkpt lat="50.69442" lon="4.69098">
        <ele>77.04</ele>
        <time>2020-05-23T08:24:38Z</time>
      </trkpt>
      <trkpt lat="50.69443" lon="4.69113">
        <ele>78</ele>
        <time>2020-05-23T08:24:41Z</time>
      </trkpt>
      <trkpt lat="50.69445" lon="4.69118">
        <ele>78.48</ele>
        <time>2020-05-23T08:24:42Z</time>
      </trkpt>
      <trkpt lat="50.69447" lon="4.69123">
        <ele>78.48</ele>
        <time>2020-05-23T08:24:43Z</time>
      </trkpt>
      <trkpt lat="50.6945" lon="4.69125">
        <ele>78.97</ele>
        <time>2020-05-23T08:24:44Z</time>
      </trkpt>
      <trkpt lat="50.69454" lon="4.69127">
        <ele>78.97</ele>
        <time>2020-05-23T08:24:45Z</time>
      </trkpt>
      <trkpt lat="50.69457" lon="4.69129">
        <ele>78.97</ele>
        <time>2020-05-23T08:24:46Z</time>
      </trkpt>
      <trkpt lat="50.69461" lon="4.6913">
        <ele>78.97</ele>
        <time>2020-05-23T08:24:47Z</time>
      </trkpt>
      <trkpt lat="50.69486" lon="4.69139">
        <ele>79.45</ele>
        <time>2020-05-23T08:24:55Z</time>
      </trkpt>
      <trkpt lat="50.69512" lon="4.69146">
        <ele>83.77</ele>
        <time>2020-05-23T08:25:05Z</time>
      </trkpt>
      <trkpt lat="50.69537" lon="4.69143">
        <ele>88.58</ele>
        <time>2020-05-23T08:25:16Z</time>
      </trkpt>
      <trkpt lat="50.69566" lon="4.6915">
        <ele>90.02</ele>
        <time>2020-05-23T08:25:28Z</time>
      </trkpt>
      <trkpt lat="50.69588" lon="4.69159">
        <ele>89.54</ele>
        <time>2020-05-23T08:25:38Z</time>
      </trkpt>
      <trkpt lat="50.6961" lon="4.69173">
        <ele>90.5</ele>
        <time>2020-05-23T08:25:48Z</time>
      </trkpt>
      <trkpt lat="50.69625" lon="4.6918">
        <ele>93.39</ele>
        <time>2020-05-23T08:25:56Z</time>
      </trkpt>
      <trkpt lat="50.69641" lon="4.69195">
        <ele>100.6</ele>
        <time>2020-05-23T08:26:07Z</time>
      </trkpt>
      <trkpt lat="50.69643" lon="4.69198">
        <ele>101.08</ele>
        <time>2020-05-23T08:26:08Z</time>
      </trkpt>
      <trkpt lat="50.69644" lon="4.692">
        <ele>101.56</ele>
        <time>2020-05-23T08:26:09Z</time>
      </trkpt>
      <trkpt lat="50.69653" lon="4.69223">
        <ele>102.04</ele>
        <time>2020-05-23T08:26:18Z</time>
      </trkpt>
      <trkpt lat="50.69656" lon="4.69235">
        <ele>105.88</ele>
        <time>2020-05-23T08:26:29Z</time>
      </trkpt>
      <trkpt lat="50.69659" lon="4.69243">
        <ele>106.36</ele>
        <time>2020-05-23T08:26:45Z</time>
      </trkpt>
      <trkpt lat="50.69663" lon="4.69248">
        <ele>105.4</ele>
        <time>2020-05-23T08:26:57Z</time>
      </trkpt>
      <trkpt lat="50.69666" lon="4.69254">
        <ele>105.88</ele>
        <time>2020-05-23T08:27:12Z</time>
      </trkpt>
      <trkpt lat="50.69671" lon="4.69259">
        <ele>102.52</ele>
        <time>2020-05-23T08:27:27Z</time>
      </trkpt>
      <trkpt lat="50.69682" lon="4.69279">
        <ele>100.11</ele>
        <time>2020-05-23T08:27:34Z</time>
      </trkpt>
      <trkpt lat="50.69697" lon="4.69304">
        <ele>97.71</ele>
        <time>2020-05-23T08:27:42Z</time>
      </trkpt>
      <trkpt lat="50.69723" lon="4.69351">
        <ele>93.39</ele>
        <time>2020-05-23T08:27:50Z</time>
      </trkpt>
      <trkpt lat="50.69749" lon="4.694">
        <ele>90.02</ele>
        <time>2020-05-23T08:27:59Z</time>
      </trkpt>
      <trkpt lat="50.69751" lon="4.69406">
        <ele>89.54</ele>
        <time>2020-05-23T08:28:00Z</time>
      </trkpt>
      <trkpt lat="50.69753" lon="4.69412">
        <ele>89.54</ele>
        <time>2020-05-23T08:28:01Z</time>
      </trkpt>
      <trkpt lat="50.69754" lon="4.69419">
        <ele>89.54</ele>
        <time>2020-05-23T08:28:02Z</time>
      </trkpt>
      <trkpt lat="50.69756" lon="4.69425">
        <ele>89.06</ele>
        <time>2020-05-23T08:28:03Z</time>
      </trkpt>
      <trkpt lat="50.69771" lon="4.69455">
        <ele>87.62</ele>
        <time>2020-05-23T08:28:10Z</time>
      </trkpt>
      <trkpt lat="50.69803" lon="4.69488">
        <ele>83.77</ele>
        <time>2020-05-23T08:28:20Z</time>
      </trkpt>
      <trkpt lat="50.69837" lon="4.69511">
        <ele>82.81</ele>
        <time>2020-05-23T08:28:30Z</time>
      </trkpt>
      <trkpt lat="50.69871" lon="4.69522">
        <ele>84.25</ele>
        <time>2020-05-23T08:28:40Z</time>
      </trkpt>
      <trkpt lat="50.69909" lon="4.69518">
        <ele>83.77</ele>
        <time>2020-05-23T08:28:51Z</time>
      </trkpt>
      <trkpt lat="50.6993" lon="4.69521">
        <ele>83.29</ele>
        <time>2020-05-23T08:28:55Z</time>
      </trkpt>
      <trkpt lat="50.6994" lon="4.69523">
        <ele>82.81</ele>
        <time>2020-05-23T08:28:57Z</time>
      </trkpt>
      <trkpt lat="50.6998" lon="4.69539">
        <ele>82.33</ele>
        <time>2020-05-23T08:29:07Z</time>
      </trkpt>
      <trkpt lat="50.70013" lon="4.69549">
        <ele>82.33</ele>
        <time>2020-05-23T08:29:19Z</time>
      </trkpt>
      <trkpt lat="50.70017" lon="4.69545">
        <ele>82.33</ele>
        <time>2020-05-23T08:29:21Z</time>
      </trkpt>
      <trkpt lat="50.70019" lon="4.69541">
        <ele>82.33</ele>
        <time>2020-05-23T08:29:22Z</time>
      </trkpt>
      <trkpt lat="50.70021" lon="4.69538">
        <ele>82.81</ele>
        <time>2020-05-23T08:29:23Z</time>
      </trkpt>
      <trkpt lat="50.70042" lon="4.69503">
        <ele>85.21</ele>
        <time>2020-05-23T08:29:33Z</time>
      </trkpt>
      <trkpt lat="50.70047" lon="4.69501">
        <ele>85.69</ele>
        <time>2020-05-23T08:29:35Z</time>
      </trkpt>
      <trkpt lat="50.70049" lon="4.69503">
        <ele>86.18</ele>
        <time>2020-05-23T08:29:36Z</time>
      </trkpt>
      <trkpt lat="50.7005" lon="4.69507">
        <ele>86.18</ele>
        <time>2020-05-23T08:29:37Z</time>
      </trkpt>
      <trkpt lat="50.7005" lon="4.6951">
        <ele>86.66</ele>
        <time>2020-05-23T08:29:38Z</time>
      </trkpt>
      <trkpt lat="50.7005" lon="4.69515">
        <ele>86.66</ele>
        <time>2020-05-23T08:29:39Z</time>
      </trkpt>
      <trkpt lat="50.7006" lon="4.69561">
        <ele>86.66</ele>
        <time>2020-05-23T08:29:49Z</time>
      </trkpt>
      <trkpt lat="50.70075" lon="4.69609">
        <ele>87.14</ele>
        <time>2020-05-23T08:30:00Z</time>
      </trkpt>
      <trkpt lat="50.70093" lon="4.69665">
        <ele>88.58</ele>
        <time>2020-05-23T08:30:13Z</time>
      </trkpt>
      <trkpt lat="50.70096" lon="4.69682">
        <ele>89.06</ele>
        <time>2020-05-23T08:30:17Z</time>
      </trkpt>
      <trkpt lat="50.70096" lon="4.69687">
        <ele>89.06</ele>
        <time>2020-05-23T08:30:18Z</time>
      </trkpt>
      <trkpt lat="50.70096" lon="4.69691">
        <ele>89.06</ele>
        <time>2020-05-23T08:30:19Z</time>
      </trkpt>
      <trkpt lat="50.70097" lon="4.69695">
        <ele>89.54</ele>
        <time>2020-05-23T08:30:20Z</time>
      </trkpt>
      <trkpt lat="50.70098" lon="4.69699">
        <ele>89.54</ele>
        <time>2020-05-23T08:30:21Z</time>
      </trkpt>
      <trkpt lat="50.70095" lon="4.69728">
        <ele>89.06</ele>
        <time>2020-05-23T08:30:28Z</time>
      </trkpt>
      <trkpt lat="50.70089" lon="4.69774">
        <ele>89.54</ele>
        <time>2020-05-23T08:30:38Z</time>
      </trkpt>
      <trkpt lat="50.70083" lon="4.69818">
        <ele>88.1</ele>
        <time>2020-05-23T08:30:45Z</time>
      </trkpt>
      <trkpt lat="50.7008" lon="4.69842">
        <ele>87.14</ele>
        <time>2020-05-23T08:30:50Z</time>
      </trkpt>
      <trkpt lat="50.70082" lon="4.69845">
        <ele>87.14</ele>
        <time>2020-05-23T08:30:51Z</time>
      </trkpt>
      <trkpt lat="50.70083" lon="4.69847">
        <ele>87.14</ele>
        <time>2020-05-23T08:30:52Z</time>
      </trkpt>
      <trkpt lat="50.70085" lon="4.6985">
        <ele>87.62</ele>
        <time>2020-05-23T08:30:53Z</time>
      </trkpt>
      <trkpt lat="50.70086" lon="4.69853">
        <ele>87.62</ele>
        <time>2020-05-23T08:30:54Z</time>
      </trkpt>
      <trkpt lat="50.70087" lon="4.69856">
        <ele>87.62</ele>
        <time>2020-05-23T08:30:55Z</time>
      </trkpt>
      <trkpt lat="50.70089" lon="4.69859">
        <ele>87.62</ele>
        <time>2020-05-23T08:30:56Z</time>
      </trkpt>
      <trkpt lat="50.70091" lon="4.69861">
        <ele>88.1</ele>
        <time>2020-05-23T08:30:57Z</time>
      </trkpt>
      <trkpt lat="50.70092" lon="4.69864">
        <ele>88.1</ele>
        <time>2020-05-23T08:30:58Z</time>
      </trkpt>
      <trkpt lat="50.70094" lon="4.69866">
        <ele>88.58</ele>
        <time>2020-05-23T08:30:59Z</time>
      </trkpt>
      <trkpt lat="50.70095" lon="4.69868">
        <ele>88.58</ele>
        <time>2020-05-23T08:31:00Z</time>
      </trkpt>
      <trkpt lat="50.70096" lon="4.6987">
        <ele>88.58</ele>
        <time>2020-05-23T08:31:01Z</time>
      </trkpt>
      <trkpt lat="50.70098" lon="4.69872">
        <ele>88.58</ele>
        <time>2020-05-23T08:31:02Z</time>
      </trkpt>
      <trkpt lat="50.70114" lon="4.69897">
        <ele>88.1</ele>
        <time>2020-05-23T08:31:13Z</time>
      </trkpt>
      <trkpt lat="50.70128" lon="4.69921">
        <ele>94.83</ele>
        <time>2020-05-23T08:31:24Z</time>
      </trkpt>
      <trkpt lat="50.70143" lon="4.69945">
        <ele>104.44</ele>
        <time>2020-05-23T08:31:36Z</time>
      </trkpt>
      <trkpt lat="50.7015" lon="4.69954">
        <ele>106.84</ele>
        <time>2020-05-23T08:31:41Z</time>
      </trkpt>
      <trkpt lat="50.70152" lon="4.69955">
        <ele>106.84</ele>
        <time>2020-05-23T08:31:42Z</time>
      </trkpt>
      <trkpt lat="50.70154" lon="4.69957">
        <ele>106.84</ele>
        <time>2020-05-23T08:31:43Z</time>
      </trkpt>
      <trkpt lat="50.70169" lon="4.69982">
        <ele>111.17</ele>
        <time>2020-05-23T08:31:55Z</time>
      </trkpt>
      <trkpt lat="50.70178" lon="4.69995">
        <ele>115.01</ele>
        <time>2020-05-23T08:32:04Z</time>
      </trkpt>
      <trkpt lat="50.70187" lon="4.70012">
        <ele>119.82</ele>
        <time>2020-05-23T08:32:13Z</time>
      </trkpt>
      <trkpt lat="50.70204" lon="4.70039">
        <ele>123.19</ele>
        <time>2020-05-23T08:32:27Z</time>
      </trkpt>
      <trkpt lat="50.70218" lon="4.70057">
        <ele>124.63</ele>
        <time>2020-05-23T08:32:36Z</time>
      </trkpt>
      <trkpt lat="50.70225" lon="4.70068">
        <ele>125.59</ele>
        <time>2020-05-23T08:32:41Z</time>
      </trkpt>
      <trkpt lat="50.70226" lon="4.7007">
        <ele>125.59</ele>
        <time>2020-05-23T08:32:42Z</time>
      </trkpt>
      <trkpt lat="50.70227" lon="4.70072">
        <ele>125.59</ele>
        <time>2020-05-23T08:32:43Z</time>
      </trkpt>
      <trkpt lat="50.70228" lon="4.70074">
        <ele>125.59</ele>
        <time>2020-05-23T08:32:44Z</time>
      </trkpt>
      <trkpt lat="50.70229" lon="4.70076">
        <ele>126.07</ele>
        <time>2020-05-23T08:32:45Z</time>
      </trkpt>
      <trkpt lat="50.70242" lon="4.70098">
        <ele>127.99</ele>
        <time>2020-05-23T08:32:57Z</time>
      </trkpt>
      <trkpt lat="50.70254" lon="4.70114">
        <ele>129.43</ele>
        <time>2020-05-23T08:33:06Z</time>
      </trkpt>
      <trkpt lat="50.70265" lon="4.70132">
        <ele>131.36</ele>
        <time>2020-05-23T08:33:15Z</time>
      </trkpt>
      <trkpt lat="50.70276" lon="4.7015">
        <ele>131.84</ele>
        <time>2020-05-23T08:33:25Z</time>
      </trkpt>
      <trkpt lat="50.70293" lon="4.70175">
        <ele>129.92</ele>
        <time>2020-05-23T08:33:36Z</time>
      </trkpt>
      <trkpt lat="50.70305" lon="4.70199">
        <ele>130.88</ele>
        <time>2020-05-23T08:33:44Z</time>
      </trkpt>
      <trkpt lat="50.70321" lon="4.70226">
        <ele>130.88</ele>
        <time>2020-05-23T08:33:52Z</time>
      </trkpt>
      <trkpt lat="50.70332" lon="4.70243">
        <ele>130.4</ele>
        <time>2020-05-23T08:33:55Z</time>
      </trkpt>
      <trkpt lat="50.70383" lon="4.70327">
        <ele>125.11</ele>
        <time>2020-05-23T08:34:05Z</time>
      </trkpt>
      <trkpt lat="50.70424" lon="4.70385">
        <ele>123.19</ele>
        <time>2020-05-23T08:34:13Z</time>
      </trkpt>
      <trkpt lat="50.70429" lon="4.70391">
        <ele>123.19</ele>
        <time>2020-05-23T08:34:14Z</time>
      </trkpt>
      <trkpt lat="50.70433" lon="4.70396">
        <ele>123.19</ele>
        <time>2020-05-23T08:34:15Z</time>
      </trkpt>
      <trkpt lat="50.70438" lon="4.704">
        <ele>123.19</ele>
        <time>2020-05-23T08:34:16Z</time>
      </trkpt>
      <trkpt lat="50.70442" lon="4.70404">
        <ele>123.19</ele>
        <time>2020-05-23T08:34:17Z</time>
      </trkpt>
      <trkpt lat="50.70465" lon="4.70417">
        <ele>118.86</ele>
        <time>2020-05-23T08:34:21Z</time>
      </trkpt>
      <trkpt lat="50.70524" lon="4.70449">
        <ele>113.57</ele>
        <time>2020-05-23T08:34:30Z</time>
      </trkpt>
      <trkpt lat="50.70549" lon="4.70462">
        <ele>111.65</ele>
        <time>2020-05-23T08:34:33Z</time>
      </trkpt>
      <trkpt lat="50.70557" lon="4.70469">
        <ele>110.69</ele>
        <time>2020-05-23T08:34:34Z</time>
      </trkpt>
      <trkpt lat="50.70565" lon="4.70478">
        <ele>109.73</ele>
        <time>2020-05-23T08:34:35Z</time>
      </trkpt>
      <trkpt lat="50.70573" lon="4.70488">
        <ele>108.77</ele>
        <time>2020-05-23T08:34:36Z</time>
      </trkpt>
      <trkpt lat="50.7058" lon="4.705">
        <ele>107.81</ele>
        <time>2020-05-23T08:34:37Z</time>
      </trkpt>
      <trkpt lat="50.70616" lon="4.70559">
        <ele>101.08</ele>
        <time>2020-05-23T08:34:43Z</time>
      </trkpt>
      <trkpt lat="50.70628" lon="4.70585">
        <ele>95.31</ele>
        <time>2020-05-23T08:34:49Z</time>
      </trkpt>
      <trkpt lat="50.70625" lon="4.70591">
        <ele>89.06</ele>
        <time>2020-05-23T08:34:59Z</time>
      </trkpt>
      <trkpt lat="50.70623" lon="4.70591">
        <ele>87.14</ele>
        <time>2020-05-23T08:35:14Z</time>
      </trkpt>
      <trkpt lat="50.70621" lon="4.706">
        <ele>87.14</ele>
        <time>2020-05-23T08:35:21Z</time>
      </trkpt>
      <trkpt lat="50.7062" lon="4.70601">
        <ele>87.14</ele>
        <time>2020-05-23T08:35:22Z</time>
      </trkpt>
      <trkpt lat="50.7062" lon="4.70603">
        <ele>87.14</ele>
        <time>2020-05-23T08:35:23Z</time>
      </trkpt>
      <trkpt lat="50.70621" lon="4.70607">
        <ele>87.14</ele>
        <time>2020-05-23T08:35:25Z</time>
      </trkpt>
      <trkpt lat="50.70622" lon="4.70609">
        <ele>87.14</ele>
        <time>2020-05-23T08:35:26Z</time>
      </trkpt>
      <trkpt lat="50.70624" lon="4.70612">
        <ele>87.14</ele>
        <time>2020-05-23T08:35:27Z</time>
      </trkpt>
      <trkpt lat="50.70626" lon="4.70615">
        <ele>87.14</ele>
        <time>2020-05-23T08:35:28Z</time>
      </trkpt>
      <trkpt lat="50.70628" lon="4.70619">
        <ele>86.66</ele>
        <time>2020-05-23T08:35:29Z</time>
      </trkpt>
      <trkpt lat="50.7063" lon="4.70622">
        <ele>86.66</ele>
        <time>2020-05-23T08:35:30Z</time>
      </trkpt>
      <trkpt lat="50.70647" lon="4.70651">
        <ele>85.21</ele>
        <time>2020-05-23T08:35:39Z</time>
      </trkpt>
      <trkpt lat="50.70672" lon="4.70696">
        <ele>79.93</ele>
        <time>2020-05-23T08:35:50Z</time>
      </trkpt>
      <trkpt lat="50.70682" lon="4.70719">
        <ele>77.04</ele>
        <time>2020-05-23T08:35:55Z</time>
      </trkpt>
      <trkpt lat="50.70683" lon="4.70726">
        <ele>76.56</ele>
        <time>2020-05-23T08:35:56Z</time>
      </trkpt>
      <trkpt lat="50.70685" lon="4.70733">
        <ele>76.08</ele>
        <time>2020-05-23T08:35:57Z</time>
      </trkpt>
      <trkpt lat="50.70687" lon="4.7074">
        <ele>75.6</ele>
        <time>2020-05-23T08:35:58Z</time>
      </trkpt>
      <trkpt lat="50.70689" lon="4.70748">
        <ele>75.12</ele>
        <time>2020-05-23T08:35:59Z</time>
      </trkpt>
      <trkpt lat="50.70692" lon="4.70756">
        <ele>75.12</ele>
        <time>2020-05-23T08:36:00Z</time>
      </trkpt>
      <trkpt lat="50.70707" lon="4.7079">
        <ele>77.04</ele>
        <time>2020-05-23T08:36:07Z</time>
      </trkpt>
      <trkpt lat="50.70709" lon="4.70796">
        <ele>78.48</ele>
        <time>2020-05-23T08:36:14Z</time>
      </trkpt>
      <trkpt lat="50.70714" lon="4.70811">
        <ele>79.45</ele>
        <time>2020-05-23T08:36:23Z</time>
      </trkpt>
      <trkpt lat="50.70716" lon="4.70817">
        <ele>80.41</ele>
        <time>2020-05-23T08:36:25Z</time>
      </trkpt>
      <trkpt lat="50.70726" lon="4.70844">
        <ele>82.81</ele>
        <time>2020-05-23T08:36:33Z</time>
      </trkpt>
      <trkpt lat="50.70725" lon="4.70846">
        <ele>82.81</ele>
        <time>2020-05-23T08:36:34Z</time>
      </trkpt>
      <trkpt lat="50.70725" lon="4.7085">
        <ele>82.81</ele>
        <time>2020-05-23T08:36:35Z</time>
      </trkpt>
      <trkpt lat="50.7072" lon="4.70895">
        <ele>81.85</ele>
        <time>2020-05-23T08:36:45Z</time>
      </trkpt>
      <trkpt lat="50.70722" lon="4.70923">
        <ele>78</ele>
        <time>2020-05-23T08:36:54Z</time>
      </trkpt>
      <trkpt lat="50.70723" lon="4.70925">
        <ele>78</ele>
        <time>2020-05-23T08:36:55Z</time>
      </trkpt>
      <trkpt lat="50.70724" lon="4.70927">
        <ele>77.52</ele>
        <time>2020-05-23T08:36:56Z</time>
      </trkpt>
      <trkpt lat="50.70725" lon="4.70929">
        <ele>77.52</ele>
        <time>2020-05-23T08:36:57Z</time>
      </trkpt>
      <trkpt lat="50.70726" lon="4.7093">
        <ele>78</ele>
        <time>2020-05-23T08:36:58Z</time>
      </trkpt>
      <trkpt lat="50.70742" lon="4.7095">
        <ele>82.81</ele>
        <time>2020-05-23T08:37:10Z</time>
      </trkpt>
      <trkpt lat="50.70758" lon="4.70967">
        <ele>88.1</ele>
        <time>2020-05-23T08:37:19Z</time>
      </trkpt>
      <trkpt lat="50.70772" lon="4.7098">
        <ele>95.31</ele>
        <time>2020-05-23T08:37:28Z</time>
      </trkpt>
      <trkpt lat="50.70784" lon="4.70992">
        <ele>100.6</ele>
        <time>2020-05-23T08:37:37Z</time>
      </trkpt>
      <trkpt lat="50.70797" lon="4.71007">
        <ele>107.81</ele>
        <time>2020-05-23T08:37:47Z</time>
      </trkpt>
      <trkpt lat="50.70815" lon="4.71024">
        <ele>114.53</ele>
        <time>2020-05-23T08:37:59Z</time>
      </trkpt>
      <trkpt lat="50.70824" lon="4.7103">
        <ele>119.34</ele>
        <time>2020-05-23T08:38:06Z</time>
      </trkpt>
      <trkpt lat="50.70828" lon="4.71033">
        <ele>121.74</ele>
        <time>2020-05-23T08:38:09Z</time>
      </trkpt>
      <trkpt lat="50.7083" lon="4.71034">
        <ele>122.71</ele>
        <time>2020-05-23T08:38:10Z</time>
      </trkpt>
      <trkpt lat="50.70842" lon="4.71049">
        <ele>127.51</ele>
        <time>2020-05-23T08:38:21Z</time>
      </trkpt>
      <trkpt lat="50.7086" lon="4.71063">
        <ele>124.63</ele>
        <time>2020-05-23T08:38:31Z</time>
      </trkpt>
      <trkpt lat="50.70877" lon="4.71078">
        <ele>123.19</ele>
        <time>2020-05-23T08:38:41Z</time>
      </trkpt>
      <trkpt lat="50.70893" lon="4.71093">
        <ele>122.71</ele>
        <time>2020-05-23T08:38:49Z</time>
      </trkpt>
      <trkpt lat="50.70914" lon="4.71114">
        <ele>120.78</ele>
        <time>2020-05-23T08:39:00Z</time>
      </trkpt>
      <trkpt lat="50.70935" lon="4.71136">
        <ele>117.9</ele>
        <time>2020-05-23T08:39:13Z</time>
      </trkpt>
      <trkpt lat="50.70952" lon="4.7115">
        <ele>116.94</ele>
        <time>2020-05-23T08:39:22Z</time>
      </trkpt>
      <trkpt lat="50.7097" lon="4.71154">
        <ele>113.09</ele>
        <time>2020-05-23T08:39:32Z</time>
      </trkpt>
      <trkpt lat="50.70985" lon="4.71157">
        <ele>112.13</ele>
        <time>2020-05-23T08:39:41Z</time>
      </trkpt>
      <trkpt lat="50.70986" lon="4.71157">
        <ele>112.61</ele>
        <time>2020-05-23T08:39:42Z</time>
      </trkpt>
      <trkpt lat="50.70988" lon="4.71157">
        <ele>112.61</ele>
        <time>2020-05-23T08:39:43Z</time>
      </trkpt>
      <trkpt lat="50.71003" lon="4.71156">
        <ele>114.05</ele>
        <time>2020-05-23T08:39:54Z</time>
      </trkpt>
      <trkpt lat="50.71018" lon="4.71156">
        <ele>115.5</ele>
        <time>2020-05-23T08:40:06Z</time>
      </trkpt>
      <trkpt lat="50.7102" lon="4.71156">
        <ele>115.5</ele>
        <time>2020-05-23T08:40:07Z</time>
      </trkpt>
      <trkpt lat="50.71022" lon="4.71156">
        <ele>115.5</ele>
        <time>2020-05-23T08:40:08Z</time>
      </trkpt>
      <trkpt lat="50.71028" lon="4.71157">
        <ele>114.53</ele>
        <time>2020-05-23T08:40:12Z</time>
      </trkpt>
      <trkpt lat="50.71031" lon="4.71157">
        <ele>114.53</ele>
        <time>2020-05-23T08:40:13Z</time>
      </trkpt>
      <trkpt lat="50.71049" lon="4.71134">
        <ele>111.65</ele>
        <time>2020-05-23T08:40:24Z</time>
      </trkpt>
      <trkpt lat="50.71051" lon="4.7113">
        <ele>110.69</ele>
        <time>2020-05-23T08:40:26Z</time>
      </trkpt>
      <trkpt lat="50.71051" lon="4.71127">
        <ele>110.69</ele>
        <time>2020-05-23T08:40:27Z</time>
      </trkpt>
      <trkpt lat="50.71052" lon="4.71126">
        <ele>110.69</ele>
        <time>2020-05-23T08:40:28Z</time>
      </trkpt>
      <trkpt lat="50.71054" lon="4.71124">
        <ele>110.21</ele>
        <time>2020-05-23T08:40:29Z</time>
      </trkpt>
      <trkpt lat="50.71055" lon="4.71121">
        <ele>109.73</ele>
        <time>2020-05-23T08:40:30Z</time>
      </trkpt>
      <trkpt lat="50.71056" lon="4.71119">
        <ele>109.73</ele>
        <time>2020-05-23T08:40:31Z</time>
      </trkpt>
      <trkpt lat="50.71057" lon="4.71117">
        <ele>109.25</ele>
        <time>2020-05-23T08:40:32Z</time>
      </trkpt>
      <trkpt lat="50.71059" lon="4.71115">
        <ele>109.25</ele>
        <time>2020-05-23T08:40:33Z</time>
      </trkpt>
      <trkpt lat="50.7106" lon="4.71114">
        <ele>109.25</ele>
        <time>2020-05-23T08:40:34Z</time>
      </trkpt>
      <trkpt lat="50.71062" lon="4.71113">
        <ele>109.25</ele>
        <time>2020-05-23T08:40:35Z</time>
      </trkpt>
      <trkpt lat="50.71081" lon="4.7112">
        <ele>110.21</ele>
        <time>2020-05-23T08:40:45Z</time>
      </trkpt>
      <trkpt lat="50.71104" lon="4.71151">
        <ele>110.69</ele>
        <time>2020-05-23T08:40:58Z</time>
      </trkpt>
      <trkpt lat="50.71125" lon="4.71179">
        <ele>112.13</ele>
        <time>2020-05-23T08:41:10Z</time>
      </trkpt>
      <trkpt lat="50.71141" lon="4.71202">
        <ele>113.09</ele>
        <time>2020-05-23T08:41:21Z</time>
      </trkpt>
      <trkpt lat="50.71159" lon="4.71225">
        <ele>114.53</ele>
        <time>2020-05-23T08:41:31Z</time>
      </trkpt>
      <trkpt lat="50.71183" lon="4.71256">
        <ele>114.05</ele>
        <time>2020-05-23T08:41:42Z</time>
      </trkpt>
      <trkpt lat="50.71209" lon="4.7129">
        <ele>112.61</ele>
        <time>2020-05-23T08:41:53Z</time>
      </trkpt>
      <trkpt lat="50.71211" lon="4.71296">
        <ele>112.61</ele>
        <time>2020-05-23T08:41:55Z</time>
      </trkpt>
      <trkpt lat="50.71211" lon="4.71299">
        <ele>113.09</ele>
        <time>2020-05-23T08:41:56Z</time>
      </trkpt>
      <trkpt lat="50.71211" lon="4.71302">
        <ele>113.09</ele>
        <time>2020-05-23T08:41:57Z</time>
      </trkpt>
      <trkpt lat="50.7121" lon="4.71305">
        <ele>112.61</ele>
        <time>2020-05-23T08:41:58Z</time>
      </trkpt>
      <trkpt lat="50.71209" lon="4.71309">
        <ele>112.61</ele>
        <time>2020-05-23T08:41:59Z</time>
      </trkpt>
      <trkpt lat="50.71208" lon="4.71312">
        <ele>112.13</ele>
        <time>2020-05-23T08:42:00Z</time>
      </trkpt>
      <trkpt lat="50.71194" lon="4.71352">
        <ele>112.61</ele>
        <time>2020-05-23T08:42:12Z</time>
      </trkpt>
      <trkpt lat="50.71191" lon="4.71355">
        <ele>111.65</ele>
        <time>2020-05-23T08:42:20Z</time>
      </trkpt>
      <trkpt lat="50.71188" lon="4.71354">
        <ele>110.69</ele>
        <time>2020-05-23T08:42:47Z</time>
      </trkpt>
      <trkpt lat="50.7119" lon="4.71357">
        <ele>108.77</ele>
        <time>2020-05-23T08:43:17Z</time>
      </trkpt>
      <trkpt lat="50.71189" lon="4.71359">
        <ele>103</ele>
        <time>2020-05-23T08:43:45Z</time>
      </trkpt>
      <trkpt lat="50.71191" lon="4.7136">
        <ele>106.84</ele>
        <time>2020-05-23T08:44:09Z</time>
      </trkpt>
      <trkpt lat="50.71193" lon="4.71361">
        <ele>110.21</ele>
        <time>2020-05-23T08:44:24Z</time>
      </trkpt>
      <trkpt lat="50.71192" lon="4.71364">
        <ele>110.69</ele>
        <time>2020-05-23T08:44:37Z</time>
      </trkpt>
      <trkpt lat="50.71186" lon="4.71377">
        <ele>112.13</ele>
        <time>2020-05-23T08:44:46Z</time>
      </trkpt>
      <trkpt lat="50.71178" lon="4.7141">
        <ele>113.09</ele>
        <time>2020-05-23T08:44:55Z</time>
      </trkpt>
      <trkpt lat="50.71165" lon="4.71443">
        <ele>114.53</ele>
        <time>2020-05-23T08:45:05Z</time>
      </trkpt>
      <trkpt lat="50.71135" lon="4.71491">
        <ele>114.53</ele>
        <time>2020-05-23T08:45:18Z</time>
      </trkpt>
      <trkpt lat="50.71092" lon="4.7155">
        <ele>115.5</ele>
        <time>2020-05-23T08:45:33Z</time>
      </trkpt>
      <trkpt lat="50.71061" lon="4.71587">
        <ele>114.53</ele>
        <time>2020-05-23T08:45:44Z</time>
      </trkpt>
      <trkpt lat="50.71037" lon="4.71622">
        <ele>114.05</ele>
        <time>2020-05-23T08:45:54Z</time>
      </trkpt>
      <trkpt lat="50.71025" lon="4.71638">
        <ele>114.53</ele>
        <time>2020-05-23T08:45:58Z</time>
      </trkpt>
      <trkpt lat="50.71001" lon="4.71672">
        <ele>114.53</ele>
        <time>2020-05-23T08:46:06Z</time>
      </trkpt>
      <trkpt lat="50.70975" lon="4.7171">
        <ele>114.05</ele>
        <time>2020-05-23T08:46:15Z</time>
      </trkpt>
      <trkpt lat="50.70947" lon="4.71738">
        <ele>118.38</ele>
        <time>2020-05-23T08:46:24Z</time>
      </trkpt>
      <trkpt lat="50.70918" lon="4.71755">
        <ele>121.26</ele>
        <time>2020-05-23T08:46:33Z</time>
      </trkpt>
      <trkpt lat="50.70875" lon="4.71767">
        <ele>124.15</ele>
        <time>2020-05-23T08:46:45Z</time>
      </trkpt>
      <trkpt lat="50.70848" lon="4.71769">
        <ele>127.99</ele>
        <time>2020-05-23T08:46:53Z</time>
      </trkpt>
      <trkpt lat="50.70817" lon="4.71775">
        <ele>126.07</ele>
        <time>2020-05-23T08:47:02Z</time>
      </trkpt>
      <trkpt lat="50.70811" lon="4.71785">
        <ele>125.59</ele>
        <time>2020-05-23T08:47:05Z</time>
      </trkpt>
      <trkpt lat="50.7081" lon="4.71789">
        <ele>125.11</ele>
        <time>2020-05-23T08:47:06Z</time>
      </trkpt>
      <trkpt lat="50.70788" lon="4.71846">
        <ele>123.67</ele>
        <time>2020-05-23T08:47:19Z</time>
      </trkpt>
      <trkpt lat="50.70767" lon="4.71898">
        <ele>123.19</ele>
        <time>2020-05-23T08:47:30Z</time>
      </trkpt>
      <trkpt lat="50.70744" lon="4.71964">
        <ele>121.74</ele>
        <time>2020-05-23T08:47:42Z</time>
      </trkpt>
      <trkpt lat="50.70742" lon="4.71969">
        <ele>121.74</ele>
        <time>2020-05-23T08:47:43Z</time>
      </trkpt>
      <trkpt lat="50.70739" lon="4.71974">
        <ele>121.26</ele>
        <time>2020-05-23T08:47:44Z</time>
      </trkpt>
      <trkpt lat="50.70735" lon="4.71986">
        <ele>121.26</ele>
        <time>2020-05-23T08:47:46Z</time>
      </trkpt>
      <trkpt lat="50.70723" lon="4.72021">
        <ele>121.26</ele>
        <time>2020-05-23T08:47:52Z</time>
      </trkpt>
      <trkpt lat="50.70689" lon="4.72095">
        <ele>119.82</ele>
        <time>2020-05-23T08:48:07Z</time>
      </trkpt>
      <trkpt lat="50.70684" lon="4.72133">
        <ele>119.34</ele>
        <time>2020-05-23T08:48:15Z</time>
      </trkpt>
      <trkpt lat="50.70682" lon="4.72189">
        <ele>119.34</ele>
        <time>2020-05-23T08:48:25Z</time>
      </trkpt>
      <trkpt lat="50.70679" lon="4.72295">
        <ele>120.3</ele>
        <time>2020-05-23T08:48:43Z</time>
      </trkpt>
      <trkpt lat="50.70677" lon="4.72381">
        <ele>120.78</ele>
        <time>2020-05-23T08:48:58Z</time>
      </trkpt>
      <trkpt lat="50.70675" lon="4.72473">
        <ele>121.74</ele>
        <time>2020-05-23T08:49:13Z</time>
      </trkpt>
      <trkpt lat="50.70671" lon="4.72565">
        <ele>124.15</ele>
        <time>2020-05-23T08:49:28Z</time>
      </trkpt>
      <trkpt lat="50.70669" lon="4.72577">
        <ele>124.15</ele>
        <time>2020-05-23T08:49:30Z</time>
      </trkpt>
      <trkpt lat="50.70652" lon="4.72658">
        <ele>124.15</ele>
        <time>2020-05-23T08:49:44Z</time>
      </trkpt>
      <trkpt lat="50.70643" lon="4.72749">
        <ele>124.63</ele>
        <time>2020-05-23T08:49:59Z</time>
      </trkpt>
      <trkpt lat="50.70641" lon="4.7278">
        <ele>125.11</ele>
        <time>2020-05-23T08:50:04Z</time>
      </trkpt>
      <trkpt lat="50.70635" lon="4.7286">
        <ele>127.03</ele>
        <time>2020-05-23T08:50:17Z</time>
      </trkpt>
      <trkpt lat="50.7063" lon="4.72911">
        <ele>128.47</ele>
        <time>2020-05-23T08:50:25Z</time>
      </trkpt>
      <trkpt lat="50.7063" lon="4.72918">
        <ele>128.47</ele>
        <time>2020-05-23T08:50:26Z</time>
      </trkpt>
      <trkpt lat="50.70629" lon="4.72925">
        <ele>128.47</ele>
        <time>2020-05-23T08:50:27Z</time>
      </trkpt>
      <trkpt lat="50.70618" lon="4.7303">
        <ele>131.36</ele>
        <time>2020-05-23T08:50:43Z</time>
      </trkpt>
      <trkpt lat="50.70616" lon="4.7305">
        <ele>131.84</ele>
        <time>2020-05-23T08:50:46Z</time>
      </trkpt>
      <trkpt lat="50.70607" lon="4.73118">
        <ele>134.72</ele>
        <time>2020-05-23T08:50:58Z</time>
      </trkpt>
      <trkpt lat="50.70598" lon="4.73187">
        <ele>137.61</ele>
        <time>2020-05-23T08:51:12Z</time>
      </trkpt>
      <trkpt lat="50.70589" lon="4.73239">
        <ele>139.05</ele>
        <time>2020-05-23T08:51:24Z</time>
      </trkpt>
      <trkpt lat="50.70579" lon="4.73291">
        <ele>139.53</ele>
        <time>2020-05-23T08:51:36Z</time>
      </trkpt>
      <trkpt lat="50.70568" lon="4.73345">
        <ele>139.53</ele>
        <time>2020-05-23T08:51:48Z</time>
      </trkpt>
      <trkpt lat="50.70555" lon="4.73409">
        <ele>139.05</ele>
        <time>2020-05-23T08:52:00Z</time>
      </trkpt>
      <trkpt lat="50.70542" lon="4.73479">
        <ele>137.61</ele>
        <time>2020-05-23T08:52:12Z</time>
      </trkpt>
      <trkpt lat="50.70535" lon="4.73524">
        <ele>136.16</ele>
        <time>2020-05-23T08:52:20Z</time>
      </trkpt>
      <trkpt lat="50.70524" lon="4.73597">
        <ele>136.64</ele>
        <time>2020-05-23T08:52:31Z</time>
      </trkpt>
      <trkpt lat="50.7051" lon="4.73669">
        <ele>135.2</ele>
        <time>2020-05-23T08:52:42Z</time>
      </trkpt>
      <trkpt lat="50.70503" lon="4.73708">
        <ele>135.68</ele>
        <time>2020-05-23T08:52:48Z</time>
      </trkpt>
      <trkpt lat="50.70502" lon="4.73715">
        <ele>135.2</ele>
        <time>2020-05-23T08:52:49Z</time>
      </trkpt>
      <trkpt lat="50.70495" lon="4.73752">
        <ele>135.68</ele>
        <time>2020-05-23T08:52:55Z</time>
      </trkpt>
      <trkpt lat="50.70494" lon="4.73759">
        <ele>135.68</ele>
        <time>2020-05-23T08:52:56Z</time>
      </trkpt>
      <trkpt lat="50.70493" lon="4.73772">
        <ele>135.2</ele>
        <time>2020-05-23T08:52:58Z</time>
      </trkpt>
      <trkpt lat="50.70484" lon="4.73862">
        <ele>132.8</ele>
        <time>2020-05-23T08:53:09Z</time>
      </trkpt>
      <trkpt lat="50.70484" lon="4.73871">
        <ele>132.32</ele>
        <time>2020-05-23T08:53:10Z</time>
      </trkpt>
      <trkpt lat="50.70468" lon="4.73978">
        <ele>133.28</ele>
        <time>2020-05-23T08:53:23Z</time>
      </trkpt>
      <trkpt lat="50.70465" lon="4.73992">
        <ele>133.76</ele>
        <time>2020-05-23T08:53:25Z</time>
      </trkpt>
      <trkpt lat="50.70462" lon="4.74005">
        <ele>133.76</ele>
        <time>2020-05-23T08:53:27Z</time>
      </trkpt>
      <trkpt lat="50.70459" lon="4.74011">
        <ele>134.24</ele>
        <time>2020-05-23T08:53:28Z</time>
      </trkpt>
      <trkpt lat="50.70456" lon="4.74015">
        <ele>134.24</ele>
        <time>2020-05-23T08:53:29Z</time>
      </trkpt>
      <trkpt lat="50.70452" lon="4.74018">
        <ele>134.24</ele>
        <time>2020-05-23T08:53:30Z</time>
      </trkpt>
      <trkpt lat="50.70447" lon="4.7402">
        <ele>134.24</ele>
        <time>2020-05-23T08:53:31Z</time>
      </trkpt>
      <trkpt lat="50.70443" lon="4.74021">
        <ele>134.24</ele>
        <time>2020-05-23T08:53:32Z</time>
      </trkpt>
      <trkpt lat="50.70439" lon="4.74022">
        <ele>134.24</ele>
        <time>2020-05-23T08:53:33Z</time>
      </trkpt>
      <trkpt lat="50.70434" lon="4.74021">
        <ele>134.24</ele>
        <time>2020-05-23T08:53:34Z</time>
      </trkpt>
      <trkpt lat="50.70429" lon="4.7402">
        <ele>134.72</ele>
        <time>2020-05-23T08:53:35Z</time>
      </trkpt>
      <trkpt lat="50.70425" lon="4.74018">
        <ele>134.72</ele>
        <time>2020-05-23T08:53:36Z</time>
      </trkpt>
      <trkpt lat="50.70421" lon="4.74016">
        <ele>134.72</ele>
        <time>2020-05-23T08:53:37Z</time>
      </trkpt>
      <trkpt lat="50.70382" lon="4.73978">
        <ele>134.72</ele>
        <time>2020-05-23T08:53:47Z</time>
      </trkpt>
      <trkpt lat="50.70378" lon="4.73974">
        <ele>134.72</ele>
        <time>2020-05-23T08:53:48Z</time>
      </trkpt>
      <trkpt lat="50.70374" lon="4.7397">
        <ele>135.2</ele>
        <time>2020-05-23T08:53:49Z</time>
      </trkpt>
      <trkpt lat="50.70316" lon="4.73934">
        <ele>136.64</ele>
        <time>2020-05-23T08:54:03Z</time>
      </trkpt>
      <trkpt lat="50.70296" lon="4.73923">
        <ele>137.61</ele>
        <time>2020-05-23T08:54:08Z</time>
      </trkpt>
      <trkpt lat="50.70284" lon="4.73917">
        <ele>138.09</ele>
        <time>2020-05-23T08:54:11Z</time>
      </trkpt>
      <trkpt lat="50.70279" lon="4.73916">
        <ele>138.09</ele>
        <time>2020-05-23T08:54:12Z</time>
      </trkpt>
      <trkpt lat="50.70275" lon="4.73917">
        <ele>138.57</ele>
        <time>2020-05-23T08:54:13Z</time>
      </trkpt>
      <trkpt lat="50.70271" lon="4.73918">
        <ele>138.57</ele>
        <time>2020-05-23T08:54:14Z</time>
      </trkpt>
      <trkpt lat="50.70268" lon="4.73921">
        <ele>138.57</ele>
        <time>2020-05-23T08:54:15Z</time>
      </trkpt>
      <trkpt lat="50.70265" lon="4.73926">
        <ele>139.05</ele>
        <time>2020-05-23T08:54:16Z</time>
      </trkpt>
      <trkpt lat="50.70263" lon="4.73932">
        <ele>139.53</ele>
        <time>2020-05-23T08:54:17Z</time>
      </trkpt>
      <trkpt lat="50.70255" lon="4.7398">
        <ele>141.45</ele>
        <time>2020-05-23T08:54:26Z</time>
      </trkpt>
      <trkpt lat="50.70242" lon="4.74021">
        <ele>141.45</ele>
        <time>2020-05-23T08:54:36Z</time>
      </trkpt>
      <trkpt lat="50.70239" lon="4.74022">
        <ele>141.45</ele>
        <time>2020-05-23T08:54:37Z</time>
      </trkpt>
      <trkpt lat="50.70211" lon="4.74038">
        <ele>140.01</ele>
        <time>2020-05-23T08:54:46Z</time>
      </trkpt>
      <trkpt lat="50.70181" lon="4.74055">
        <ele>140.01</ele>
        <time>2020-05-23T08:54:56Z</time>
      </trkpt>
      <trkpt lat="50.70148" lon="4.74088">
        <ele>140.97</ele>
        <time>2020-05-23T08:55:07Z</time>
      </trkpt>
      <trkpt lat="50.70146" lon="4.74093">
        <ele>140.97</ele>
        <time>2020-05-23T08:55:08Z</time>
      </trkpt>
      <trkpt lat="50.70143" lon="4.74098">
        <ele>140.97</ele>
        <time>2020-05-23T08:55:09Z</time>
      </trkpt>
      <trkpt lat="50.70109" lon="4.74172">
        <ele>141.45</ele>
        <time>2020-05-23T08:55:23Z</time>
      </trkpt>
      <trkpt lat="50.70106" lon="4.74178">
        <ele>141.45</ele>
        <time>2020-05-23T08:55:24Z</time>
      </trkpt>
      <trkpt lat="50.70103" lon="4.74184">
        <ele>141.45</ele>
        <time>2020-05-23T08:55:25Z</time>
      </trkpt>
      <trkpt lat="50.70093" lon="4.74202">
        <ele>140.97</ele>
        <time>2020-05-23T08:55:28Z</time>
      </trkpt>
      <trkpt lat="50.70048" lon="4.743">
        <ele>141.45</ele>
        <time>2020-05-23T08:55:43Z</time>
      </trkpt>
      <trkpt lat="50.70015" lon="4.74396">
        <ele>141.45</ele>
        <time>2020-05-23T08:55:56Z</time>
      </trkpt>
      <trkpt lat="50.6999" lon="4.74504">
        <ele>142.41</ele>
        <time>2020-05-23T08:56:10Z</time>
      </trkpt>
      <trkpt lat="50.69972" lon="4.74604">
        <ele>143.37</ele>
        <time>2020-05-23T08:56:23Z</time>
      </trkpt>
      <trkpt lat="50.69952" lon="4.74709">
        <ele>145.3</ele>
        <time>2020-05-23T08:56:38Z</time>
      </trkpt>
      <trkpt lat="50.69931" lon="4.74818">
        <ele>145.78</ele>
        <time>2020-05-23T08:56:54Z</time>
      </trkpt>
      <trkpt lat="50.69928" lon="4.7484">
        <ele>145.3</ele>
        <time>2020-05-23T08:56:57Z</time>
      </trkpt>
      <trkpt lat="50.69904" lon="4.74964">
        <ele>143.37</ele>
        <time>2020-05-23T08:57:12Z</time>
      </trkpt>
      <trkpt lat="50.69885" lon="4.75065">
        <ele>143.37</ele>
        <time>2020-05-23T08:57:24Z</time>
      </trkpt>
      <trkpt lat="50.69874" lon="4.75191">
        <ele>143.37</ele>
        <time>2020-05-23T08:57:38Z</time>
      </trkpt>
      <trkpt lat="50.69874" lon="4.75219">
        <ele>143.37</ele>
        <time>2020-05-23T08:57:41Z</time>
      </trkpt>
      <trkpt lat="50.69873" lon="4.75228">
        <ele>143.37</ele>
        <time>2020-05-23T08:57:42Z</time>
      </trkpt>
      <trkpt lat="50.6987" lon="4.75235">
        <ele>142.89</ele>
        <time>2020-05-23T08:57:43Z</time>
      </trkpt>
      <trkpt lat="50.69866" lon="4.75238">
        <ele>142.89</ele>
        <time>2020-05-23T08:57:44Z</time>
      </trkpt>
      <trkpt lat="50.69861" lon="4.75237">
        <ele>142.41</ele>
        <time>2020-05-23T08:57:45Z</time>
      </trkpt>
      <trkpt lat="50.69857" lon="4.75233">
        <ele>142.41</ele>
        <time>2020-05-23T08:57:46Z</time>
      </trkpt>
      <trkpt lat="50.69853" lon="4.75227">
        <ele>142.41</ele>
        <time>2020-05-23T08:57:47Z</time>
      </trkpt>
      <trkpt lat="50.6985" lon="4.75219">
        <ele>141.93</ele>
        <time>2020-05-23T08:57:48Z</time>
      </trkpt>
      <trkpt lat="50.69848" lon="4.75212">
        <ele>141.93</ele>
        <time>2020-05-23T08:57:49Z</time>
      </trkpt>
      <trkpt lat="50.6982" lon="4.75146">
        <ele>141.45</ele>
        <time>2020-05-23T08:57:59Z</time>
      </trkpt>
      <trkpt lat="50.69779" lon="4.7503">
        <ele>141.93</ele>
        <time>2020-05-23T08:58:17Z</time>
      </trkpt>
      <trkpt lat="50.69771" lon="4.75007">
        <ele>142.41</ele>
        <time>2020-05-23T08:58:21Z</time>
      </trkpt>
      <trkpt lat="50.6974" lon="4.74911">
        <ele>142.89</ele>
        <time>2020-05-23T08:58:38Z</time>
      </trkpt>
      <trkpt lat="50.69723" lon="4.7485">
        <ele>144.34</ele>
        <time>2020-05-23T08:58:49Z</time>
      </trkpt>
      <trkpt lat="50.6971" lon="4.74809">
        <ele>145.3</ele>
        <time>2020-05-23T08:58:57Z</time>
      </trkpt>
      <trkpt lat="50.69696" lon="4.74776">
        <ele>145.3</ele>
        <time>2020-05-23T08:59:05Z</time>
      </trkpt>
      <trkpt lat="50.6968" lon="4.74747">
        <ele>145.3</ele>
        <time>2020-05-23T08:59:14Z</time>
      </trkpt>
      <trkpt lat="50.69652" lon="4.74697">
        <ele>145.78</ele>
        <time>2020-05-23T08:59:25Z</time>
      </trkpt>
      <trkpt lat="50.69622" lon="4.74659">
        <ele>145.3</ele>
        <time>2020-05-23T08:59:36Z</time>
      </trkpt>
      <trkpt lat="50.69618" lon="4.7466">
        <ele>145.3</ele>
        <time>2020-05-23T08:59:37Z</time>
      </trkpt>
      <trkpt lat="50.69616" lon="4.74663">
        <ele>145.3</ele>
        <time>2020-05-23T08:59:38Z</time>
      </trkpt>
      <trkpt lat="50.69613" lon="4.74666">
        <ele>145.3</ele>
        <time>2020-05-23T08:59:39Z</time>
      </trkpt>
      <trkpt lat="50.6961" lon="4.7467">
        <ele>145.3</ele>
        <time>2020-05-23T08:59:40Z</time>
      </trkpt>
      <trkpt lat="50.6958" lon="4.74713">
        <ele>146.26</ele>
        <time>2020-05-23T08:59:52Z</time>
      </trkpt>
      <trkpt lat="50.69554" lon="4.74762">
        <ele>146.26</ele>
        <time>2020-05-23T09:00:05Z</time>
      </trkpt>
      <trkpt lat="50.69534" lon="4.74806">
        <ele>147.7</ele>
        <time>2020-05-23T09:00:16Z</time>
      </trkpt>
      <trkpt lat="50.69524" lon="4.74825">
        <ele>147.22</ele>
        <time>2020-05-23T09:00:20Z</time>
      </trkpt>
      <trkpt lat="50.69472" lon="4.74895">
        <ele>144.34</ele>
        <time>2020-05-23T09:00:33Z</time>
      </trkpt>
      <trkpt lat="50.69413" lon="4.74944">
        <ele>141.93</ele>
        <time>2020-05-23T09:00:44Z</time>
      </trkpt>
      <trkpt lat="50.69395" lon="4.74952">
        <ele>141.93</ele>
        <time>2020-05-23T09:00:47Z</time>
      </trkpt>
      <trkpt lat="50.69389" lon="4.74956">
        <ele>141.45</ele>
        <time>2020-05-23T09:00:48Z</time>
      </trkpt>
      <trkpt lat="50.69384" lon="4.74962">
        <ele>141.45</ele>
        <time>2020-05-23T09:00:49Z</time>
      </trkpt>
      <trkpt lat="50.6938" lon="4.74969">
        <ele>141.45</ele>
        <time>2020-05-23T09:00:50Z</time>
      </trkpt>
      <trkpt lat="50.69376" lon="4.74977">
        <ele>140.97</ele>
        <time>2020-05-23T09:00:51Z</time>
      </trkpt>
      <trkpt lat="50.69374" lon="4.74986">
        <ele>140.97</ele>
        <time>2020-05-23T09:00:52Z</time>
      </trkpt>
      <trkpt lat="50.69373" lon="4.74996">
        <ele>140.97</ele>
        <time>2020-05-23T09:00:53Z</time>
      </trkpt>
      <trkpt lat="50.69373" lon="4.75007">
        <ele>140.97</ele>
        <time>2020-05-23T09:00:54Z</time>
      </trkpt>
      <trkpt lat="50.69374" lon="4.75017">
        <ele>140.97</ele>
        <time>2020-05-23T09:00:55Z</time>
      </trkpt>
      <trkpt lat="50.69375" lon="4.75028">
        <ele>140.97</ele>
        <time>2020-05-23T09:00:56Z</time>
      </trkpt>
      <trkpt lat="50.69387" lon="4.7513">
        <ele>140.01</ele>
        <time>2020-05-23T09:01:05Z</time>
      </trkpt>
      <trkpt lat="50.6939" lon="4.75287">
        <ele>136.16</ele>
        <time>2020-05-23T09:01:16Z</time>
      </trkpt>
      <trkpt lat="50.69389" lon="4.75364">
        <ele>133.76</ele>
        <time>2020-05-23T09:01:21Z</time>
      </trkpt>
      <trkpt lat="50.69387" lon="4.75379">
        <ele>133.28</ele>
        <time>2020-05-23T09:01:22Z</time>
      </trkpt>
      <trkpt lat="50.6938" lon="4.75422">
        <ele>131.84</ele>
        <time>2020-05-23T09:01:25Z</time>
      </trkpt>
      <trkpt lat="50.69379" lon="4.75437">
        <ele>131.36</ele>
        <time>2020-05-23T09:01:26Z</time>
      </trkpt>
      <trkpt lat="50.69375" lon="4.75492">
        <ele>129.43</ele>
        <time>2020-05-23T09:01:30Z</time>
      </trkpt>
      <trkpt lat="50.69373" lon="4.75505">
        <ele>128.95</ele>
        <time>2020-05-23T09:01:31Z</time>
      </trkpt>
      <trkpt lat="50.6937" lon="4.75518">
        <ele>128.95</ele>
        <time>2020-05-23T09:01:32Z</time>
      </trkpt>
      <trkpt lat="50.69357" lon="4.75596">
        <ele>126.55</ele>
        <time>2020-05-23T09:01:38Z</time>
      </trkpt>
      <trkpt lat="50.69358" lon="4.7561">
        <ele>126.55</ele>
        <time>2020-05-23T09:01:39Z</time>
      </trkpt>
      <trkpt lat="50.69365" lon="4.75684">
        <ele>126.07</ele>
        <time>2020-05-23T09:01:45Z</time>
      </trkpt>
      <trkpt lat="50.69365" lon="4.75696">
        <ele>126.07</ele>
        <time>2020-05-23T09:01:46Z</time>
      </trkpt>
      <trkpt lat="50.69362" lon="4.75707">
        <ele>126.07</ele>
        <time>2020-05-23T09:01:47Z</time>
      </trkpt>
      <trkpt lat="50.69358" lon="4.75718">
        <ele>126.07</ele>
        <time>2020-05-23T09:01:48Z</time>
      </trkpt>
      <trkpt lat="50.69353" lon="4.75726">
        <ele>126.07</ele>
        <time>2020-05-23T09:01:49Z</time>
      </trkpt>
      <trkpt lat="50.69347" lon="4.75735">
        <ele>126.07</ele>
        <time>2020-05-23T09:01:50Z</time>
      </trkpt>
      <trkpt lat="50.69344" lon="4.75745">
        <ele>126.07</ele>
        <time>2020-05-23T09:01:51Z</time>
      </trkpt>
      <trkpt lat="50.69342" lon="4.75755">
        <ele>126.07</ele>
        <time>2020-05-23T09:01:52Z</time>
      </trkpt>
      <trkpt lat="50.69343" lon="4.75765">
        <ele>126.07</ele>
        <time>2020-05-23T09:01:53Z</time>
      </trkpt>
      <trkpt lat="50.69345" lon="4.75776">
        <ele>126.07</ele>
        <time>2020-05-23T09:01:54Z</time>
      </trkpt>
      <trkpt lat="50.69346" lon="4.75786">
        <ele>126.07</ele>
        <time>2020-05-23T09:01:55Z</time>
      </trkpt>
      <trkpt lat="50.69351" lon="4.75814">
        <ele>126.07</ele>
        <time>2020-05-23T09:01:58Z</time>
      </trkpt>
      <trkpt lat="50.69351" lon="4.75823">
        <ele>126.07</ele>
        <time>2020-05-23T09:01:59Z</time>
      </trkpt>
      <trkpt lat="50.69351" lon="4.75832">
        <ele>126.07</ele>
        <time>2020-05-23T09:02:00Z</time>
      </trkpt>
      <trkpt lat="50.69349" lon="4.75849">
        <ele>126.55</ele>
        <time>2020-05-23T09:02:02Z</time>
      </trkpt>
      <trkpt lat="50.69348" lon="4.75857">
        <ele>126.55</ele>
        <time>2020-05-23T09:02:03Z</time>
      </trkpt>
      <trkpt lat="50.69348" lon="4.75873">
        <ele>126.07</ele>
        <time>2020-05-23T09:02:05Z</time>
      </trkpt>
      <trkpt lat="50.69348" lon="4.75881">
        <ele>126.07</ele>
        <time>2020-05-23T09:02:06Z</time>
      </trkpt>
      <trkpt lat="50.69347" lon="4.75889">
        <ele>126.07</ele>
        <time>2020-05-23T09:02:07Z</time>
      </trkpt>
      <trkpt lat="50.69333" lon="4.75958">
        <ele>125.59</ele>
        <time>2020-05-23T09:02:17Z</time>
      </trkpt>
      <trkpt lat="50.69312" lon="4.75999">
        <ele>126.55</ele>
        <time>2020-05-23T09:02:25Z</time>
      </trkpt>
      <trkpt lat="50.69295" lon="4.76052">
        <ele>126.55</ele>
        <time>2020-05-23T09:02:34Z</time>
      </trkpt>
      <trkpt lat="50.6929" lon="4.76125">
        <ele>126.07</ele>
        <time>2020-05-23T09:02:44Z</time>
      </trkpt>
      <trkpt lat="50.6929" lon="4.76156">
        <ele>126.07</ele>
        <time>2020-05-23T09:02:48Z</time>
      </trkpt>
      <trkpt lat="50.69296" lon="4.76256">
        <ele>125.59</ele>
        <time>2020-05-23T09:03:00Z</time>
      </trkpt>
      <trkpt lat="50.69299" lon="4.76288">
        <ele>125.11</ele>
        <time>2020-05-23T09:03:04Z</time>
      </trkpt>
      <trkpt lat="50.693" lon="4.7631">
        <ele>125.11</ele>
        <time>2020-05-23T09:03:07Z</time>
      </trkpt>
      <trkpt lat="50.693" lon="4.76318">
        <ele>125.11</ele>
        <time>2020-05-23T09:03:08Z</time>
      </trkpt>
      <trkpt lat="50.69293" lon="4.7638">
        <ele>125.59</ele>
        <time>2020-05-23T09:03:17Z</time>
      </trkpt>
      <trkpt lat="50.69285" lon="4.76414">
        <ele>126.07</ele>
        <time>2020-05-23T09:03:22Z</time>
      </trkpt>
      <trkpt lat="50.69283" lon="4.7642">
        <ele>126.07</ele>
        <time>2020-05-23T09:03:23Z</time>
      </trkpt>
      <trkpt lat="50.69257" lon="4.76484">
        <ele>126.07</ele>
        <time>2020-05-23T09:03:34Z</time>
      </trkpt>
      <trkpt lat="50.69233" lon="4.76538">
        <ele>125.59</ele>
        <time>2020-05-23T09:03:45Z</time>
      </trkpt>
      <trkpt lat="50.69219" lon="4.76583">
        <ele>124.63</ele>
        <time>2020-05-23T09:03:54Z</time>
      </trkpt>
      <trkpt lat="50.69212" lon="4.76628">
        <ele>124.63</ele>
        <time>2020-05-23T09:04:02Z</time>
      </trkpt>
      <trkpt lat="50.69213" lon="4.76648">
        <ele>124.15</ele>
        <time>2020-05-23T09:04:05Z</time>
      </trkpt>
      <trkpt lat="50.69213" lon="4.76655">
        <ele>124.15</ele>
        <time>2020-05-23T09:04:06Z</time>
      </trkpt>
      <trkpt lat="50.69213" lon="4.76662">
        <ele>124.15</ele>
        <time>2020-05-23T09:04:07Z</time>
      </trkpt>
      <trkpt lat="50.69217" lon="4.76742">
        <ele>123.67</ele>
        <time>2020-05-23T09:04:17Z</time>
      </trkpt>
      <trkpt lat="50.69222" lon="4.7684">
        <ele>123.67</ele>
        <time>2020-05-23T09:04:29Z</time>
      </trkpt>
      <trkpt lat="50.69233" lon="4.76956">
        <ele>123.67</ele>
        <time>2020-05-23T09:04:42Z</time>
      </trkpt>
      <trkpt lat="50.69239" lon="4.77019">
        <ele>123.67</ele>
        <time>2020-05-23T09:04:49Z</time>
      </trkpt>
      <trkpt lat="50.69238" lon="4.77027">
        <ele>123.67</ele>
        <time>2020-05-23T09:04:50Z</time>
      </trkpt>
      <trkpt lat="50.69236" lon="4.77036">
        <ele>123.67</ele>
        <time>2020-05-23T09:04:51Z</time>
      </trkpt>
      <trkpt lat="50.69234" lon="4.77043">
        <ele>123.67</ele>
        <time>2020-05-23T09:04:52Z</time>
      </trkpt>
      <trkpt lat="50.69232" lon="4.7705">
        <ele>123.67</ele>
        <time>2020-05-23T09:04:53Z</time>
      </trkpt>
      <trkpt lat="50.6923" lon="4.77057">
        <ele>123.67</ele>
        <time>2020-05-23T09:04:54Z</time>
      </trkpt>
      <trkpt lat="50.69216" lon="4.77091">
        <ele>123.67</ele>
        <time>2020-05-23T09:05:01Z</time>
      </trkpt>
      <trkpt lat="50.69214" lon="4.77092">
        <ele>124.15</ele>
        <time>2020-05-23T09:05:02Z</time>
      </trkpt>
      <trkpt lat="50.69213" lon="4.77091">
        <ele>123.67</ele>
        <time>2020-05-23T09:05:03Z</time>
      </trkpt>
      <trkpt lat="50.69211" lon="4.77088">
        <ele>123.67</ele>
        <time>2020-05-23T09:05:04Z</time>
      </trkpt>
      <trkpt lat="50.69211" lon="4.77085">
        <ele>123.67</ele>
        <time>2020-05-23T09:05:05Z</time>
      </trkpt>
      <trkpt lat="50.6921" lon="4.77082">
        <ele>123.67</ele>
        <time>2020-05-23T09:05:06Z</time>
      </trkpt>
      <trkpt lat="50.69195" lon="4.77037">
        <ele>124.63</ele>
        <time>2020-05-23T09:05:17Z</time>
      </trkpt>
      <trkpt lat="50.69176" lon="4.76984">
        <ele>125.59</ele>
        <time>2020-05-23T09:05:30Z</time>
      </trkpt>
      <trkpt lat="50.69152" lon="4.76923">
        <ele>127.03</ele>
        <time>2020-05-23T09:05:46Z</time>
      </trkpt>
      <trkpt lat="50.69133" lon="4.76879">
        <ele>127.99</ele>
        <time>2020-05-23T09:05:59Z</time>
      </trkpt>
      <trkpt lat="50.69115" lon="4.76841">
        <ele>129.43</ele>
        <time>2020-05-23T09:06:11Z</time>
      </trkpt>
      <trkpt lat="50.69102" lon="4.76801">
        <ele>130.4</ele>
        <time>2020-05-23T09:06:22Z</time>
      </trkpt>
      <trkpt lat="50.69091" lon="4.76756">
        <ele>130.88</ele>
        <time>2020-05-23T09:06:33Z</time>
      </trkpt>
      <trkpt lat="50.69077" lon="4.76706">
        <ele>130.88</ele>
        <time>2020-05-23T09:06:45Z</time>
      </trkpt>
      <trkpt lat="50.69065" lon="4.76665">
        <ele>131.84</ele>
        <time>2020-05-23T09:06:55Z</time>
      </trkpt>
      <trkpt lat="50.69048" lon="4.76616">
        <ele>132.8</ele>
        <time>2020-05-23T09:07:08Z</time>
      </trkpt>
      <trkpt lat="50.69038" lon="4.76591">
        <ele>132.8</ele>
        <time>2020-05-23T09:07:16Z</time>
      </trkpt>
      <trkpt lat="50.69028" lon="4.76568">
        <ele>132.8</ele>
        <time>2020-05-23T09:07:23Z</time>
      </trkpt>
      <trkpt lat="50.69014" lon="4.76538">
        <ele>132.8</ele>
        <time>2020-05-23T09:07:32Z</time>
      </trkpt>
      <trkpt lat="50.68984" lon="4.76485">
        <ele>133.28</ele>
        <time>2020-05-23T09:07:47Z</time>
      </trkpt>
      <trkpt lat="50.68942" lon="4.76424">
        <ele>134.24</ele>
        <time>2020-05-23T09:08:04Z</time>
      </trkpt>
      <trkpt lat="50.68915" lon="4.76392">
        <ele>134.24</ele>
        <time>2020-05-23T09:08:15Z</time>
      </trkpt>
      <trkpt lat="50.68886" lon="4.76351">
        <ele>133.76</ele>
        <time>2020-05-23T09:08:28Z</time>
      </trkpt>
      <trkpt lat="50.68867" lon="4.76325">
        <ele>133.28</ele>
        <time>2020-05-23T09:08:37Z</time>
      </trkpt>
      <trkpt lat="50.68849" lon="4.763">
        <ele>132.8</ele>
        <time>2020-05-23T09:08:46Z</time>
      </trkpt>
      <trkpt lat="50.68834" lon="4.76276">
        <ele>132.8</ele>
        <time>2020-05-23T09:08:54Z</time>
      </trkpt>
      <trkpt lat="50.68818" lon="4.76248">
        <ele>132.8</ele>
        <time>2020-05-23T09:09:03Z</time>
      </trkpt>
      <trkpt lat="50.68798" lon="4.76206">
        <ele>133.76</ele>
        <time>2020-05-23T09:09:14Z</time>
      </trkpt>
      <trkpt lat="50.68776" lon="4.76159">
        <ele>133.76</ele>
        <time>2020-05-23T09:09:26Z</time>
      </trkpt>
      <trkpt lat="50.6876" lon="4.76128">
        <ele>133.76</ele>
        <time>2020-05-23T09:09:35Z</time>
      </trkpt>
      <trkpt lat="50.68747" lon="4.76099">
        <ele>134.24</ele>
        <time>2020-05-23T09:09:43Z</time>
      </trkpt>
      <trkpt lat="50.6873" lon="4.76068">
        <ele>134.24</ele>
        <time>2020-05-23T09:09:52Z</time>
      </trkpt>
      <trkpt lat="50.6871" lon="4.7603">
        <ele>135.68</ele>
        <time>2020-05-23T09:10:03Z</time>
      </trkpt>
      <trkpt lat="50.68688" lon="4.75987">
        <ele>137.13</ele>
        <time>2020-05-23T09:10:15Z</time>
      </trkpt>
      <trkpt lat="50.68668" lon="4.75941">
        <ele>137.61</ele>
        <time>2020-05-23T09:10:28Z</time>
      </trkpt>
      <trkpt lat="50.68651" lon="4.759">
        <ele>138.09</ele>
        <time>2020-05-23T09:10:40Z</time>
      </trkpt>
      <trkpt lat="50.68631" lon="4.75852">
        <ele>138.57</ele>
        <time>2020-05-23T09:10:54Z</time>
      </trkpt>
      <trkpt lat="50.6862" lon="4.75825">
        <ele>138.57</ele>
        <time>2020-05-23T09:11:03Z</time>
      </trkpt>
      <trkpt lat="50.68601" lon="4.7578">
        <ele>137.61</ele>
        <time>2020-05-23T09:11:15Z</time>
      </trkpt>
      <trkpt lat="50.68584" lon="4.75741">
        <ele>136.64</ele>
        <time>2020-05-23T09:11:25Z</time>
      </trkpt>
      <trkpt lat="50.68572" lon="4.75703">
        <ele>136.16</ele>
        <time>2020-05-23T09:11:34Z</time>
      </trkpt>
      <trkpt lat="50.68554" lon="4.75641">
        <ele>137.13</ele>
        <time>2020-05-23T09:11:47Z</time>
      </trkpt>
      <trkpt lat="50.68533" lon="4.75579">
        <ele>139.05</ele>
        <time>2020-05-23T09:12:01Z</time>
      </trkpt>
      <trkpt lat="50.68511" lon="4.75524">
        <ele>139.53</ele>
        <time>2020-05-23T09:12:14Z</time>
      </trkpt>
      <trkpt lat="50.68484" lon="4.75466">
        <ele>140.49</ele>
        <time>2020-05-23T09:12:29Z</time>
      </trkpt>
      <trkpt lat="50.68464" lon="4.75428">
        <ele>141.45</ele>
        <time>2020-05-23T09:12:41Z</time>
      </trkpt>
      <trkpt lat="50.68439" lon="4.75381">
        <ele>141.45</ele>
        <time>2020-05-23T09:12:57Z</time>
      </trkpt>
      <trkpt lat="50.68422" lon="4.75363">
        <ele>140.49</ele>
        <time>2020-05-23T09:13:06Z</time>
      </trkpt>
      <trkpt lat="50.68402" lon="4.75325">
        <ele>139.05</ele>
        <time>2020-05-23T09:13:17Z</time>
      </trkpt>
      <trkpt lat="50.6838" lon="4.75288">
        <ele>135.2</ele>
        <time>2020-05-23T09:13:28Z</time>
      </trkpt>
      <trkpt lat="50.6836" lon="4.75246">
        <ele>132.8</ele>
        <time>2020-05-23T09:13:39Z</time>
      </trkpt>
      <trkpt lat="50.68341" lon="4.75195">
        <ele>136.16</ele>
        <time>2020-05-23T09:13:50Z</time>
      </trkpt>
      <trkpt lat="50.68311" lon="4.75127">
        <ele>140.49</ele>
        <time>2020-05-23T09:14:05Z</time>
      </trkpt>
      <trkpt lat="50.68279" lon="4.75054">
        <ele>143.37</ele>
        <time>2020-05-23T09:14:21Z</time>
      </trkpt>
      <trkpt lat="50.68263" lon="4.75018">
        <ele>143.85</ele>
        <time>2020-05-23T09:14:30Z</time>
      </trkpt>
      <trkpt lat="50.68244" lon="4.74981">
        <ele>144.82</ele>
        <time>2020-05-23T09:14:40Z</time>
      </trkpt>
      <trkpt lat="50.68227" lon="4.74954">
        <ele>145.78</ele>
        <time>2020-05-23T09:14:49Z</time>
      </trkpt>
      <trkpt lat="50.68208" lon="4.74925">
        <ele>145.3</ele>
        <time>2020-05-23T09:14:59Z</time>
      </trkpt>
      <trkpt lat="50.68178" lon="4.74878">
        <ele>144.82</ele>
        <time>2020-05-23T09:15:11Z</time>
      </trkpt>
      <trkpt lat="50.68146" lon="4.74831">
        <ele>144.34</ele>
        <time>2020-05-23T09:15:22Z</time>
      </trkpt>
      <trkpt lat="50.68118" lon="4.7479">
        <ele>144.82</ele>
        <time>2020-05-23T09:15:33Z</time>
      </trkpt>
      <trkpt lat="50.68094" lon="4.74755">
        <ele>143.37</ele>
        <time>2020-05-23T09:15:41Z</time>
      </trkpt>
      <trkpt lat="50.68091" lon="4.74751">
        <ele>143.37</ele>
        <time>2020-05-23T09:15:42Z</time>
      </trkpt>
      <trkpt lat="50.68068" lon="4.74719">
        <ele>142.41</ele>
        <time>2020-05-23T09:15:51Z</time>
      </trkpt>
      <trkpt lat="50.68042" lon="4.74687">
        <ele>141.93</ele>
        <time>2020-05-23T09:16:03Z</time>
      </trkpt>
      <trkpt lat="50.68043" lon="4.74679">
        <ele>142.41</ele>
        <time>2020-05-23T09:16:11Z</time>
      </trkpt>
      <trkpt lat="50.68043" lon="4.74678">
        <ele>142.89</ele>
        <time>2020-05-23T09:16:23Z</time>
      </trkpt>
      <trkpt lat="50.68043" lon="4.7468">
        <ele>144.34</ele>
        <time>2020-05-23T09:16:49Z</time>
      </trkpt>
      <trkpt lat="50.68042" lon="4.7468">
        <ele>145.78</ele>
        <time>2020-05-23T09:17:20Z</time>
      </trkpt>
      <trkpt lat="50.68042" lon="4.74679">
        <ele>144.82</ele>
        <time>2020-05-23T09:17:44Z</time>
      </trkpt>
      <trkpt lat="50.68042" lon="4.74679">
        <ele>145.78</ele>
        <time>2020-05-23T09:18:13Z</time>
      </trkpt>
      <trkpt lat="50.68042" lon="4.74678">
        <ele>146.26</ele>
        <time>2020-05-23T09:18:37Z</time>
      </trkpt>
      <trkpt lat="50.68042" lon="4.74681">
        <ele>146.74</ele>
        <time>2020-05-23T09:19:00Z</time>
      </trkpt>
      <trkpt lat="50.68041" lon="4.7468">
        <ele>145.78</ele>
        <time>2020-05-23T09:19:29Z</time>
      </trkpt>
      <trkpt lat="50.68043" lon="4.74677">
        <ele>145.3</ele>
        <time>2020-05-23T09:20:05Z</time>
      </trkpt>
      <trkpt lat="50.68043" lon="4.74677">
        <ele>146.26</ele>
        <time>2020-05-23T09:20:36Z</time>
      </trkpt>
      <trkpt lat="50.68042" lon="4.74678">
        <ele>147.7</ele>
        <time>2020-05-23T09:21:09Z</time>
      </trkpt>
      <trkpt lat="50.68041" lon="4.74678">
        <ele>150.58</ele>
        <time>2020-05-23T09:21:37Z</time>
      </trkpt>
      <trkpt lat="50.68041" lon="4.7468">
        <ele>150.58</ele>
        <time>2020-05-23T09:21:51Z</time>
      </trkpt>
      <trkpt lat="50.68039" lon="4.74679">
        <ele>150.1</ele>
        <time>2020-05-23T09:22:02Z</time>
      </trkpt>
      <trkpt lat="50.6802" lon="4.74662">
        <ele>150.58</ele>
        <time>2020-05-23T09:22:10Z</time>
      </trkpt>
      <trkpt lat="50.67993" lon="4.74637">
        <ele>150.58</ele>
        <time>2020-05-23T09:22:20Z</time>
      </trkpt>
      <trkpt lat="50.67962" lon="4.74613">
        <ele>149.62</ele>
        <time>2020-05-23T09:22:30Z</time>
      </trkpt>
      <trkpt lat="50.6793" lon="4.74588">
        <ele>148.66</ele>
        <time>2020-05-23T09:22:40Z</time>
      </trkpt>
      <trkpt lat="50.67899" lon="4.74566">
        <ele>147.22</ele>
        <time>2020-05-23T09:22:50Z</time>
      </trkpt>
      <trkpt lat="50.67874" lon="4.74553">
        <ele>146.74</ele>
        <time>2020-05-23T09:22:58Z</time>
      </trkpt>
      <trkpt lat="50.67846" lon="4.74556">
        <ele>146.74</ele>
        <time>2020-05-23T09:23:07Z</time>
      </trkpt>
      <trkpt lat="50.67814" lon="4.74567">
        <ele>146.26</ele>
        <time>2020-05-23T09:23:18Z</time>
      </trkpt>
      <trkpt lat="50.67779" lon="4.74577">
        <ele>146.74</ele>
        <time>2020-05-23T09:23:29Z</time>
      </trkpt>
      <trkpt lat="50.67754" lon="4.74584">
        <ele>147.22</ele>
        <time>2020-05-23T09:23:37Z</time>
      </trkpt>
      <trkpt lat="50.67727" lon="4.7458">
        <ele>148.18</ele>
        <time>2020-05-23T09:23:46Z</time>
      </trkpt>
      <trkpt lat="50.67706" lon="4.7457">
        <ele>148.66</ele>
        <time>2020-05-23T09:23:54Z</time>
      </trkpt>
      <trkpt lat="50.67683" lon="4.74558">
        <ele>149.62</ele>
        <time>2020-05-23T09:24:03Z</time>
      </trkpt>
      <trkpt lat="50.67663" lon="4.74544">
        <ele>149.62</ele>
        <time>2020-05-23T09:24:11Z</time>
      </trkpt>
      <trkpt lat="50.67645" lon="4.74522">
        <ele>149.14</ele>
        <time>2020-05-23T09:24:19Z</time>
      </trkpt>
      <trkpt lat="50.67625" lon="4.74496">
        <ele>149.14</ele>
        <time>2020-05-23T09:24:28Z</time>
      </trkpt>
      <trkpt lat="50.6761" lon="4.74478">
        <ele>148.66</ele>
        <time>2020-05-23T09:24:35Z</time>
      </trkpt>
      <trkpt lat="50.67607" lon="4.74476">
        <ele>148.66</ele>
        <time>2020-05-23T09:24:36Z</time>
      </trkpt>
      <trkpt lat="50.67605" lon="4.74474">
        <ele>148.66</ele>
        <time>2020-05-23T09:24:37Z</time>
      </trkpt>
      <trkpt lat="50.67586" lon="4.74458">
        <ele>148.18</ele>
        <time>2020-05-23T09:24:45Z</time>
      </trkpt>
      <trkpt lat="50.67567" lon="4.74452">
        <ele>148.18</ele>
        <time>2020-05-23T09:24:52Z</time>
      </trkpt>
      <trkpt lat="50.67541" lon="4.74448">
        <ele>148.66</ele>
        <time>2020-05-23T09:25:01Z</time>
      </trkpt>
      <trkpt lat="50.6752" lon="4.74444">
        <ele>148.66</ele>
        <time>2020-05-23T09:25:09Z</time>
      </trkpt>
      <trkpt lat="50.67498" lon="4.74435">
        <ele>149.14</ele>
        <time>2020-05-23T09:25:17Z</time>
      </trkpt>
      <trkpt lat="50.67473" lon="4.74416">
        <ele>148.66</ele>
        <time>2020-05-23T09:25:27Z</time>
      </trkpt>
      <trkpt lat="50.67452" lon="4.744">
        <ele>148.66</ele>
        <time>2020-05-23T09:25:35Z</time>
      </trkpt>
      <trkpt lat="50.6745" lon="4.74397">
        <ele>148.66</ele>
        <time>2020-05-23T09:25:36Z</time>
      </trkpt>
      <trkpt lat="50.67448" lon="4.74393">
        <ele>148.18</ele>
        <time>2020-05-23T09:25:37Z</time>
      </trkpt>
      <trkpt lat="50.67447" lon="4.74389">
        <ele>148.18</ele>
        <time>2020-05-23T09:25:38Z</time>
      </trkpt>
      <trkpt lat="50.67445" lon="4.74384">
        <ele>148.18</ele>
        <time>2020-05-23T09:25:39Z</time>
      </trkpt>
      <trkpt lat="50.67443" lon="4.7438">
        <ele>148.66</ele>
        <time>2020-05-23T09:25:40Z</time>
      </trkpt>
      <trkpt lat="50.67429" lon="4.7434">
        <ele>148.66</ele>
        <time>2020-05-23T09:25:49Z</time>
      </trkpt>
      <trkpt lat="50.67409" lon="4.74286">
        <ele>149.62</ele>
        <time>2020-05-23T09:26:00Z</time>
      </trkpt>
      <trkpt lat="50.6738" lon="4.74238">
        <ele>150.58</ele>
        <time>2020-05-23T09:26:12Z</time>
      </trkpt>
      <trkpt lat="50.6734" lon="4.74186">
        <ele>151.06</ele>
        <time>2020-05-23T09:26:26Z</time>
      </trkpt>
      <trkpt lat="50.67313" lon="4.74151">
        <ele>151.54</ele>
        <time>2020-05-23T09:26:36Z</time>
      </trkpt>
      <trkpt lat="50.67295" lon="4.74126">
        <ele>152.51</ele>
        <time>2020-05-23T09:26:45Z</time>
      </trkpt>
      <trkpt lat="50.67294" lon="4.74124">
        <ele>152.51</ele>
        <time>2020-05-23T09:26:46Z</time>
      </trkpt>
      <trkpt lat="50.67292" lon="4.74123">
        <ele>152.03</ele>
        <time>2020-05-23T09:26:47Z</time>
      </trkpt>
      <trkpt lat="50.67289" lon="4.74122">
        <ele>152.03</ele>
        <time>2020-05-23T09:26:48Z</time>
      </trkpt>
      <trkpt lat="50.67286" lon="4.7412">
        <ele>152.03</ele>
        <time>2020-05-23T09:26:49Z</time>
      </trkpt>
      <trkpt lat="50.67284" lon="4.74117">
        <ele>152.03</ele>
        <time>2020-05-23T09:26:50Z</time>
      </trkpt>
      <trkpt lat="50.67282" lon="4.74114">
        <ele>152.03</ele>
        <time>2020-05-23T09:26:51Z</time>
      </trkpt>
      <trkpt lat="50.67282" lon="4.7411">
        <ele>152.51</ele>
        <time>2020-05-23T09:26:52Z</time>
      </trkpt>
      <trkpt lat="50.67282" lon="4.74108">
        <ele>152.51</ele>
        <time>2020-05-23T09:26:53Z</time>
      </trkpt>
      <trkpt lat="50.67285" lon="4.74106">
        <ele>152.51</ele>
        <time>2020-05-23T09:27:01Z</time>
      </trkpt>
      <trkpt lat="50.67287" lon="4.74108">
        <ele>151.06</ele>
        <time>2020-05-23T09:27:36Z</time>
      </trkpt>
      <trkpt lat="50.67287" lon="4.74106">
        <ele>152.03</ele>
        <time>2020-05-23T09:28:09Z</time>
      </trkpt>
      <trkpt lat="50.67286" lon="4.74107">
        <ele>150.58</ele>
        <time>2020-05-23T09:28:40Z</time>
      </trkpt>
      <trkpt lat="50.67285" lon="4.74104">
        <ele>151.06</ele>
        <time>2020-05-23T09:29:10Z</time>
      </trkpt>
      <trkpt lat="50.67284" lon="4.74101">
        <ele>151.06</ele>
        <time>2020-05-23T09:29:18Z</time>
      </trkpt>
      <trkpt lat="50.67283" lon="4.74101">
        <ele>151.06</ele>
        <time>2020-05-23T09:29:19Z</time>
      </trkpt>
      <trkpt lat="50.67283" lon="4.74103">
        <ele>151.06</ele>
        <time>2020-05-23T09:29:20Z</time>
      </trkpt>
      <trkpt lat="50.67282" lon="4.74112">
        <ele>151.06</ele>
        <time>2020-05-23T09:29:23Z</time>
      </trkpt>
      <trkpt lat="50.67283" lon="4.74116">
        <ele>151.06</ele>
        <time>2020-05-23T09:29:24Z</time>
      </trkpt>
      <trkpt lat="50.67286" lon="4.7412">
        <ele>151.06</ele>
        <time>2020-05-23T09:29:25Z</time>
      </trkpt>
      <trkpt lat="50.67288" lon="4.74123">
        <ele>151.06</ele>
        <time>2020-05-23T09:29:26Z</time>
      </trkpt>
      <trkpt lat="50.6729" lon="4.74126">
        <ele>151.06</ele>
        <time>2020-05-23T09:29:27Z</time>
      </trkpt>
      <trkpt lat="50.67292" lon="4.74129">
        <ele>151.06</ele>
        <time>2020-05-23T09:29:28Z</time>
      </trkpt>
      <trkpt lat="50.67295" lon="4.74128">
        <ele>151.06</ele>
        <time>2020-05-23T09:29:29Z</time>
      </trkpt>
      <trkpt lat="50.67297" lon="4.74126">
        <ele>151.06</ele>
        <time>2020-05-23T09:29:30Z</time>
      </trkpt>
      <trkpt lat="50.673" lon="4.74124">
        <ele>151.06</ele>
        <time>2020-05-23T09:29:31Z</time>
      </trkpt>
      <trkpt lat="50.67302" lon="4.7412">
        <ele>151.06</ele>
        <time>2020-05-23T09:29:32Z</time>
      </trkpt>
      <trkpt lat="50.67304" lon="4.74117">
        <ele>151.06</ele>
        <time>2020-05-23T09:29:33Z</time>
      </trkpt>
      <trkpt lat="50.67306" lon="4.74113">
        <ele>151.06</ele>
        <time>2020-05-23T09:29:34Z</time>
      </trkpt>
      <trkpt lat="50.67335" lon="4.74062">
        <ele>150.1</ele>
        <time>2020-05-23T09:29:45Z</time>
      </trkpt>
      <trkpt lat="50.67368" lon="4.74004">
        <ele>149.62</ele>
        <time>2020-05-23T09:29:57Z</time>
      </trkpt>
      <trkpt lat="50.67399" lon="4.7394">
        <ele>149.62</ele>
        <time>2020-05-23T09:30:10Z</time>
      </trkpt>
      <trkpt lat="50.6741" lon="4.73921">
        <ele>149.14</ele>
        <time>2020-05-23T09:30:14Z</time>
      </trkpt>
      <trkpt lat="50.67413" lon="4.73916">
        <ele>149.14</ele>
        <time>2020-05-23T09:30:15Z</time>
      </trkpt>
      <trkpt lat="50.67443" lon="4.7386">
        <ele>149.14</ele>
        <time>2020-05-23T09:30:26Z</time>
      </trkpt>
      <trkpt lat="50.67471" lon="4.73812">
        <ele>148.66</ele>
        <time>2020-05-23T09:30:37Z</time>
      </trkpt>
      <trkpt lat="50.67474" lon="4.73808">
        <ele>148.66</ele>
        <time>2020-05-23T09:30:38Z</time>
      </trkpt>
      <trkpt lat="50.67492" lon="4.73768">
        <ele>147.7</ele>
        <time>2020-05-23T09:30:45Z</time>
      </trkpt>
      <trkpt lat="50.67495" lon="4.73762">
        <ele>147.22</ele>
        <time>2020-05-23T09:30:46Z</time>
      </trkpt>
      <trkpt lat="50.67503" lon="4.73741">
        <ele>147.22</ele>
        <time>2020-05-23T09:30:49Z</time>
      </trkpt>
      <trkpt lat="50.67534" lon="4.73665">
        <ele>145.3</ele>
        <time>2020-05-23T09:31:00Z</time>
      </trkpt>
      <trkpt lat="50.67548" lon="4.7363">
        <ele>144.82</ele>
        <time>2020-05-23T09:31:05Z</time>
      </trkpt>
      <trkpt lat="50.67565" lon="4.73549">
        <ele>144.34</ele>
        <time>2020-05-23T09:31:16Z</time>
      </trkpt>
      <trkpt lat="50.67571" lon="4.73522">
        <ele>143.85</ele>
        <time>2020-05-23T09:31:20Z</time>
      </trkpt>
      <trkpt lat="50.67574" lon="4.73515">
        <ele>143.85</ele>
        <time>2020-05-23T09:31:21Z</time>
      </trkpt>
      <trkpt lat="50.67593" lon="4.73474">
        <ele>143.85</ele>
        <time>2020-05-23T09:31:28Z</time>
      </trkpt>
      <trkpt lat="50.67596" lon="4.73469">
        <ele>143.85</ele>
        <time>2020-05-23T09:31:29Z</time>
      </trkpt>
      <trkpt lat="50.67647" lon="4.73419">
        <ele>143.37</ele>
        <time>2020-05-23T09:31:41Z</time>
      </trkpt>
      <trkpt lat="50.67689" lon="4.73396">
        <ele>141.93</ele>
        <time>2020-05-23T09:31:52Z</time>
      </trkpt>
      <trkpt lat="50.67712" lon="4.73411">
        <ele>141.45</ele>
        <time>2020-05-23T09:31:59Z</time>
      </trkpt>
      <trkpt lat="50.67721" lon="4.73422">
        <ele>141.93</ele>
        <time>2020-05-23T09:32:02Z</time>
      </trkpt>
      <trkpt lat="50.67731" lon="4.73437">
        <ele>142.41</ele>
        <time>2020-05-23T09:32:05Z</time>
      </trkpt>
      <trkpt lat="50.67733" lon="4.73442">
        <ele>142.41</ele>
        <time>2020-05-23T09:32:06Z</time>
      </trkpt>
      <trkpt lat="50.67736" lon="4.73448">
        <ele>142.41</ele>
        <time>2020-05-23T09:32:07Z</time>
      </trkpt>
      <trkpt lat="50.67765" lon="4.73545">
        <ele>143.37</ele>
        <time>2020-05-23T09:32:21Z</time>
      </trkpt>
      <trkpt lat="50.67787" lon="4.73662">
        <ele>144.82</ele>
        <time>2020-05-23T09:32:37Z</time>
      </trkpt>
      <trkpt lat="50.67807" lon="4.73767">
        <ele>142.41</ele>
        <time>2020-05-23T09:32:49Z</time>
      </trkpt>
      <trkpt lat="50.67827" lon="4.7388">
        <ele>138.57</ele>
        <time>2020-05-23T09:32:58Z</time>
      </trkpt>
      <trkpt lat="50.67853" lon="4.74015">
        <ele>134.72</ele>
        <time>2020-05-23T09:33:07Z</time>
      </trkpt>
      <trkpt lat="50.67856" lon="4.74029">
        <ele>134.72</ele>
        <time>2020-05-23T09:33:08Z</time>
      </trkpt>
      <trkpt lat="50.6786" lon="4.74043">
        <ele>134.72</ele>
        <time>2020-05-23T09:33:09Z</time>
      </trkpt>
      <trkpt lat="50.67864" lon="4.74056">
        <ele>134.24</ele>
        <time>2020-05-23T09:33:10Z</time>
      </trkpt>
      <trkpt lat="50.67867" lon="4.74067">
        <ele>134.24</ele>
        <time>2020-05-23T09:33:11Z</time>
      </trkpt>
      <trkpt lat="50.67872" lon="4.74083">
        <ele>133.76</ele>
        <time>2020-05-23T09:33:13Z</time>
      </trkpt>
      <trkpt lat="50.67875" lon="4.74086">
        <ele>133.76</ele>
        <time>2020-05-23T09:33:14Z</time>
      </trkpt>
      <trkpt lat="50.67879" lon="4.74087">
        <ele>133.76</ele>
        <time>2020-05-23T09:33:15Z</time>
      </trkpt>
      <trkpt lat="50.67882" lon="4.74085">
        <ele>133.76</ele>
        <time>2020-05-23T09:33:16Z</time>
      </trkpt>
      <trkpt lat="50.67884" lon="4.74083">
        <ele>133.76</ele>
        <time>2020-05-23T09:33:17Z</time>
      </trkpt>
      <trkpt lat="50.67886" lon="4.74081">
        <ele>133.76</ele>
        <time>2020-05-23T09:33:18Z</time>
      </trkpt>
      <trkpt lat="50.67889" lon="4.74079">
        <ele>133.76</ele>
        <time>2020-05-23T09:33:19Z</time>
      </trkpt>
      <trkpt lat="50.67891" lon="4.74076">
        <ele>133.76</ele>
        <time>2020-05-23T09:33:20Z</time>
      </trkpt>
      <trkpt lat="50.67894" lon="4.74073">
        <ele>133.76</ele>
        <time>2020-05-23T09:33:21Z</time>
      </trkpt>
      <trkpt lat="50.67896" lon="4.7407">
        <ele>133.76</ele>
        <time>2020-05-23T09:33:22Z</time>
      </trkpt>
      <trkpt lat="50.67907" lon="4.74053">
        <ele>133.28</ele>
        <time>2020-05-23T09:33:26Z</time>
      </trkpt>
      <trkpt lat="50.67909" lon="4.74048">
        <ele>133.28</ele>
        <time>2020-05-23T09:33:27Z</time>
      </trkpt>
      <trkpt lat="50.67911" lon="4.74042">
        <ele>133.28</ele>
        <time>2020-05-23T09:33:28Z</time>
      </trkpt>
      <trkpt lat="50.67914" lon="4.74037">
        <ele>133.28</ele>
        <time>2020-05-23T09:33:29Z</time>
      </trkpt>
      <trkpt lat="50.67917" lon="4.74031">
        <ele>133.76</ele>
        <time>2020-05-23T09:33:30Z</time>
      </trkpt>
      <trkpt lat="50.67933" lon="4.73996">
        <ele>133.28</ele>
        <time>2020-05-23T09:33:36Z</time>
      </trkpt>
      <trkpt lat="50.67935" lon="4.7399">
        <ele>132.8</ele>
        <time>2020-05-23T09:33:37Z</time>
      </trkpt>
      <trkpt lat="50.67939" lon="4.73978">
        <ele>132.8</ele>
        <time>2020-05-23T09:33:39Z</time>
      </trkpt>
      <trkpt lat="50.67953" lon="4.73948">
        <ele>133.76</ele>
        <time>2020-05-23T09:33:46Z</time>
      </trkpt>
      <trkpt lat="50.67965" lon="4.73907">
        <ele>133.28</ele>
        <time>2020-05-23T09:33:54Z</time>
      </trkpt>
      <trkpt lat="50.67978" lon="4.73871">
        <ele>133.28</ele>
        <time>2020-05-23T09:34:01Z</time>
      </trkpt>
      <trkpt lat="50.6798" lon="4.73865">
        <ele>133.76</ele>
        <time>2020-05-23T09:34:02Z</time>
      </trkpt>
      <trkpt lat="50.67988" lon="4.73841">
        <ele>133.28</ele>
        <time>2020-05-23T09:34:07Z</time>
      </trkpt>
      <trkpt lat="50.67989" lon="4.73836">
        <ele>132.8</ele>
        <time>2020-05-23T09:34:08Z</time>
      </trkpt>
      <trkpt lat="50.67991" lon="4.73831">
        <ele>132.32</ele>
        <time>2020-05-23T09:34:09Z</time>
      </trkpt>
      <trkpt lat="50.67992" lon="4.73826">
        <ele>131.84</ele>
        <time>2020-05-23T09:34:10Z</time>
      </trkpt>
      <trkpt lat="50.67993" lon="4.7382">
        <ele>131.84</ele>
        <time>2020-05-23T09:34:11Z</time>
      </trkpt>
      <trkpt lat="50.68007" lon="4.73778">
        <ele>129.92</ele>
        <time>2020-05-23T09:34:18Z</time>
      </trkpt>
      <trkpt lat="50.68012" lon="4.73765">
        <ele>129.92</ele>
        <time>2020-05-23T09:34:20Z</time>
      </trkpt>
      <trkpt lat="50.68013" lon="4.73758">
        <ele>129.92</ele>
        <time>2020-05-23T09:34:21Z</time>
      </trkpt>
      <trkpt lat="50.68015" lon="4.73752">
        <ele>129.92</ele>
        <time>2020-05-23T09:34:22Z</time>
      </trkpt>
      <trkpt lat="50.68025" lon="4.73724">
        <ele>128.95</ele>
        <time>2020-05-23T09:34:26Z</time>
      </trkpt>
      <trkpt lat="50.68028" lon="4.73717">
        <ele>128.95</ele>
        <time>2020-05-23T09:34:27Z</time>
      </trkpt>
      <trkpt lat="50.6803" lon="4.73711">
        <ele>128.95</ele>
        <time>2020-05-23T09:34:28Z</time>
      </trkpt>
      <trkpt lat="50.68031" lon="4.73705">
        <ele>128.47</ele>
        <time>2020-05-23T09:34:29Z</time>
      </trkpt>
      <trkpt lat="50.68033" lon="4.73698">
        <ele>128.47</ele>
        <time>2020-05-23T09:34:30Z</time>
      </trkpt>
      <trkpt lat="50.68047" lon="4.73655">
        <ele>128.95</ele>
        <time>2020-05-23T09:34:38Z</time>
      </trkpt>
      <trkpt lat="50.68053" lon="4.73628">
        <ele>128.47</ele>
        <time>2020-05-23T09:34:42Z</time>
      </trkpt>
      <trkpt lat="50.6806" lon="4.73601">
        <ele>127.99</ele>
        <time>2020-05-23T09:34:46Z</time>
      </trkpt>
      <trkpt lat="50.68062" lon="4.73594">
        <ele>127.51</ele>
        <time>2020-05-23T09:34:47Z</time>
      </trkpt>
      <trkpt lat="50.68062" lon="4.73588">
        <ele>127.51</ele>
        <time>2020-05-23T09:34:48Z</time>
      </trkpt>
      <trkpt lat="50.68063" lon="4.73582">
        <ele>127.51</ele>
        <time>2020-05-23T09:34:49Z</time>
      </trkpt>
      <trkpt lat="50.68064" lon="4.73577">
        <ele>127.51</ele>
        <time>2020-05-23T09:34:50Z</time>
      </trkpt>
      <trkpt lat="50.68065" lon="4.73571">
        <ele>127.03</ele>
        <time>2020-05-23T09:34:51Z</time>
      </trkpt>
      <trkpt lat="50.68067" lon="4.73566">
        <ele>127.03</ele>
        <time>2020-05-23T09:34:52Z</time>
      </trkpt>
      <trkpt lat="50.68068" lon="4.7356">
        <ele>127.03</ele>
        <time>2020-05-23T09:34:53Z</time>
      </trkpt>
      <trkpt lat="50.6807" lon="4.73554">
        <ele>126.55</ele>
        <time>2020-05-23T09:34:54Z</time>
      </trkpt>
      <trkpt lat="50.68072" lon="4.73549">
        <ele>126.55</ele>
        <time>2020-05-23T09:34:55Z</time>
      </trkpt>
      <trkpt lat="50.68075" lon="4.73543">
        <ele>127.03</ele>
        <time>2020-05-23T09:34:56Z</time>
      </trkpt>
      <trkpt lat="50.68077" lon="4.73537">
        <ele>127.03</ele>
        <time>2020-05-23T09:34:57Z</time>
      </trkpt>
      <trkpt lat="50.68091" lon="4.73499">
        <ele>127.51</ele>
        <time>2020-05-23T09:35:04Z</time>
      </trkpt>
      <trkpt lat="50.68109" lon="4.73458">
        <ele>130.4</ele>
        <time>2020-05-23T09:35:12Z</time>
      </trkpt>
      <trkpt lat="50.68137" lon="4.73423">
        <ele>131.84</ele>
        <time>2020-05-23T09:35:22Z</time>
      </trkpt>
      <trkpt lat="50.68162" lon="4.734">
        <ele>132.8</ele>
        <time>2020-05-23T09:35:30Z</time>
      </trkpt>
      <trkpt lat="50.68184" lon="4.73376">
        <ele>131.84</ele>
        <time>2020-05-23T09:35:39Z</time>
      </trkpt>
      <trkpt lat="50.68186" lon="4.73372">
        <ele>130.88</ele>
        <time>2020-05-23T09:35:50Z</time>
      </trkpt>
      <trkpt lat="50.68185" lon="4.73371">
        <ele>130.88</ele>
        <time>2020-05-23T09:35:58Z</time>
      </trkpt>
      <trkpt lat="50.68187" lon="4.73372">
        <ele>130.4</ele>
        <time>2020-05-23T09:36:19Z</time>
      </trkpt>
      <trkpt lat="50.68189" lon="4.73374">
        <ele>130.88</ele>
        <time>2020-05-23T09:36:45Z</time>
      </trkpt>
      <trkpt lat="50.68192" lon="4.73364">
        <ele>129.92</ele>
        <time>2020-05-23T09:37:02Z</time>
      </trkpt>
      <trkpt lat="50.68204" lon="4.73337">
        <ele>130.4</ele>
        <time>2020-05-23T09:37:11Z</time>
      </trkpt>
      <trkpt lat="50.6821" lon="4.73323">
        <ele>130.4</ele>
        <time>2020-05-23T09:37:15Z</time>
      </trkpt>
      <trkpt lat="50.68211" lon="4.73319">
        <ele>129.92</ele>
        <time>2020-05-23T09:37:16Z</time>
      </trkpt>
      <trkpt lat="50.68212" lon="4.73317">
        <ele>130.4</ele>
        <time>2020-05-23T09:37:17Z</time>
      </trkpt>
      <trkpt lat="50.68212" lon="4.73314">
        <ele>130.4</ele>
        <time>2020-05-23T09:37:18Z</time>
      </trkpt>
      <trkpt lat="50.68213" lon="4.73311">
        <ele>130.4</ele>
        <time>2020-05-23T09:37:19Z</time>
      </trkpt>
      <trkpt lat="50.68214" lon="4.73308">
        <ele>130.88</ele>
        <time>2020-05-23T09:37:20Z</time>
      </trkpt>
      <trkpt lat="50.68215" lon="4.73305">
        <ele>131.36</ele>
        <time>2020-05-23T09:37:21Z</time>
      </trkpt>
      <trkpt lat="50.68216" lon="4.733">
        <ele>131.36</ele>
        <time>2020-05-23T09:37:22Z</time>
      </trkpt>
      <trkpt lat="50.6822" lon="4.73252">
        <ele>129.92</ele>
        <time>2020-05-23T09:37:32Z</time>
      </trkpt>
      <trkpt lat="50.68221" lon="4.7323">
        <ele>129.43</ele>
        <time>2020-05-23T09:37:36Z</time>
      </trkpt>
      <trkpt lat="50.68221" lon="4.73223">
        <ele>129.43</ele>
        <time>2020-05-23T09:37:37Z</time>
      </trkpt>
      <trkpt lat="50.6822" lon="4.73217">
        <ele>128.95</ele>
        <time>2020-05-23T09:37:38Z</time>
      </trkpt>
      <trkpt lat="50.6822" lon="4.73211">
        <ele>128.47</ele>
        <time>2020-05-23T09:37:39Z</time>
      </trkpt>
      <trkpt lat="50.68219" lon="4.73205">
        <ele>127.99</ele>
        <time>2020-05-23T09:37:40Z</time>
      </trkpt>
      <trkpt lat="50.68218" lon="4.73199">
        <ele>127.99</ele>
        <time>2020-05-23T09:37:41Z</time>
      </trkpt>
      <trkpt lat="50.68218" lon="4.73194">
        <ele>127.51</ele>
        <time>2020-05-23T09:37:42Z</time>
      </trkpt>
      <trkpt lat="50.68213" lon="4.73145">
        <ele>125.11</ele>
        <time>2020-05-23T09:37:50Z</time>
      </trkpt>
      <trkpt lat="50.6821" lon="4.73093">
        <ele>122.22</ele>
        <time>2020-05-23T09:37:59Z</time>
      </trkpt>
      <trkpt lat="50.68208" lon="4.73049">
        <ele>120.78</ele>
        <time>2020-05-23T09:38:07Z</time>
      </trkpt>
      <trkpt lat="50.6821" lon="4.73044">
        <ele>120.3</ele>
        <time>2020-05-23T09:38:08Z</time>
      </trkpt>
      <trkpt lat="50.68212" lon="4.73038">
        <ele>120.3</ele>
        <time>2020-05-23T09:38:09Z</time>
      </trkpt>
      <trkpt lat="50.68213" lon="4.73032">
        <ele>120.3</ele>
        <time>2020-05-23T09:38:10Z</time>
      </trkpt>
      <trkpt lat="50.68216" lon="4.73019">
        <ele>119.82</ele>
        <time>2020-05-23T09:38:12Z</time>
      </trkpt>
      <trkpt lat="50.68233" lon="4.72954">
        <ele>117.9</ele>
        <time>2020-05-23T09:38:23Z</time>
      </trkpt>
      <trkpt lat="50.68234" lon="4.72946">
        <ele>117.9</ele>
        <time>2020-05-23T09:38:24Z</time>
      </trkpt>
      <trkpt lat="50.68235" lon="4.72931">
        <ele>117.42</ele>
        <time>2020-05-23T09:38:26Z</time>
      </trkpt>
      <trkpt lat="50.68234" lon="4.72925">
        <ele>117.42</ele>
        <time>2020-05-23T09:38:27Z</time>
      </trkpt>
      <trkpt lat="50.68232" lon="4.72919">
        <ele>117.42</ele>
        <time>2020-05-23T09:38:28Z</time>
      </trkpt>
      <trkpt lat="50.68228" lon="4.72906">
        <ele>117.42</ele>
        <time>2020-05-23T09:38:30Z</time>
      </trkpt>
      <trkpt lat="50.68225" lon="4.72894">
        <ele>116.94</ele>
        <time>2020-05-23T09:38:32Z</time>
      </trkpt>
      <trkpt lat="50.68224" lon="4.72888">
        <ele>116.94</ele>
        <time>2020-05-23T09:38:33Z</time>
      </trkpt>
      <trkpt lat="50.6822" lon="4.7286">
        <ele>116.94</ele>
        <time>2020-05-23T09:38:39Z</time>
      </trkpt>
      <trkpt lat="50.6822" lon="4.7283">
        <ele>117.42</ele>
        <time>2020-05-23T09:38:43Z</time>
      </trkpt>
      <trkpt lat="50.68219" lon="4.72822">
        <ele>117.42</ele>
        <time>2020-05-23T09:38:44Z</time>
      </trkpt>
      <trkpt lat="50.6822" lon="4.72814">
        <ele>117.42</ele>
        <time>2020-05-23T09:38:45Z</time>
      </trkpt>
      <trkpt lat="50.68221" lon="4.728">
        <ele>117.42</ele>
        <time>2020-05-23T09:38:47Z</time>
      </trkpt>
      <trkpt lat="50.68228" lon="4.72762">
        <ele>118.38</ele>
        <time>2020-05-23T09:38:53Z</time>
      </trkpt>
      <trkpt lat="50.68228" lon="4.72759">
        <ele>118.38</ele>
        <time>2020-05-23T09:38:54Z</time>
      </trkpt>
      <trkpt lat="50.68228" lon="4.72755">
        <ele>118.38</ele>
        <time>2020-05-23T09:38:55Z</time>
      </trkpt>
      <trkpt lat="50.68228" lon="4.72751">
        <ele>118.38</ele>
        <time>2020-05-23T09:38:56Z</time>
      </trkpt>
      <trkpt lat="50.68228" lon="4.72748">
        <ele>118.38</ele>
        <time>2020-05-23T09:38:57Z</time>
      </trkpt>
      <trkpt lat="50.68229" lon="4.72745">
        <ele>118.38</ele>
        <time>2020-05-23T09:38:58Z</time>
      </trkpt>
      <trkpt lat="50.6823" lon="4.72741">
        <ele>118.38</ele>
        <time>2020-05-23T09:38:59Z</time>
      </trkpt>
      <trkpt lat="50.68232" lon="4.72737">
        <ele>117.9</ele>
        <time>2020-05-23T09:39:00Z</time>
      </trkpt>
      <trkpt lat="50.68233" lon="4.72733">
        <ele>117.9</ele>
        <time>2020-05-23T09:39:01Z</time>
      </trkpt>
      <trkpt lat="50.68235" lon="4.72729">
        <ele>117.9</ele>
        <time>2020-05-23T09:39:02Z</time>
      </trkpt>
      <trkpt lat="50.68238" lon="4.72724">
        <ele>118.38</ele>
        <time>2020-05-23T09:39:03Z</time>
      </trkpt>
      <trkpt lat="50.6824" lon="4.72719">
        <ele>118.38</ele>
        <time>2020-05-23T09:39:04Z</time>
      </trkpt>
      <trkpt lat="50.68242" lon="4.72715">
        <ele>118.38</ele>
        <time>2020-05-23T09:39:05Z</time>
      </trkpt>
      <trkpt lat="50.68245" lon="4.72711">
        <ele>118.38</ele>
        <time>2020-05-23T09:39:06Z</time>
      </trkpt>
      <trkpt lat="50.68265" lon="4.72686">
        <ele>119.34</ele>
        <time>2020-05-23T09:39:13Z</time>
      </trkpt>
      <trkpt lat="50.68291" lon="4.72696">
        <ele>122.22</ele>
        <time>2020-05-23T09:39:21Z</time>
      </trkpt>
      <trkpt lat="50.68311" lon="4.72722">
        <ele>122.71</ele>
        <time>2020-05-23T09:39:28Z</time>
      </trkpt>
      <trkpt lat="50.68315" lon="4.72726">
        <ele>122.22</ele>
        <time>2020-05-23T09:39:29Z</time>
      </trkpt>
      <trkpt lat="50.68318" lon="4.72731">
        <ele>122.22</ele>
        <time>2020-05-23T09:39:30Z</time>
      </trkpt>
      <trkpt lat="50.68321" lon="4.72736">
        <ele>121.74</ele>
        <time>2020-05-23T09:39:31Z</time>
      </trkpt>
      <trkpt lat="50.68324" lon="4.7274">
        <ele>121.74</ele>
        <time>2020-05-23T09:39:32Z</time>
      </trkpt>
      <trkpt lat="50.68328" lon="4.72743">
        <ele>121.74</ele>
        <time>2020-05-23T09:39:33Z</time>
      </trkpt>
      <trkpt lat="50.68332" lon="4.72747">
        <ele>121.74</ele>
        <time>2020-05-23T09:39:34Z</time>
      </trkpt>
      <trkpt lat="50.68336" lon="4.7275">
        <ele>121.74</ele>
        <time>2020-05-23T09:39:35Z</time>
      </trkpt>
      <trkpt lat="50.68346" lon="4.72759">
        <ele>121.26</ele>
        <time>2020-05-23T09:39:42Z</time>
      </trkpt>
      <trkpt lat="50.68347" lon="4.7276">
        <ele>121.26</ele>
        <time>2020-05-23T09:39:43Z</time>
      </trkpt>
      <trkpt lat="50.68348" lon="4.72761">
        <ele>121.26</ele>
        <time>2020-05-23T09:39:44Z</time>
      </trkpt>
      <trkpt lat="50.68354" lon="4.72768">
        <ele>120.78</ele>
        <time>2020-05-23T09:39:52Z</time>
      </trkpt>
      <trkpt lat="50.68356" lon="4.7277">
        <ele>120.78</ele>
        <time>2020-05-23T09:39:53Z</time>
      </trkpt>
      <trkpt lat="50.68358" lon="4.72771">
        <ele>120.78</ele>
        <time>2020-05-23T09:39:54Z</time>
      </trkpt>
      <trkpt lat="50.6836" lon="4.72773">
        <ele>120.78</ele>
        <time>2020-05-23T09:39:55Z</time>
      </trkpt>
      <trkpt lat="50.68363" lon="4.72773">
        <ele>120.78</ele>
        <time>2020-05-23T09:39:56Z</time>
      </trkpt>
      <trkpt lat="50.68365" lon="4.72773">
        <ele>120.78</ele>
        <time>2020-05-23T09:39:57Z</time>
      </trkpt>
      <trkpt lat="50.68368" lon="4.72772">
        <ele>120.78</ele>
        <time>2020-05-23T09:39:58Z</time>
      </trkpt>
      <trkpt lat="50.68371" lon="4.72771">
        <ele>120.78</ele>
        <time>2020-05-23T09:39:59Z</time>
      </trkpt>
      <trkpt lat="50.68374" lon="4.72769">
        <ele>120.78</ele>
        <time>2020-05-23T09:40:00Z</time>
      </trkpt>
      <trkpt lat="50.68377" lon="4.72766">
        <ele>120.78</ele>
        <time>2020-05-23T09:40:01Z</time>
      </trkpt>
      <trkpt lat="50.6838" lon="4.72764">
        <ele>120.78</ele>
        <time>2020-05-23T09:40:02Z</time>
      </trkpt>
      <trkpt lat="50.68384" lon="4.72762">
        <ele>121.26</ele>
        <time>2020-05-23T09:40:03Z</time>
      </trkpt>
      <trkpt lat="50.68389" lon="4.7276">
        <ele>121.26</ele>
        <time>2020-05-23T09:40:04Z</time>
      </trkpt>
      <trkpt lat="50.68394" lon="4.72756">
        <ele>121.26</ele>
        <time>2020-05-23T09:40:05Z</time>
      </trkpt>
      <trkpt lat="50.68451" lon="4.72727">
        <ele>122.22</ele>
        <time>2020-05-23T09:40:14Z</time>
      </trkpt>
      <trkpt lat="50.68497" lon="4.72709">
        <ele>123.19</ele>
        <time>2020-05-23T09:40:20Z</time>
      </trkpt>
      <trkpt lat="50.68502" lon="4.72706">
        <ele>123.19</ele>
        <time>2020-05-23T09:40:21Z</time>
      </trkpt>
      <trkpt lat="50.68506" lon="4.72703">
        <ele>123.19</ele>
        <time>2020-05-23T09:40:22Z</time>
      </trkpt>
      <trkpt lat="50.68509" lon="4.72699">
        <ele>123.19</ele>
        <time>2020-05-23T09:40:23Z</time>
      </trkpt>
      <trkpt lat="50.68512" lon="4.72694">
        <ele>123.19</ele>
        <time>2020-05-23T09:40:24Z</time>
      </trkpt>
      <trkpt lat="50.68527" lon="4.72686">
        <ele>123.19</ele>
        <time>2020-05-23T09:40:28Z</time>
      </trkpt>
      <trkpt lat="50.6853" lon="4.72687">
        <ele>122.71</ele>
        <time>2020-05-23T09:40:29Z</time>
      </trkpt>
      <trkpt lat="50.68545" lon="4.72713">
        <ele>118.86</ele>
        <time>2020-05-23T09:40:38Z</time>
      </trkpt>
      <trkpt lat="50.68558" lon="4.72738">
        <ele>120.3</ele>
        <time>2020-05-23T09:40:46Z</time>
      </trkpt>
      <trkpt lat="50.68576" lon="4.72759">
        <ele>124.63</ele>
        <time>2020-05-23T09:40:55Z</time>
      </trkpt>
      <trkpt lat="50.68596" lon="4.72781">
        <ele>132.32</ele>
        <time>2020-05-23T09:41:05Z</time>
      </trkpt>
      <trkpt lat="50.68616" lon="4.7281">
        <ele>135.68</ele>
        <time>2020-05-23T09:41:14Z</time>
      </trkpt>
      <trkpt lat="50.68617" lon="4.72814">
        <ele>135.2</ele>
        <time>2020-05-23T09:41:15Z</time>
      </trkpt>
      <trkpt lat="50.68618" lon="4.72818">
        <ele>135.2</ele>
        <time>2020-05-23T09:41:16Z</time>
      </trkpt>
      <trkpt lat="50.68621" lon="4.72822">
        <ele>134.72</ele>
        <time>2020-05-23T09:41:17Z</time>
      </trkpt>
      <trkpt lat="50.68623" lon="4.72827">
        <ele>134.24</ele>
        <time>2020-05-23T09:41:18Z</time>
      </trkpt>
      <trkpt lat="50.68626" lon="4.72831">
        <ele>134.24</ele>
        <time>2020-05-23T09:41:19Z</time>
      </trkpt>
      <trkpt lat="50.68628" lon="4.72835">
        <ele>134.24</ele>
        <time>2020-05-23T09:41:20Z</time>
      </trkpt>
      <trkpt lat="50.68631" lon="4.7284">
        <ele>134.24</ele>
        <time>2020-05-23T09:41:21Z</time>
      </trkpt>
      <trkpt lat="50.68633" lon="4.72844">
        <ele>134.24</ele>
        <time>2020-05-23T09:41:22Z</time>
      </trkpt>
      <trkpt lat="50.68635" lon="4.72847">
        <ele>134.24</ele>
        <time>2020-05-23T09:41:23Z</time>
      </trkpt>
      <trkpt lat="50.68646" lon="4.72877">
        <ele>135.2</ele>
        <time>2020-05-23T09:41:32Z</time>
      </trkpt>
      <trkpt lat="50.68655" lon="4.72908">
        <ele>136.16</ele>
        <time>2020-05-23T09:41:40Z</time>
      </trkpt>
      <trkpt lat="50.68665" lon="4.72946">
        <ele>135.68</ele>
        <time>2020-05-23T09:41:49Z</time>
      </trkpt>
      <trkpt lat="50.68665" lon="4.7295">
        <ele>135.68</ele>
        <time>2020-05-23T09:41:50Z</time>
      </trkpt>
      <trkpt lat="50.68667" lon="4.72954">
        <ele>135.68</ele>
        <time>2020-05-23T09:41:51Z</time>
      </trkpt>
      <trkpt lat="50.68688" lon="4.72996">
        <ele>135.68</ele>
        <time>2020-05-23T09:42:00Z</time>
      </trkpt>
      <trkpt lat="50.68708" lon="4.73047">
        <ele>134.72</ele>
        <time>2020-05-23T09:42:11Z</time>
      </trkpt>
      <trkpt lat="50.68713" lon="4.73061">
        <ele>134.72</ele>
        <time>2020-05-23T09:42:15Z</time>
      </trkpt>
      <trkpt lat="50.68719" lon="4.7306">
        <ele>135.2</ele>
        <time>2020-05-23T09:42:19Z</time>
      </trkpt>
      <trkpt lat="50.68738" lon="4.73057">
        <ele>132.8</ele>
        <time>2020-05-23T09:42:31Z</time>
      </trkpt>
      <trkpt lat="50.6875" lon="4.73053">
        <ele>134.24</ele>
        <time>2020-05-23T09:42:41Z</time>
      </trkpt>
      <trkpt lat="50.68764" lon="4.73052">
        <ele>132.8</ele>
        <time>2020-05-23T09:42:50Z</time>
      </trkpt>
      <trkpt lat="50.68768" lon="4.73054">
        <ele>131.36</ele>
        <time>2020-05-23T09:43:00Z</time>
      </trkpt>
      <trkpt lat="50.68771" lon="4.73055">
        <ele>133.28</ele>
        <time>2020-05-23T09:43:16Z</time>
      </trkpt>
      <trkpt lat="50.6877" lon="4.73065">
        <ele>134.72</ele>
        <time>2020-05-23T09:43:43Z</time>
      </trkpt>
      <trkpt lat="50.68771" lon="4.73067">
        <ele>134.24</ele>
        <time>2020-05-23T09:44:08Z</time>
      </trkpt>
      <trkpt lat="50.68769" lon="4.73059">
        <ele>134.24</ele>
        <time>2020-05-23T09:44:38Z</time>
      </trkpt>
      <trkpt lat="50.68778" lon="4.73055">
        <ele>134.24</ele>
        <time>2020-05-23T09:44:51Z</time>
      </trkpt>
      <trkpt lat="50.68784" lon="4.73057">
        <ele>133.76</ele>
        <time>2020-05-23T09:45:04Z</time>
      </trkpt>
      <trkpt lat="50.68787" lon="4.73057">
        <ele>132.32</ele>
        <time>2020-05-23T09:45:19Z</time>
      </trkpt>
      <trkpt lat="50.68788" lon="4.73058">
        <ele>132.8</ele>
        <time>2020-05-23T09:45:38Z</time>
      </trkpt>
      <trkpt lat="50.6879" lon="4.73055">
        <ele>133.28</ele>
        <time>2020-05-23T09:46:01Z</time>
      </trkpt>
      <trkpt lat="50.68796" lon="4.73051">
        <ele>133.28</ele>
        <time>2020-05-23T09:46:19Z</time>
      </trkpt>
      <trkpt lat="50.68807" lon="4.73051">
        <ele>134.24</ele>
        <time>2020-05-23T09:46:29Z</time>
      </trkpt>
      <trkpt lat="50.68812" lon="4.73047">
        <ele>135.68</ele>
        <time>2020-05-23T09:46:41Z</time>
      </trkpt>
      <trkpt lat="50.68817" lon="4.73044">
        <ele>134.24</ele>
        <time>2020-05-23T09:46:50Z</time>
      </trkpt>
      <trkpt lat="50.68819" lon="4.73041">
        <ele>133.76</ele>
        <time>2020-05-23T09:46:52Z</time>
      </trkpt>
      <trkpt lat="50.68822" lon="4.7303">
        <ele>130.88</ele>
        <time>2020-05-23T09:47:03Z</time>
      </trkpt>
      <trkpt lat="50.68821" lon="4.73029">
        <ele>131.36</ele>
        <time>2020-05-23T09:47:25Z</time>
      </trkpt>
      <trkpt lat="50.68822" lon="4.73029">
        <ele>129.43</ele>
        <time>2020-05-23T09:47:48Z</time>
      </trkpt>
      <trkpt lat="50.6882" lon="4.7303">
        <ele>126.07</ele>
        <time>2020-05-23T09:48:06Z</time>
      </trkpt>
      <trkpt lat="50.6882" lon="4.73029">
        <ele>124.63</ele>
        <time>2020-05-23T09:48:23Z</time>
      </trkpt>
      <trkpt lat="50.68821" lon="4.73029">
        <ele>125.59</ele>
        <time>2020-05-23T09:48:41Z</time>
      </trkpt>
      <trkpt lat="50.68822" lon="4.73031">
        <ele>124.63</ele>
        <time>2020-05-23T09:48:51Z</time>
      </trkpt>
      <trkpt lat="50.68821" lon="4.73029">
        <ele>125.11</ele>
        <time>2020-05-23T09:49:07Z</time>
      </trkpt>
      <trkpt lat="50.68821" lon="4.7303">
        <ele>126.55</ele>
        <time>2020-05-23T09:49:23Z</time>
      </trkpt>
      <trkpt lat="50.6882" lon="4.7303">
        <ele>124.63</ele>
        <time>2020-05-23T09:49:38Z</time>
      </trkpt>
      <trkpt lat="50.68821" lon="4.73028">
        <ele>125.11</ele>
        <time>2020-05-23T09:49:48Z</time>
      </trkpt>
      <trkpt lat="50.68815" lon="4.72997">
        <ele>125.11</ele>
        <time>2020-05-23T09:50:00Z</time>
      </trkpt>
      <trkpt lat="50.68804" lon="4.72962">
        <ele>125.11</ele>
        <time>2020-05-23T09:50:13Z</time>
      </trkpt>
      <trkpt lat="50.68802" lon="4.72954">
        <ele>126.07</ele>
        <time>2020-05-23T09:50:16Z</time>
      </trkpt>
      <trkpt lat="50.68796" lon="4.72934">
        <ele>127.51</ele>
        <time>2020-05-23T09:50:24Z</time>
      </trkpt>
      <trkpt lat="50.6879" lon="4.72915">
        <ele>127.99</ele>
        <time>2020-05-23T09:50:32Z</time>
      </trkpt>
      <trkpt lat="50.68785" lon="4.729">
        <ele>127.99</ele>
        <time>2020-05-23T09:50:38Z</time>
      </trkpt>
      <trkpt lat="50.68776" lon="4.72868">
        <ele>128.95</ele>
        <time>2020-05-23T09:50:49Z</time>
      </trkpt>
      <trkpt lat="50.68772" lon="4.72855">
        <ele>128.95</ele>
        <time>2020-05-23T09:50:54Z</time>
      </trkpt>
      <trkpt lat="50.68765" lon="4.72827">
        <ele>128.47</ele>
        <time>2020-05-23T09:51:03Z</time>
      </trkpt>
      <trkpt lat="50.68759" lon="4.728">
        <ele>128.95</ele>
        <time>2020-05-23T09:51:12Z</time>
      </trkpt>
      <trkpt lat="50.68755" lon="4.72775">
        <ele>128.47</ele>
        <time>2020-05-23T09:51:20Z</time>
      </trkpt>
      <trkpt lat="50.68754" lon="4.72748">
        <ele>128.47</ele>
        <time>2020-05-23T09:51:28Z</time>
      </trkpt>
      <trkpt lat="50.68754" lon="4.72735">
        <ele>128.47</ele>
        <time>2020-05-23T09:51:32Z</time>
      </trkpt>
      <trkpt lat="50.68756" lon="4.72729">
        <ele>128.95</ele>
        <time>2020-05-23T09:51:35Z</time>
      </trkpt>
      <trkpt lat="50.68758" lon="4.72723">
        <ele>130.88</ele>
        <time>2020-05-23T09:51:42Z</time>
      </trkpt>
      <trkpt lat="50.68759" lon="4.72721">
        <ele>131.36</ele>
        <time>2020-05-23T09:51:46Z</time>
      </trkpt>
      <trkpt lat="50.68745" lon="4.72715">
        <ele>131.36</ele>
        <time>2020-05-23T09:51:53Z</time>
      </trkpt>
      <trkpt lat="50.68744" lon="4.72701">
        <ele>131.84</ele>
        <time>2020-05-23T09:52:00Z</time>
      </trkpt>
      <trkpt lat="50.68745" lon="4.72697">
        <ele>132.32</ele>
        <time>2020-05-23T09:52:02Z</time>
      </trkpt>
      <trkpt lat="50.68758" lon="4.72664">
        <ele>134.72</ele>
        <time>2020-05-23T09:52:14Z</time>
      </trkpt>
      <trkpt lat="50.68772" lon="4.72639">
        <ele>135.68</ele>
        <time>2020-05-23T09:52:24Z</time>
      </trkpt>
      <trkpt lat="50.68785" lon="4.72621">
        <ele>136.16</ele>
        <time>2020-05-23T09:52:33Z</time>
      </trkpt>
      <trkpt lat="50.68795" lon="4.72613">
        <ele>135.68</ele>
        <time>2020-05-23T09:52:38Z</time>
      </trkpt>
      <trkpt lat="50.68821" lon="4.72599">
        <ele>135.68</ele>
        <time>2020-05-23T09:52:51Z</time>
      </trkpt>
      <trkpt lat="50.68841" lon="4.72592">
        <ele>134.72</ele>
        <time>2020-05-23T09:53:00Z</time>
      </trkpt>
      <trkpt lat="50.6887" lon="4.72587">
        <ele>132.32</ele>
        <time>2020-05-23T09:53:11Z</time>
      </trkpt>
      <trkpt lat="50.689" lon="4.72587">
        <ele>131.36</ele>
        <time>2020-05-23T09:53:22Z</time>
      </trkpt>
      <trkpt lat="50.68939" lon="4.72588">
        <ele>129.43</ele>
        <time>2020-05-23T09:53:34Z</time>
      </trkpt>
      <trkpt lat="50.68952" lon="4.72589">
        <ele>129.43</ele>
        <time>2020-05-23T09:53:39Z</time>
      </trkpt>
      <trkpt lat="50.68955" lon="4.72594">
        <ele>129.92</ele>
        <time>2020-05-23T09:53:48Z</time>
      </trkpt>
      <trkpt lat="50.68955" lon="4.72593">
        <ele>129.43</ele>
        <time>2020-05-23T09:54:01Z</time>
      </trkpt>
      <trkpt lat="50.68955" lon="4.72624">
        <ele>130.4</ele>
        <time>2020-05-23T09:54:08Z</time>
      </trkpt>
      <trkpt lat="50.6896" lon="4.72681">
        <ele>131.84</ele>
        <time>2020-05-23T09:54:20Z</time>
      </trkpt>
      <trkpt lat="50.68968" lon="4.72742">
        <ele>131.84</ele>
        <time>2020-05-23T09:54:34Z</time>
      </trkpt>
      <trkpt lat="50.68973" lon="4.728">
        <ele>132.8</ele>
        <time>2020-05-23T09:54:48Z</time>
      </trkpt>
      <trkpt lat="50.68976" lon="4.72843">
        <ele>133.28</ele>
        <time>2020-05-23T09:54:58Z</time>
      </trkpt>
      <trkpt lat="50.68982" lon="4.72907">
        <ele>134.24</ele>
        <time>2020-05-23T09:55:11Z</time>
      </trkpt>
      <trkpt lat="50.68987" lon="4.72956">
        <ele>135.2</ele>
        <time>2020-05-23T09:55:21Z</time>
      </trkpt>
      <trkpt lat="50.68991" lon="4.7301">
        <ele>135.2</ele>
        <time>2020-05-23T09:55:31Z</time>
      </trkpt>
      <trkpt lat="50.6899" lon="4.73063">
        <ele>134.72</ele>
        <time>2020-05-23T09:55:41Z</time>
      </trkpt>
      <trkpt lat="50.68989" lon="4.73104">
        <ele>134.72</ele>
        <time>2020-05-23T09:55:49Z</time>
      </trkpt>
      <trkpt lat="50.68989" lon="4.73144">
        <ele>135.68</ele>
        <time>2020-05-23T09:55:57Z</time>
      </trkpt>
      <trkpt lat="50.68994" lon="4.7318">
        <ele>136.64</ele>
        <time>2020-05-23T09:56:05Z</time>
      </trkpt>
      <trkpt lat="50.69008" lon="4.7323">
        <ele>138.09</ele>
        <time>2020-05-23T09:56:16Z</time>
      </trkpt>
      <trkpt lat="50.6902" lon="4.73267">
        <ele>139.53</ele>
        <time>2020-05-23T09:56:24Z</time>
      </trkpt>
      <trkpt lat="50.69031" lon="4.73311">
        <ele>140.49</ele>
        <time>2020-05-23T09:56:33Z</time>
      </trkpt>
      <trkpt lat="50.69053" lon="4.73358">
        <ele>141.93</ele>
        <time>2020-05-23T09:56:45Z</time>
      </trkpt>
      <trkpt lat="50.69075" lon="4.73376">
        <ele>142.41</ele>
        <time>2020-05-23T09:56:54Z</time>
      </trkpt>
      <trkpt lat="50.69105" lon="4.73381">
        <ele>141.45</ele>
        <time>2020-05-23T09:57:04Z</time>
      </trkpt>
      <trkpt lat="50.69109" lon="4.73379">
        <ele>141.45</ele>
        <time>2020-05-23T09:57:05Z</time>
      </trkpt>
      <trkpt lat="50.69113" lon="4.73379">
        <ele>141.45</ele>
        <time>2020-05-23T09:57:06Z</time>
      </trkpt>
      <trkpt lat="50.69117" lon="4.7338">
        <ele>141.45</ele>
        <time>2020-05-23T09:57:07Z</time>
      </trkpt>
      <trkpt lat="50.69122" lon="4.73383">
        <ele>141.93</ele>
        <time>2020-05-23T09:57:08Z</time>
      </trkpt>
      <trkpt lat="50.69124" lon="4.73385">
        <ele>141.93</ele>
        <time>2020-05-23T09:57:09Z</time>
      </trkpt>
      <trkpt lat="50.6915" lon="4.73418">
        <ele>143.85</ele>
        <time>2020-05-23T09:57:18Z</time>
      </trkpt>
      <trkpt lat="50.69174" lon="4.73455">
        <ele>143.37</ele>
        <time>2020-05-23T09:57:28Z</time>
      </trkpt>
      <trkpt lat="50.69194" lon="4.73474">
        <ele>142.41</ele>
        <time>2020-05-23T09:57:35Z</time>
      </trkpt>
      <trkpt lat="50.69196" lon="4.73471">
        <ele>142.41</ele>
        <time>2020-05-23T09:57:36Z</time>
      </trkpt>
      <trkpt lat="50.69196" lon="4.73466">
        <ele>141.93</ele>
        <time>2020-05-23T09:57:37Z</time>
      </trkpt>
      <trkpt lat="50.69196" lon="4.73462">
        <ele>141.93</ele>
        <time>2020-05-23T09:57:38Z</time>
      </trkpt>
      <trkpt lat="50.69196" lon="4.73457">
        <ele>142.41</ele>
        <time>2020-05-23T09:57:39Z</time>
      </trkpt>
      <trkpt lat="50.69196" lon="4.73452">
        <ele>142.41</ele>
        <time>2020-05-23T09:57:40Z</time>
      </trkpt>
      <trkpt lat="50.69199" lon="4.73403">
        <ele>141.93</ele>
        <time>2020-05-23T09:57:49Z</time>
      </trkpt>
      <trkpt lat="50.69206" lon="4.7331">
        <ele>140.49</ele>
        <time>2020-05-23T09:58:03Z</time>
      </trkpt>
      <trkpt lat="50.69207" lon="4.73303">
        <ele>140.49</ele>
        <time>2020-05-23T09:58:04Z</time>
      </trkpt>
      <trkpt lat="50.69224" lon="4.73218">
        <ele>140.01</ele>
        <time>2020-05-23T09:58:17Z</time>
      </trkpt>
      <trkpt lat="50.69239" lon="4.73125">
        <ele>140.01</ele>
        <time>2020-05-23T09:58:30Z</time>
      </trkpt>
      <trkpt lat="50.69245" lon="4.73084">
        <ele>140.49</ele>
        <time>2020-05-23T09:58:36Z</time>
      </trkpt>
      <trkpt lat="50.69251" lon="4.73047">
        <ele>141.45</ele>
        <time>2020-05-23T09:58:42Z</time>
      </trkpt>
      <trkpt lat="50.69265" lon="4.72971">
        <ele>142.89</ele>
        <time>2020-05-23T09:58:54Z</time>
      </trkpt>
      <trkpt lat="50.69288" lon="4.72894">
        <ele>141.45</ele>
        <time>2020-05-23T09:59:06Z</time>
      </trkpt>
      <trkpt lat="50.69289" lon="4.72887">
        <ele>140.97</ele>
        <time>2020-05-23T09:59:07Z</time>
      </trkpt>
      <trkpt lat="50.6929" lon="4.72879">
        <ele>140.97</ele>
        <time>2020-05-23T09:59:08Z</time>
      </trkpt>
      <trkpt lat="50.693" lon="4.72812">
        <ele>140.49</ele>
        <time>2020-05-23T09:59:17Z</time>
      </trkpt>
      <trkpt lat="50.69316" lon="4.72693">
        <ele>140.01</ele>
        <time>2020-05-23T09:59:32Z</time>
      </trkpt>
      <trkpt lat="50.6932" lon="4.7257">
        <ele>139.05</ele>
        <time>2020-05-23T09:59:47Z</time>
      </trkpt>
      <trkpt lat="50.69315" lon="4.72436">
        <ele>138.57</ele>
        <time>2020-05-23T10:00:03Z</time>
      </trkpt>
      <trkpt lat="50.69311" lon="4.72298">
        <ele>139.53</ele>
        <time>2020-05-23T10:00:19Z</time>
      </trkpt>
      <trkpt lat="50.69307" lon="4.72212">
        <ele>138.57</ele>
        <time>2020-05-23T10:00:30Z</time>
      </trkpt>
      <trkpt lat="50.69307" lon="4.72205">
        <ele>138.57</ele>
        <time>2020-05-23T10:00:31Z</time>
      </trkpt>
      <trkpt lat="50.69315" lon="4.72106">
        <ele>139.53</ele>
        <time>2020-05-23T10:00:46Z</time>
      </trkpt>
      <trkpt lat="50.69323" lon="4.72064">
        <ele>139.53</ele>
        <time>2020-05-23T10:00:54Z</time>
      </trkpt>
      <trkpt lat="50.69334" lon="4.72007">
        <ele>138.09</ele>
        <time>2020-05-23T10:01:04Z</time>
      </trkpt>
      <trkpt lat="50.69347" lon="4.71942">
        <ele>137.13</ele>
        <time>2020-05-23T10:01:15Z</time>
      </trkpt>
      <trkpt lat="50.69353" lon="4.71919">
        <ele>136.64</ele>
        <time>2020-05-23T10:01:19Z</time>
      </trkpt>
      <trkpt lat="50.69354" lon="4.71914">
        <ele>136.64</ele>
        <time>2020-05-23T10:01:20Z</time>
      </trkpt>
      <trkpt lat="50.69356" lon="4.71908">
        <ele>136.64</ele>
        <time>2020-05-23T10:01:21Z</time>
      </trkpt>
      <trkpt lat="50.69373" lon="4.71858">
        <ele>135.68</ele>
        <time>2020-05-23T10:01:30Z</time>
      </trkpt>
      <trkpt lat="50.69375" lon="4.71853">
        <ele>135.68</ele>
        <time>2020-05-23T10:01:31Z</time>
      </trkpt>
      <trkpt lat="50.69376" lon="4.71847">
        <ele>135.68</ele>
        <time>2020-05-23T10:01:32Z</time>
      </trkpt>
      <trkpt lat="50.69378" lon="4.71842">
        <ele>135.68</ele>
        <time>2020-05-23T10:01:33Z</time>
      </trkpt>
      <trkpt lat="50.6938" lon="4.71837">
        <ele>135.68</ele>
        <time>2020-05-23T10:01:34Z</time>
      </trkpt>
      <trkpt lat="50.69382" lon="4.71831">
        <ele>135.68</ele>
        <time>2020-05-23T10:01:35Z</time>
      </trkpt>
      <trkpt lat="50.69383" lon="4.71825">
        <ele>135.68</ele>
        <time>2020-05-23T10:01:36Z</time>
      </trkpt>
      <trkpt lat="50.694" lon="4.71778">
        <ele>135.68</ele>
        <time>2020-05-23T10:01:45Z</time>
      </trkpt>
      <trkpt lat="50.69402" lon="4.71772">
        <ele>135.68</ele>
        <time>2020-05-23T10:01:46Z</time>
      </trkpt>
      <trkpt lat="50.69406" lon="4.71767">
        <ele>135.68</ele>
        <time>2020-05-23T10:01:47Z</time>
      </trkpt>
      <trkpt lat="50.6941" lon="4.71764">
        <ele>135.68</ele>
        <time>2020-05-23T10:01:48Z</time>
      </trkpt>
      <trkpt lat="50.69413" lon="4.71762">
        <ele>135.68</ele>
        <time>2020-05-23T10:01:49Z</time>
      </trkpt>
      <trkpt lat="50.69417" lon="4.71761">
        <ele>135.68</ele>
        <time>2020-05-23T10:01:50Z</time>
      </trkpt>
      <trkpt lat="50.6942" lon="4.71762">
        <ele>136.16</ele>
        <time>2020-05-23T10:01:51Z</time>
      </trkpt>
      <trkpt lat="50.69424" lon="4.71764">
        <ele>135.68</ele>
        <time>2020-05-23T10:01:52Z</time>
      </trkpt>
      <trkpt lat="50.69427" lon="4.71767">
        <ele>136.16</ele>
        <time>2020-05-23T10:01:53Z</time>
      </trkpt>
      <trkpt lat="50.6944" lon="4.71781">
        <ele>136.16</ele>
        <time>2020-05-23T10:01:57Z</time>
      </trkpt>
      <trkpt lat="50.69444" lon="4.71784">
        <ele>135.68</ele>
        <time>2020-05-23T10:01:58Z</time>
      </trkpt>
      <trkpt lat="50.6949" lon="4.71831">
        <ele>133.76</ele>
        <time>2020-05-23T10:02:09Z</time>
      </trkpt>
      <trkpt lat="50.69535" lon="4.71876">
        <ele>133.76</ele>
        <time>2020-05-23T10:02:19Z</time>
      </trkpt>
      <trkpt lat="50.69599" lon="4.71937">
        <ele>130.88</ele>
        <time>2020-05-23T10:02:32Z</time>
      </trkpt>
      <trkpt lat="50.69657" lon="4.71992">
        <ele>127.99</ele>
        <time>2020-05-23T10:02:42Z</time>
      </trkpt>
      <trkpt lat="50.69668" lon="4.72002">
        <ele>127.03</ele>
        <time>2020-05-23T10:02:44Z</time>
      </trkpt>
      <trkpt lat="50.69687" lon="4.72025">
        <ele>126.07</ele>
        <time>2020-05-23T10:02:48Z</time>
      </trkpt>
      <trkpt lat="50.69692" lon="4.72029">
        <ele>125.59</ele>
        <time>2020-05-23T10:02:49Z</time>
      </trkpt>
      <trkpt lat="50.69724" lon="4.72064">
        <ele>123.19</ele>
        <time>2020-05-23T10:02:56Z</time>
      </trkpt>
      <trkpt lat="50.69728" lon="4.7207">
        <ele>122.71</ele>
        <time>2020-05-23T10:02:57Z</time>
      </trkpt>
      <trkpt lat="50.69731" lon="4.72076">
        <ele>122.22</ele>
        <time>2020-05-23T10:02:58Z</time>
      </trkpt>
      <trkpt lat="50.69738" lon="4.72089">
        <ele>121.74</ele>
        <time>2020-05-23T10:03:00Z</time>
      </trkpt>
      <trkpt lat="50.6974" lon="4.72096">
        <ele>121.74</ele>
        <time>2020-05-23T10:03:01Z</time>
      </trkpt>
      <trkpt lat="50.69759" lon="4.72162">
        <ele>119.34</ele>
        <time>2020-05-23T10:03:11Z</time>
      </trkpt>
      <trkpt lat="50.69759" lon="4.72162">
        <ele>118.86</ele>
        <time>2020-05-23T10:03:20Z</time>
      </trkpt>
      <trkpt lat="50.69759" lon="4.72163">
        <ele>120.78</ele>
        <time>2020-05-23T10:03:45Z</time>
      </trkpt>
      <trkpt lat="50.69767" lon="4.72185">
        <ele>121.26</ele>
        <time>2020-05-23T10:03:52Z</time>
      </trkpt>
      <trkpt lat="50.69778" lon="4.7222">
        <ele>117.9</ele>
        <time>2020-05-23T10:04:00Z</time>
      </trkpt>
      <trkpt lat="50.6978" lon="4.72225">
        <ele>117.42</ele>
        <time>2020-05-23T10:04:01Z</time>
      </trkpt>
      <trkpt lat="50.69783" lon="4.7223">
        <ele>116.94</ele>
        <time>2020-05-23T10:04:02Z</time>
      </trkpt>
      <trkpt lat="50.69786" lon="4.72234">
        <ele>116.46</ele>
        <time>2020-05-23T10:04:03Z</time>
      </trkpt>
      <trkpt lat="50.69789" lon="4.72238">
        <ele>115.98</ele>
        <time>2020-05-23T10:04:04Z</time>
      </trkpt>
      <trkpt lat="50.69791" lon="4.72241">
        <ele>115.5</ele>
        <time>2020-05-23T10:04:05Z</time>
      </trkpt>
      <trkpt lat="50.69794" lon="4.72245">
        <ele>115.01</ele>
        <time>2020-05-23T10:04:06Z</time>
      </trkpt>
      <trkpt lat="50.69797" lon="4.72249">
        <ele>114.53</ele>
        <time>2020-05-23T10:04:07Z</time>
      </trkpt>
      <trkpt lat="50.69804" lon="4.72263">
        <ele>112.61</ele>
        <time>2020-05-23T10:04:10Z</time>
      </trkpt>
      <trkpt lat="50.6981" lon="4.72273">
        <ele>111.17</ele>
        <time>2020-05-23T10:04:12Z</time>
      </trkpt>
      <trkpt lat="50.69814" lon="4.72277">
        <ele>110.21</ele>
        <time>2020-05-23T10:04:13Z</time>
      </trkpt>
      <trkpt lat="50.69818" lon="4.72281">
        <ele>109.73</ele>
        <time>2020-05-23T10:04:14Z</time>
      </trkpt>
      <trkpt lat="50.69827" lon="4.7229">
        <ele>107.81</ele>
        <time>2020-05-23T10:04:16Z</time>
      </trkpt>
      <trkpt lat="50.69832" lon="4.72293">
        <ele>106.84</ele>
        <time>2020-05-23T10:04:17Z</time>
      </trkpt>
      <trkpt lat="50.69837" lon="4.72297">
        <ele>105.88</ele>
        <time>2020-05-23T10:04:18Z</time>
      </trkpt>
      <trkpt lat="50.69846" lon="4.72306">
        <ele>103.96</ele>
        <time>2020-05-23T10:04:20Z</time>
      </trkpt>
      <trkpt lat="50.69861" lon="4.72318">
        <ele>101.56</ele>
        <time>2020-05-23T10:04:23Z</time>
      </trkpt>
      <trkpt lat="50.69889" lon="4.72359">
        <ele>94.83</ele>
        <time>2020-05-23T10:04:32Z</time>
      </trkpt>
      <trkpt lat="50.69893" lon="4.72365">
        <ele>93.87</ele>
        <time>2020-05-23T10:04:34Z</time>
      </trkpt>
      <trkpt lat="50.69894" lon="4.72367">
        <ele>93.87</ele>
        <time>2020-05-23T10:04:35Z</time>
      </trkpt>
      <trkpt lat="50.69901" lon="4.7237">
        <ele>94.35</ele>
        <time>2020-05-23T10:04:41Z</time>
      </trkpt>
      <trkpt lat="50.69902" lon="4.72369">
        <ele>94.35</ele>
        <time>2020-05-23T10:04:42Z</time>
      </trkpt>
      <trkpt lat="50.69906" lon="4.72358">
        <ele>97.23</ele>
        <time>2020-05-23T10:04:50Z</time>
      </trkpt>
      <trkpt lat="50.69907" lon="4.72355">
        <ele>98.19</ele>
        <time>2020-05-23T10:04:52Z</time>
      </trkpt>
      <trkpt lat="50.69908" lon="4.7235">
        <ele>99.15</ele>
        <time>2020-05-23T10:04:55Z</time>
      </trkpt>
      <trkpt lat="50.69914" lon="4.7233">
        <ele>103</ele>
        <time>2020-05-23T10:05:05Z</time>
      </trkpt>
      <trkpt lat="50.69914" lon="4.72328">
        <ele>103.48</ele>
        <time>2020-05-23T10:05:06Z</time>
      </trkpt>
      <trkpt lat="50.69915" lon="4.72325">
        <ele>103.96</ele>
        <time>2020-05-23T10:05:07Z</time>
      </trkpt>
      <trkpt lat="50.69915" lon="4.72322">
        <ele>103.96</ele>
        <time>2020-05-23T10:05:08Z</time>
      </trkpt>
      <trkpt lat="50.69915" lon="4.72319">
        <ele>104.92</ele>
        <time>2020-05-23T10:05:09Z</time>
      </trkpt>
      <trkpt lat="50.69916" lon="4.72315">
        <ele>104.92</ele>
        <time>2020-05-23T10:05:10Z</time>
      </trkpt>
      <trkpt lat="50.69916" lon="4.72312">
        <ele>105.4</ele>
        <time>2020-05-23T10:05:11Z</time>
      </trkpt>
      <trkpt lat="50.69917" lon="4.72308">
        <ele>105.4</ele>
        <time>2020-05-23T10:05:12Z</time>
      </trkpt>
      <trkpt lat="50.69918" lon="4.72305">
        <ele>105.88</ele>
        <time>2020-05-23T10:05:13Z</time>
      </trkpt>
      <trkpt lat="50.69919" lon="4.72301">
        <ele>106.36</ele>
        <time>2020-05-23T10:05:14Z</time>
      </trkpt>
      <trkpt lat="50.69919" lon="4.72298">
        <ele>106.36</ele>
        <time>2020-05-23T10:05:15Z</time>
      </trkpt>
      <trkpt lat="50.69923" lon="4.72254">
        <ele>105.4</ele>
        <time>2020-05-23T10:05:25Z</time>
      </trkpt>
      <trkpt lat="50.69921" lon="4.72233">
        <ele>105.4</ele>
        <time>2020-05-23T10:05:29Z</time>
      </trkpt>
      <trkpt lat="50.69922" lon="4.72226">
        <ele>105.4</ele>
        <time>2020-05-23T10:05:30Z</time>
      </trkpt>
      <trkpt lat="50.69922" lon="4.72221">
        <ele>105.4</ele>
        <time>2020-05-23T10:05:31Z</time>
      </trkpt>
      <trkpt lat="50.69922" lon="4.72215">
        <ele>105.4</ele>
        <time>2020-05-23T10:05:32Z</time>
      </trkpt>
      <trkpt lat="50.69922" lon="4.72211">
        <ele>105.4</ele>
        <time>2020-05-23T10:05:33Z</time>
      </trkpt>
      <trkpt lat="50.69921" lon="4.72191">
        <ele>105.4</ele>
        <time>2020-05-23T10:05:38Z</time>
      </trkpt>
      <trkpt lat="50.69923" lon="4.72185">
        <ele>105.4</ele>
        <time>2020-05-23T10:05:39Z</time>
      </trkpt>
      <trkpt lat="50.69923" lon="4.72182">
        <ele>105.4</ele>
        <time>2020-05-23T10:05:40Z</time>
      </trkpt>
      <trkpt lat="50.69922" lon="4.72179">
        <ele>105.4</ele>
        <time>2020-05-23T10:05:41Z</time>
      </trkpt>
      <trkpt lat="50.69922" lon="4.72175">
        <ele>105.88</ele>
        <time>2020-05-23T10:05:42Z</time>
      </trkpt>
      <trkpt lat="50.69922" lon="4.72171">
        <ele>105.88</ele>
        <time>2020-05-23T10:05:43Z</time>
      </trkpt>
      <trkpt lat="50.69925" lon="4.72162">
        <ele>105.88</ele>
        <time>2020-05-23T10:05:45Z</time>
      </trkpt>
      <trkpt lat="50.69927" lon="4.72156">
        <ele>105.88</ele>
        <time>2020-05-23T10:05:46Z</time>
      </trkpt>
      <trkpt lat="50.69929" lon="4.7215">
        <ele>105.4</ele>
        <time>2020-05-23T10:05:47Z</time>
      </trkpt>
      <trkpt lat="50.6993" lon="4.72145">
        <ele>105.4</ele>
        <time>2020-05-23T10:05:48Z</time>
      </trkpt>
      <trkpt lat="50.69931" lon="4.7214">
        <ele>105.4</ele>
        <time>2020-05-23T10:05:49Z</time>
      </trkpt>
      <trkpt lat="50.69932" lon="4.72135">
        <ele>104.92</ele>
        <time>2020-05-23T10:05:50Z</time>
      </trkpt>
      <trkpt lat="50.69938" lon="4.72074">
        <ele>104.92</ele>
        <time>2020-05-23T10:06:00Z</time>
      </trkpt>
      <trkpt lat="50.69942" lon="4.72015">
        <ele>104.44</ele>
        <time>2020-05-23T10:06:08Z</time>
      </trkpt>
      <trkpt lat="50.69943" lon="4.72008">
        <ele>103.96</ele>
        <time>2020-05-23T10:06:09Z</time>
      </trkpt>
      <trkpt lat="50.69944" lon="4.72001">
        <ele>103.48</ele>
        <time>2020-05-23T10:06:10Z</time>
      </trkpt>
      <trkpt lat="50.69945" lon="4.71994">
        <ele>103.48</ele>
        <time>2020-05-23T10:06:11Z</time>
      </trkpt>
      <trkpt lat="50.69946" lon="4.71987">
        <ele>103</ele>
        <time>2020-05-23T10:06:12Z</time>
      </trkpt>
      <trkpt lat="50.69947" lon="4.7198">
        <ele>103</ele>
        <time>2020-05-23T10:06:13Z</time>
      </trkpt>
      <trkpt lat="50.69948" lon="4.71973">
        <ele>103</ele>
        <time>2020-05-23T10:06:14Z</time>
      </trkpt>
      <trkpt lat="50.6995" lon="4.71943">
        <ele>103</ele>
        <time>2020-05-23T10:06:18Z</time>
      </trkpt>
      <trkpt lat="50.6995" lon="4.71893">
        <ele>102.52</ele>
        <time>2020-05-23T10:06:25Z</time>
      </trkpt>
      <trkpt lat="50.69951" lon="4.71887">
        <ele>102.52</ele>
        <time>2020-05-23T10:06:26Z</time>
      </trkpt>
      <trkpt lat="50.69951" lon="4.71873">
        <ele>102.04</ele>
        <time>2020-05-23T10:06:28Z</time>
      </trkpt>
      <trkpt lat="50.69949" lon="4.71846">
        <ele>102.52</ele>
        <time>2020-05-23T10:06:32Z</time>
      </trkpt>
      <trkpt lat="50.69948" lon="4.71839">
        <ele>102.04</ele>
        <time>2020-05-23T10:06:33Z</time>
      </trkpt>
      <trkpt lat="50.69947" lon="4.71831">
        <ele>102.04</ele>
        <time>2020-05-23T10:06:34Z</time>
      </trkpt>
      <trkpt lat="50.69938" lon="4.71767">
        <ele>101.56</ele>
        <time>2020-05-23T10:06:43Z</time>
      </trkpt>
      <trkpt lat="50.69938" lon="4.7176">
        <ele>102.04</ele>
        <time>2020-05-23T10:06:44Z</time>
      </trkpt>
      <trkpt lat="50.69938" lon="4.71753">
        <ele>102.04</ele>
        <time>2020-05-23T10:06:45Z</time>
      </trkpt>
      <trkpt lat="50.69937" lon="4.7174">
        <ele>101.08</ele>
        <time>2020-05-23T10:06:47Z</time>
      </trkpt>
      <trkpt lat="50.69938" lon="4.71726">
        <ele>101.08</ele>
        <time>2020-05-23T10:06:49Z</time>
      </trkpt>
      <trkpt lat="50.6994" lon="4.71712">
        <ele>102.04</ele>
        <time>2020-05-23T10:06:51Z</time>
      </trkpt>
      <trkpt lat="50.69943" lon="4.71705">
        <ele>102.52</ele>
        <time>2020-05-23T10:06:52Z</time>
      </trkpt>
      <trkpt lat="50.69948" lon="4.71689">
        <ele>103.48</ele>
        <time>2020-05-23T10:06:54Z</time>
      </trkpt>
      <trkpt lat="50.69949" lon="4.71681">
        <ele>103.96</ele>
        <time>2020-05-23T10:06:55Z</time>
      </trkpt>
      <trkpt lat="50.69951" lon="4.71674">
        <ele>104.44</ele>
        <time>2020-05-23T10:06:56Z</time>
      </trkpt>
      <trkpt lat="50.69952" lon="4.71667">
        <ele>104.92</ele>
        <time>2020-05-23T10:06:57Z</time>
      </trkpt>
      <trkpt lat="50.69952" lon="4.71659">
        <ele>105.4</ele>
        <time>2020-05-23T10:06:58Z</time>
      </trkpt>
      <trkpt lat="50.69961" lon="4.716">
        <ele>109.73</ele>
        <time>2020-05-23T10:07:07Z</time>
      </trkpt>
      <trkpt lat="50.69963" lon="4.71595">
        <ele>110.21</ele>
        <time>2020-05-23T10:07:08Z</time>
      </trkpt>
      <trkpt lat="50.69964" lon="4.7159">
        <ele>110.69</ele>
        <time>2020-05-23T10:07:09Z</time>
      </trkpt>
      <trkpt lat="50.69966" lon="4.71585">
        <ele>111.17</ele>
        <time>2020-05-23T10:07:10Z</time>
      </trkpt>
      <trkpt lat="50.69968" lon="4.71581">
        <ele>111.65</ele>
        <time>2020-05-23T10:07:11Z</time>
      </trkpt>
      <trkpt lat="50.69968" lon="4.71576">
        <ele>112.61</ele>
        <time>2020-05-23T10:07:12Z</time>
      </trkpt>
      <trkpt lat="50.69969" lon="4.71571">
        <ele>113.09</ele>
        <time>2020-05-23T10:07:13Z</time>
      </trkpt>
      <trkpt lat="50.6998" lon="4.71526">
        <ele>113.09</ele>
        <time>2020-05-23T10:07:21Z</time>
      </trkpt>
      <trkpt lat="50.69982" lon="4.71519">
        <ele>113.09</ele>
        <time>2020-05-23T10:07:22Z</time>
      </trkpt>
      <trkpt lat="50.69985" lon="4.71512">
        <ele>113.57</ele>
        <time>2020-05-23T10:07:23Z</time>
      </trkpt>
      <trkpt lat="50.69988" lon="4.71505">
        <ele>113.57</ele>
        <time>2020-05-23T10:07:24Z</time>
      </trkpt>
      <trkpt lat="50.69992" lon="4.71498">
        <ele>114.05</ele>
        <time>2020-05-23T10:07:25Z</time>
      </trkpt>
      <trkpt lat="50.70002" lon="4.71477">
        <ele>114.53</ele>
        <time>2020-05-23T10:07:28Z</time>
      </trkpt>
      <trkpt lat="50.70026" lon="4.71447">
        <ele>114.53</ele>
        <time>2020-05-23T10:07:36Z</time>
      </trkpt>
      <trkpt lat="50.70033" lon="4.71439">
        <ele>114.53</ele>
        <time>2020-05-23T10:07:39Z</time>
      </trkpt>
      <trkpt lat="50.70035" lon="4.71438">
        <ele>114.53</ele>
        <time>2020-05-23T10:07:40Z</time>
      </trkpt>
      <trkpt lat="50.70037" lon="4.71436">
        <ele>114.53</ele>
        <time>2020-05-23T10:07:41Z</time>
      </trkpt>
      <trkpt lat="50.70062" lon="4.714">
        <ele>113.09</ele>
        <time>2020-05-23T10:07:49Z</time>
      </trkpt>
      <trkpt lat="50.70076" lon="4.71379">
        <ele>113.57</ele>
        <time>2020-05-23T10:07:52Z</time>
      </trkpt>
      <trkpt lat="50.70107" lon="4.7134">
        <ele>114.05</ele>
        <time>2020-05-23T10:08:00Z</time>
      </trkpt>
      <trkpt lat="50.70146" lon="4.7129">
        <ele>112.61</ele>
        <time>2020-05-23T10:08:10Z</time>
      </trkpt>
      <trkpt lat="50.70196" lon="4.71229">
        <ele>111.17</ele>
        <time>2020-05-23T10:08:20Z</time>
      </trkpt>
      <trkpt lat="50.70215" lon="4.71207">
        <ele>110.69</ele>
        <time>2020-05-23T10:08:24Z</time>
      </trkpt>
      <trkpt lat="50.70247" lon="4.71163">
        <ele>109.25</ele>
        <time>2020-05-23T10:08:33Z</time>
      </trkpt>
      <trkpt lat="50.7025" lon="4.71159">
        <ele>109.73</ele>
        <time>2020-05-23T10:08:34Z</time>
      </trkpt>
      <trkpt lat="50.70276" lon="4.71129">
        <ele>109.25</ele>
        <time>2020-05-23T10:08:43Z</time>
      </trkpt>
      <trkpt lat="50.70292" lon="4.71104">
        <ele>107.81</ele>
        <time>2020-05-23T10:08:52Z</time>
      </trkpt>
      <trkpt lat="50.70305" lon="4.71086">
        <ele>108.77</ele>
        <time>2020-05-23T10:09:00Z</time>
      </trkpt>
      <trkpt lat="50.70316" lon="4.71069">
        <ele>109.25</ele>
        <time>2020-05-23T10:09:09Z</time>
      </trkpt>
      <trkpt lat="50.70317" lon="4.71067">
        <ele>109.73</ele>
        <time>2020-05-23T10:09:10Z</time>
      </trkpt>
      <trkpt lat="50.70319" lon="4.71065">
        <ele>109.73</ele>
        <time>2020-05-23T10:09:11Z</time>
      </trkpt>
      <trkpt lat="50.70321" lon="4.71063">
        <ele>110.21</ele>
        <time>2020-05-23T10:09:12Z</time>
      </trkpt>
      <trkpt lat="50.70322" lon="4.7106">
        <ele>110.69</ele>
        <time>2020-05-23T10:09:13Z</time>
      </trkpt>
      <trkpt lat="50.70324" lon="4.71058">
        <ele>111.17</ele>
        <time>2020-05-23T10:09:14Z</time>
      </trkpt>
      <trkpt lat="50.70325" lon="4.71056">
        <ele>111.65</ele>
        <time>2020-05-23T10:09:15Z</time>
      </trkpt>
      <trkpt lat="50.70328" lon="4.71053">
        <ele>112.13</ele>
        <time>2020-05-23T10:09:16Z</time>
      </trkpt>
      <trkpt lat="50.70331" lon="4.71051">
        <ele>112.61</ele>
        <time>2020-05-23T10:09:17Z</time>
      </trkpt>
      <trkpt lat="50.7035" lon="4.71032">
        <ele>113.57</ele>
        <time>2020-05-23T10:09:25Z</time>
      </trkpt>
      <trkpt lat="50.70351" lon="4.7103">
        <ele>114.05</ele>
        <time>2020-05-23T10:09:26Z</time>
      </trkpt>
      <trkpt lat="50.70352" lon="4.71029">
        <ele>114.05</ele>
        <time>2020-05-23T10:09:27Z</time>
      </trkpt>
      <trkpt lat="50.70353" lon="4.71027">
        <ele>114.05</ele>
        <time>2020-05-23T10:09:28Z</time>
      </trkpt>
      <trkpt lat="50.70354" lon="4.71025">
        <ele>114.53</ele>
        <time>2020-05-23T10:09:29Z</time>
      </trkpt>
      <trkpt lat="50.70356" lon="4.71023">
        <ele>115.01</ele>
        <time>2020-05-23T10:09:30Z</time>
      </trkpt>
      <trkpt lat="50.70357" lon="4.7102">
        <ele>115.01</ele>
        <time>2020-05-23T10:09:31Z</time>
      </trkpt>
      <trkpt lat="50.70358" lon="4.71018">
        <ele>115.5</ele>
        <time>2020-05-23T10:09:32Z</time>
      </trkpt>
      <trkpt lat="50.7036" lon="4.71016">
        <ele>115.5</ele>
        <time>2020-05-23T10:09:33Z</time>
      </trkpt>
      <trkpt lat="50.70362" lon="4.71014">
        <ele>115.5</ele>
        <time>2020-05-23T10:09:34Z</time>
      </trkpt>
      <trkpt lat="50.70364" lon="4.71011">
        <ele>115.5</ele>
        <time>2020-05-23T10:09:35Z</time>
      </trkpt>
      <trkpt lat="50.70366" lon="4.71009">
        <ele>115.5</ele>
        <time>2020-05-23T10:09:36Z</time>
      </trkpt>
      <trkpt lat="50.70368" lon="4.71007">
        <ele>115.5</ele>
        <time>2020-05-23T10:09:37Z</time>
      </trkpt>
      <trkpt lat="50.70371" lon="4.71005">
        <ele>115.5</ele>
        <time>2020-05-23T10:09:38Z</time>
      </trkpt>
      <trkpt lat="50.70389" lon="4.70978">
        <ele>113.57</ele>
        <time>2020-05-23T10:09:46Z</time>
      </trkpt>
      <trkpt lat="50.70406" lon="4.7095">
        <ele>107.81</ele>
        <time>2020-05-23T10:09:55Z</time>
      </trkpt>
      <trkpt lat="50.70418" lon="4.70928">
        <ele>104.44</ele>
        <time>2020-05-23T10:10:04Z</time>
      </trkpt>
      <trkpt lat="50.70424" lon="4.70921">
        <ele>103.48</ele>
        <time>2020-05-23T10:10:07Z</time>
      </trkpt>
      <trkpt lat="50.70426" lon="4.70918">
        <ele>103.48</ele>
        <time>2020-05-23T10:10:08Z</time>
      </trkpt>
      <trkpt lat="50.70428" lon="4.70915">
        <ele>103.48</ele>
        <time>2020-05-23T10:10:09Z</time>
      </trkpt>
      <trkpt lat="50.70451" lon="4.70887">
        <ele>102.52</ele>
        <time>2020-05-23T10:10:18Z</time>
      </trkpt>
      <trkpt lat="50.70479" lon="4.70851">
        <ele>101.56</ele>
        <time>2020-05-23T10:10:28Z</time>
      </trkpt>
      <trkpt lat="50.70503" lon="4.70821">
        <ele>101.56</ele>
        <time>2020-05-23T10:10:36Z</time>
      </trkpt>
      <trkpt lat="50.70524" lon="4.70788">
        <ele>97.71</ele>
        <time>2020-05-23T10:10:44Z</time>
      </trkpt>
      <trkpt lat="50.70526" lon="4.70781">
        <ele>97.23</ele>
        <time>2020-05-23T10:10:45Z</time>
      </trkpt>
      <trkpt lat="50.70542" lon="4.70705">
        <ele>93.39</ele>
        <time>2020-05-23T10:10:54Z</time>
      </trkpt>
      <trkpt lat="50.70546" lon="4.70683">
        <ele>92.42</ele>
        <time>2020-05-23T10:10:56Z</time>
      </trkpt>
      <trkpt lat="50.70548" lon="4.70672">
        <ele>91.94</ele>
        <time>2020-05-23T10:10:57Z</time>
      </trkpt>
      <trkpt lat="50.70554" lon="4.70643">
        <ele>91.46</ele>
        <time>2020-05-23T10:11:00Z</time>
      </trkpt>
      <trkpt lat="50.70557" lon="4.70634">
        <ele>91.46</ele>
        <time>2020-05-23T10:11:01Z</time>
      </trkpt>
      <trkpt lat="50.70562" lon="4.70628">
        <ele>90.98</ele>
        <time>2020-05-23T10:11:02Z</time>
      </trkpt>
      <trkpt lat="50.70567" lon="4.70624">
        <ele>90.98</ele>
        <time>2020-05-23T10:11:03Z</time>
      </trkpt>
      <trkpt lat="50.70572" lon="4.70622">
        <ele>90.5</ele>
        <time>2020-05-23T10:11:04Z</time>
      </trkpt>
      <trkpt lat="50.70577" lon="4.7062">
        <ele>90.5</ele>
        <time>2020-05-23T10:11:05Z</time>
      </trkpt>
      <trkpt lat="50.70586" lon="4.70617">
        <ele>90.02</ele>
        <time>2020-05-23T10:11:07Z</time>
      </trkpt>
      <trkpt lat="50.70591" lon="4.70616">
        <ele>89.54</ele>
        <time>2020-05-23T10:11:08Z</time>
      </trkpt>
      <trkpt lat="50.70623" lon="4.70596">
        <ele>90.02</ele>
        <time>2020-05-23T10:11:17Z</time>
      </trkpt>
      <trkpt lat="50.70624" lon="4.70589">
        <ele>89.54</ele>
        <time>2020-05-23T10:11:18Z</time>
      </trkpt>
      <trkpt lat="50.70622" lon="4.70585">
        <ele>88.58</ele>
        <time>2020-05-23T10:11:19Z</time>
      </trkpt>
      <trkpt lat="50.7062" lon="4.70582">
        <ele>87.62</ele>
        <time>2020-05-23T10:11:20Z</time>
      </trkpt>
      <trkpt lat="50.70618" lon="4.7058">
        <ele>86.66</ele>
        <time>2020-05-23T10:11:21Z</time>
      </trkpt>
      <trkpt lat="50.70614" lon="4.70577">
        <ele>84.25</ele>
        <time>2020-05-23T10:11:29Z</time>
      </trkpt>
      <trkpt lat="50.70613" lon="4.70576">
        <ele>83.29</ele>
        <time>2020-05-23T10:11:43Z</time>
      </trkpt>
      <trkpt lat="50.70613" lon="4.70576">
        <ele>84.25</ele>
        <time>2020-05-23T10:12:05Z</time>
      </trkpt>
      <trkpt lat="50.70613" lon="4.70574">
        <ele>84.25</ele>
        <time>2020-05-23T10:12:17Z</time>
      </trkpt>
      <trkpt lat="50.70615" lon="4.70573">
        <ele>84.73</ele>
        <time>2020-05-23T10:12:34Z</time>
      </trkpt>
      <trkpt lat="50.70615" lon="4.70572">
        <ele>84.25</ele>
        <time>2020-05-23T10:13:01Z</time>
      </trkpt>
      <trkpt lat="50.70615" lon="4.70574">
        <ele>84.25</ele>
        <time>2020-05-23T10:13:33Z</time>
      </trkpt>
      <trkpt lat="50.70615" lon="4.70573">
        <ele>84.73</ele>
        <time>2020-05-23T10:14:03Z</time>
      </trkpt>
      <trkpt lat="50.70614" lon="4.70574">
        <ele>85.21</ele>
        <time>2020-05-23T10:14:31Z</time>
      </trkpt>
      <trkpt lat="50.70615" lon="4.70573">
        <ele>85.69</ele>
        <time>2020-05-23T10:14:53Z</time>
      </trkpt>
      <trkpt lat="50.70616" lon="4.70573">
        <ele>85.69</ele>
        <time>2020-05-23T10:15:17Z</time>
      </trkpt>
      <trkpt lat="50.70616" lon="4.70573">
        <ele>85.69</ele>
        <time>2020-05-23T10:15:42Z</time>
      </trkpt>
      <trkpt lat="50.70616" lon="4.70573">
        <ele>84.73</ele>
        <time>2020-05-23T10:16:11Z</time>
      </trkpt>
      <trkpt lat="50.70613" lon="4.70574">
        <ele>83.29</ele>
        <time>2020-05-23T10:16:37Z</time>
      </trkpt>
      <trkpt lat="50.70613" lon="4.70573">
        <ele>83.29</ele>
        <time>2020-05-23T10:16:56Z</time>
      </trkpt>
      <trkpt lat="50.70613" lon="4.70572">
        <ele>83.29</ele>
        <time>2020-05-23T10:17:26Z</time>
      </trkpt>
      <trkpt lat="50.70614" lon="4.70572">
        <ele>81.37</ele>
        <time>2020-05-23T10:17:48Z</time>
      </trkpt>
      <trkpt lat="50.70615" lon="4.70573">
        <ele>80.89</ele>
        <time>2020-05-23T10:18:22Z</time>
      </trkpt>
      <trkpt lat="50.70614" lon="4.70574">
        <ele>81.85</ele>
        <time>2020-05-23T10:18:46Z</time>
      </trkpt>
      <trkpt lat="50.70613" lon="4.70573">
        <ele>81.85</ele>
        <time>2020-05-23T10:19:04Z</time>
      </trkpt>
      <trkpt lat="50.70613" lon="4.70573">
        <ele>82.81</ele>
        <time>2020-05-23T10:19:26Z</time>
      </trkpt>
      <trkpt lat="50.7061" lon="4.70573">
        <ele>83.29</ele>
        <time>2020-05-23T10:19:45Z</time>
      </trkpt>
      <trkpt lat="50.70608" lon="4.70569">
        <ele>83.77</ele>
        <time>2020-05-23T10:19:57Z</time>
      </trkpt>
      <trkpt lat="50.70606" lon="4.70563">
        <ele>84.73</ele>
        <time>2020-05-23T10:20:02Z</time>
      </trkpt>
      <trkpt lat="50.70602" lon="4.70557">
        <ele>85.21</ele>
        <time>2020-05-23T10:20:07Z</time>
      </trkpt>
      <trkpt lat="50.70593" lon="4.70543">
        <ele>85.69</ele>
        <time>2020-05-23T10:20:16Z</time>
      </trkpt>
      <trkpt lat="50.7059" lon="4.70537">
        <ele>86.66</ele>
        <time>2020-05-23T10:20:20Z</time>
      </trkpt>
      <trkpt lat="50.70589" lon="4.70535">
        <ele>86.66</ele>
        <time>2020-05-23T10:20:21Z</time>
      </trkpt>
      <trkpt lat="50.70588" lon="4.70533">
        <ele>87.14</ele>
        <time>2020-05-23T10:20:22Z</time>
      </trkpt>
      <trkpt lat="50.70579" lon="4.70519">
        <ele>88.1</ele>
        <time>2020-05-23T10:20:31Z</time>
      </trkpt>
      <trkpt lat="50.70573" lon="4.7051">
        <ele>89.06</ele>
        <time>2020-05-23T10:20:37Z</time>
      </trkpt>
      <trkpt lat="50.70572" lon="4.70508">
        <ele>89.06</ele>
        <time>2020-05-23T10:20:38Z</time>
      </trkpt>
      <trkpt lat="50.70571" lon="4.70506">
        <ele>89.54</ele>
        <time>2020-05-23T10:20:39Z</time>
      </trkpt>
      <trkpt lat="50.7057" lon="4.70504">
        <ele>89.54</ele>
        <time>2020-05-23T10:20:40Z</time>
      </trkpt>
      <trkpt lat="50.70569" lon="4.70502">
        <ele>89.54</ele>
        <time>2020-05-23T10:20:41Z</time>
      </trkpt>
      <trkpt lat="50.70568" lon="4.70501">
        <ele>89.54</ele>
        <time>2020-05-23T10:20:42Z</time>
      </trkpt>
      <trkpt lat="50.70567" lon="4.705">
        <ele>90.02</ele>
        <time>2020-05-23T10:20:43Z</time>
      </trkpt>
      <trkpt lat="50.70564" lon="4.70495">
        <ele>90.5</ele>
        <time>2020-05-23T10:20:47Z</time>
      </trkpt>
      <trkpt lat="50.70561" lon="4.7049">
        <ele>90.98</ele>
        <time>2020-05-23T10:20:50Z</time>
      </trkpt>
      <trkpt lat="50.70555" lon="4.70482">
        <ele>90.98</ele>
        <time>2020-05-23T10:20:58Z</time>
      </trkpt>
      <trkpt lat="50.70546" lon="4.70472">
        <ele>92.42</ele>
        <time>2020-05-23T10:21:07Z</time>
      </trkpt>
      <trkpt lat="50.70544" lon="4.70471">
        <ele>92.9</ele>
        <time>2020-05-23T10:21:09Z</time>
      </trkpt>
      <trkpt lat="50.70543" lon="4.70471">
        <ele>92.9</ele>
        <time>2020-05-23T10:21:10Z</time>
      </trkpt>
      <trkpt lat="50.70536" lon="4.70467">
        <ele>93.87</ele>
        <time>2020-05-23T10:21:14Z</time>
      </trkpt>
      <trkpt lat="50.70535" lon="4.70467">
        <ele>93.87</ele>
        <time>2020-05-23T10:21:15Z</time>
      </trkpt>
      <trkpt lat="50.7052" lon="4.70459">
        <ele>96.27</ele>
        <time>2020-05-23T10:21:25Z</time>
      </trkpt>
      <trkpt lat="50.70508" lon="4.7045">
        <ele>98.67</ele>
        <time>2020-05-23T10:21:36Z</time>
      </trkpt>
      <trkpt lat="50.70506" lon="4.70448">
        <ele>99.15</ele>
        <time>2020-05-23T10:21:38Z</time>
      </trkpt>
      <trkpt lat="50.70504" lon="4.70447">
        <ele>99.15</ele>
        <time>2020-05-23T10:21:39Z</time>
      </trkpt>
      <trkpt lat="50.70493" lon="4.7044">
        <ele>101.08</ele>
        <time>2020-05-23T10:21:51Z</time>
      </trkpt>
      <trkpt lat="50.70491" lon="4.70439">
        <ele>101.56</ele>
        <time>2020-05-23T10:21:53Z</time>
      </trkpt>
      <trkpt lat="50.70489" lon="4.70438">
        <ele>101.56</ele>
        <time>2020-05-23T10:21:54Z</time>
      </trkpt>
      <trkpt lat="50.70488" lon="4.70437">
        <ele>101.08</ele>
        <time>2020-05-23T10:21:55Z</time>
      </trkpt>
      <trkpt lat="50.70487" lon="4.70437">
        <ele>101.08</ele>
        <time>2020-05-23T10:21:56Z</time>
      </trkpt>
      <trkpt lat="50.70486" lon="4.70437">
        <ele>100.6</ele>
        <time>2020-05-23T10:21:57Z</time>
      </trkpt>
      <trkpt lat="50.70485" lon="4.70436">
        <ele>100.6</ele>
        <time>2020-05-23T10:21:58Z</time>
      </trkpt>
      <trkpt lat="50.70483" lon="4.70436">
        <ele>100.6</ele>
        <time>2020-05-23T10:21:59Z</time>
      </trkpt>
      <trkpt lat="50.70482" lon="4.70435">
        <ele>100.6</ele>
        <time>2020-05-23T10:22:00Z</time>
      </trkpt>
      <trkpt lat="50.70481" lon="4.70434">
        <ele>100.6</ele>
        <time>2020-05-23T10:22:01Z</time>
      </trkpt>
      <trkpt lat="50.70468" lon="4.70426">
        <ele>101.56</ele>
        <time>2020-05-23T10:22:12Z</time>
      </trkpt>
      <trkpt lat="50.70461" lon="4.70423">
        <ele>101.56</ele>
        <time>2020-05-23T10:22:21Z</time>
      </trkpt>
      <trkpt lat="50.70462" lon="4.70425">
        <ele>103</ele>
        <time>2020-05-23T10:22:33Z</time>
      </trkpt>
      <trkpt lat="50.7046" lon="4.70426">
        <ele>103.48</ele>
        <time>2020-05-23T10:22:48Z</time>
      </trkpt>
      <trkpt lat="50.70462" lon="4.70425">
        <ele>105.4</ele>
        <time>2020-05-23T10:23:06Z</time>
      </trkpt>
      <trkpt lat="50.70459" lon="4.70425">
        <ele>104.92</ele>
        <time>2020-05-23T10:23:26Z</time>
      </trkpt>
      <trkpt lat="50.7046" lon="4.70424">
        <ele>104.92</ele>
        <time>2020-05-23T10:23:45Z</time>
      </trkpt>
      <trkpt lat="50.7046" lon="4.70423">
        <ele>103.48</ele>
        <time>2020-05-23T10:24:11Z</time>
      </trkpt>
      <trkpt lat="50.70457" lon="4.70419">
        <ele>103</ele>
        <time>2020-05-23T10:24:21Z</time>
      </trkpt>
      <trkpt lat="50.70439" lon="4.70405">
        <ele>103.96</ele>
        <time>2020-05-23T10:24:30Z</time>
      </trkpt>
      <trkpt lat="50.70415" lon="4.70377">
        <ele>103</ele>
        <time>2020-05-23T10:24:39Z</time>
      </trkpt>
      <trkpt lat="50.70391" lon="4.70343">
        <ele>102.52</ele>
        <time>2020-05-23T10:24:49Z</time>
      </trkpt>
      <trkpt lat="50.70371" lon="4.7031">
        <ele>104.44</ele>
        <time>2020-05-23T10:24:58Z</time>
      </trkpt>
      <trkpt lat="50.70351" lon="4.70279">
        <ele>105.88</ele>
        <time>2020-05-23T10:25:07Z</time>
      </trkpt>
      <trkpt lat="50.70334" lon="4.7025">
        <ele>109.25</ele>
        <time>2020-05-23T10:25:16Z</time>
      </trkpt>
      <trkpt lat="50.70333" lon="4.70247">
        <ele>109.73</ele>
        <time>2020-05-23T10:25:17Z</time>
      </trkpt>
      <trkpt lat="50.70331" lon="4.70241">
        <ele>110.21</ele>
        <time>2020-05-23T10:25:19Z</time>
      </trkpt>
      <trkpt lat="50.70329" lon="4.70238">
        <ele>110.69</ele>
        <time>2020-05-23T10:25:20Z</time>
      </trkpt>
      <trkpt lat="50.70328" lon="4.70236">
        <ele>111.17</ele>
        <time>2020-05-23T10:25:21Z</time>
      </trkpt>
      <trkpt lat="50.70327" lon="4.70234">
        <ele>111.65</ele>
        <time>2020-05-23T10:25:22Z</time>
      </trkpt>
      <trkpt lat="50.70326" lon="4.70232">
        <ele>112.13</ele>
        <time>2020-05-23T10:25:23Z</time>
      </trkpt>
      <trkpt lat="50.70324" lon="4.70227">
        <ele>113.09</ele>
        <time>2020-05-23T10:25:25Z</time>
      </trkpt>
      <trkpt lat="50.70314" lon="4.70201">
        <ele>117.9</ele>
        <time>2020-05-23T10:25:34Z</time>
      </trkpt>
      <trkpt lat="50.70305" lon="4.70188">
        <ele>121.74</ele>
        <time>2020-05-23T10:25:43Z</time>
      </trkpt>
      <trkpt lat="50.70297" lon="4.70165">
        <ele>126.07</ele>
        <time>2020-05-23T10:25:54Z</time>
      </trkpt>
      <trkpt lat="50.70283" lon="4.70145">
        <ele>128.95</ele>
        <time>2020-05-23T10:26:03Z</time>
      </trkpt>
      <trkpt lat="50.70281" lon="4.70146">
        <ele>128.95</ele>
        <time>2020-05-23T10:26:04Z</time>
      </trkpt>
      <trkpt lat="50.70279" lon="4.70147">
        <ele>128.47</ele>
        <time>2020-05-23T10:26:05Z</time>
      </trkpt>
      <trkpt lat="50.70275" lon="4.70149">
        <ele>128.95</ele>
        <time>2020-05-23T10:26:06Z</time>
      </trkpt>
      <trkpt lat="50.70273" lon="4.70149">
        <ele>128.47</ele>
        <time>2020-05-23T10:26:07Z</time>
      </trkpt>
      <trkpt lat="50.70269" lon="4.70151">
        <ele>128.95</ele>
        <time>2020-05-23T10:26:08Z</time>
      </trkpt>
      <trkpt lat="50.7024" lon="4.70168">
        <ele>128.95</ele>
        <time>2020-05-23T10:26:16Z</time>
      </trkpt>
      <trkpt lat="50.70206" lon="4.70196">
        <ele>131.84</ele>
        <time>2020-05-23T10:26:26Z</time>
      </trkpt>
      <trkpt lat="50.70197" lon="4.70202">
        <ele>131.84</ele>
        <time>2020-05-23T10:26:28Z</time>
      </trkpt>
      <trkpt lat="50.70193" lon="4.70205">
        <ele>131.36</ele>
        <time>2020-05-23T10:26:29Z</time>
      </trkpt>
      <trkpt lat="50.70152" lon="4.70218">
        <ele>129.92</ele>
        <time>2020-05-23T10:26:38Z</time>
      </trkpt>
      <trkpt lat="50.70134" lon="4.70217">
        <ele>129.92</ele>
        <time>2020-05-23T10:26:42Z</time>
      </trkpt>
      <trkpt lat="50.70083" lon="4.70214">
        <ele>127.99</ele>
        <time>2020-05-23T10:26:51Z</time>
      </trkpt>
      <trkpt lat="50.70072" lon="4.70213">
        <ele>125.59</ele>
        <time>2020-05-23T10:26:53Z</time>
      </trkpt>
      <trkpt lat="50.70029" lon="4.70211">
        <ele>122.22</ele>
        <time>2020-05-23T10:27:02Z</time>
      </trkpt>
      <trkpt lat="50.69996" lon="4.70209">
        <ele>120.78</ele>
        <time>2020-05-23T10:27:11Z</time>
      </trkpt>
      <trkpt lat="50.69987" lon="4.70207">
        <ele>119.82</ele>
        <time>2020-05-23T10:27:14Z</time>
      </trkpt>
      <trkpt lat="50.69983" lon="4.70208">
        <ele>118.86</ele>
        <time>2020-05-23T10:27:15Z</time>
      </trkpt>
      <trkpt lat="50.6998" lon="4.70213">
        <ele>118.38</ele>
        <time>2020-05-23T10:27:16Z</time>
      </trkpt>
      <trkpt lat="50.69978" lon="4.70216">
        <ele>117.42</ele>
        <time>2020-05-23T10:27:17Z</time>
      </trkpt>
      <trkpt lat="50.69976" lon="4.7022">
        <ele>116.94</ele>
        <time>2020-05-23T10:27:18Z</time>
      </trkpt>
      <trkpt lat="50.69975" lon="4.70223">
        <ele>116.46</ele>
        <time>2020-05-23T10:27:19Z</time>
      </trkpt>
      <trkpt lat="50.69974" lon="4.70227">
        <ele>116.46</ele>
        <time>2020-05-23T10:27:20Z</time>
      </trkpt>
      <trkpt lat="50.69972" lon="4.70231">
        <ele>116.46</ele>
        <time>2020-05-23T10:27:21Z</time>
      </trkpt>
      <trkpt lat="50.69971" lon="4.70234">
        <ele>116.46</ele>
        <time>2020-05-23T10:27:22Z</time>
      </trkpt>
      <trkpt lat="50.69969" lon="4.70239">
        <ele>116.46</ele>
        <time>2020-05-23T10:27:23Z</time>
      </trkpt>
      <trkpt lat="50.69968" lon="4.70243">
        <ele>116.46</ele>
        <time>2020-05-23T10:27:24Z</time>
      </trkpt>
      <trkpt lat="50.69967" lon="4.70247">
        <ele>116.46</ele>
        <time>2020-05-23T10:27:25Z</time>
      </trkpt>
      <trkpt lat="50.69953" lon="4.70297">
        <ele>115.98</ele>
        <time>2020-05-23T10:27:36Z</time>
      </trkpt>
      <trkpt lat="50.69946" lon="4.70327">
        <ele>117.42</ele>
        <time>2020-05-23T10:27:44Z</time>
      </trkpt>
      <trkpt lat="50.69939" lon="4.70362">
        <ele>119.82</ele>
        <time>2020-05-23T10:27:53Z</time>
      </trkpt>
      <trkpt lat="50.6993" lon="4.70387">
        <ele>123.67</ele>
        <time>2020-05-23T10:28:03Z</time>
      </trkpt>
      <trkpt lat="50.6993" lon="4.70389">
        <ele>124.15</ele>
        <time>2020-05-23T10:28:04Z</time>
      </trkpt>
      <trkpt lat="50.6993" lon="4.70392">
        <ele>124.63</ele>
        <time>2020-05-23T10:28:05Z</time>
      </trkpt>
      <trkpt lat="50.6993" lon="4.70394">
        <ele>125.11</ele>
        <time>2020-05-23T10:28:06Z</time>
      </trkpt>
      <trkpt lat="50.6993" lon="4.70396">
        <ele>125.59</ele>
        <time>2020-05-23T10:28:07Z</time>
      </trkpt>
      <trkpt lat="50.69929" lon="4.70398">
        <ele>126.07</ele>
        <time>2020-05-23T10:28:08Z</time>
      </trkpt>
      <trkpt lat="50.69929" lon="4.704">
        <ele>126.07</ele>
        <time>2020-05-23T10:28:09Z</time>
      </trkpt>
      <trkpt lat="50.69928" lon="4.70402">
        <ele>126.55</ele>
        <time>2020-05-23T10:28:10Z</time>
      </trkpt>
      <trkpt lat="50.69928" lon="4.70404">
        <ele>126.55</ele>
        <time>2020-05-23T10:28:11Z</time>
      </trkpt>
      <trkpt lat="50.69927" lon="4.70407">
        <ele>126.55</ele>
        <time>2020-05-23T10:28:12Z</time>
      </trkpt>
      <trkpt lat="50.69927" lon="4.70409">
        <ele>127.03</ele>
        <time>2020-05-23T10:28:13Z</time>
      </trkpt>
      <trkpt lat="50.69921" lon="4.70432">
        <ele>127.99</ele>
        <time>2020-05-23T10:28:24Z</time>
      </trkpt>
      <trkpt lat="50.69918" lon="4.70442">
        <ele>128.95</ele>
        <time>2020-05-23T10:28:30Z</time>
      </trkpt>
      <trkpt lat="50.69916" lon="4.70445">
        <ele>129.92</ele>
        <time>2020-05-23T10:28:32Z</time>
      </trkpt>
      <trkpt lat="50.69907" lon="4.70457">
        <ele>132.32</ele>
        <time>2020-05-23T10:28:42Z</time>
      </trkpt>
      <trkpt lat="50.69895" lon="4.70466">
        <ele>133.76</ele>
        <time>2020-05-23T10:28:53Z</time>
      </trkpt>
      <trkpt lat="50.69886" lon="4.70477">
        <ele>135.2</ele>
        <time>2020-05-23T10:29:04Z</time>
      </trkpt>
      <trkpt lat="50.69878" lon="4.70485">
        <ele>136.16</ele>
        <time>2020-05-23T10:29:13Z</time>
      </trkpt>
      <trkpt lat="50.69877" lon="4.70486">
        <ele>136.16</ele>
        <time>2020-05-23T10:29:14Z</time>
      </trkpt>
      <trkpt lat="50.69875" lon="4.70487">
        <ele>136.16</ele>
        <time>2020-05-23T10:29:15Z</time>
      </trkpt>
      <trkpt lat="50.6987" lon="4.70493">
        <ele>136.64</ele>
        <time>2020-05-23T10:29:20Z</time>
      </trkpt>
      <trkpt lat="50.69869" lon="4.70494">
        <ele>136.64</ele>
        <time>2020-05-23T10:29:21Z</time>
      </trkpt>
      <trkpt lat="50.69868" lon="4.70496">
        <ele>136.64</ele>
        <time>2020-05-23T10:29:22Z</time>
      </trkpt>
      <trkpt lat="50.69867" lon="4.70497">
        <ele>136.64</ele>
        <time>2020-05-23T10:29:23Z</time>
      </trkpt>
      <trkpt lat="50.69865" lon="4.70498">
        <ele>136.64</ele>
        <time>2020-05-23T10:29:24Z</time>
      </trkpt>
      <trkpt lat="50.69864" lon="4.70499">
        <ele>136.64</ele>
        <time>2020-05-23T10:29:25Z</time>
      </trkpt>
      <trkpt lat="50.69863" lon="4.70501">
        <ele>136.64</ele>
        <time>2020-05-23T10:29:26Z</time>
      </trkpt>
      <trkpt lat="50.69861" lon="4.70502">
        <ele>136.64</ele>
        <time>2020-05-23T10:29:27Z</time>
      </trkpt>
      <trkpt lat="50.6986" lon="4.70503">
        <ele>136.64</ele>
        <time>2020-05-23T10:29:28Z</time>
      </trkpt>
      <trkpt lat="50.69845" lon="4.70517">
        <ele>138.57</ele>
        <time>2020-05-23T10:29:39Z</time>
      </trkpt>
      <trkpt lat="50.69831" lon="4.70528">
        <ele>139.05</ele>
        <time>2020-05-23T10:29:49Z</time>
      </trkpt>
      <trkpt lat="50.69827" lon="4.70533">
        <ele>140.01</ele>
        <time>2020-05-23T10:29:53Z</time>
      </trkpt>
      <trkpt lat="50.69825" lon="4.70533">
        <ele>139.53</ele>
        <time>2020-05-23T10:29:54Z</time>
      </trkpt>
      <trkpt lat="50.69823" lon="4.70534">
        <ele>140.01</ele>
        <time>2020-05-23T10:29:55Z</time>
      </trkpt>
      <trkpt lat="50.69808" lon="4.70546">
        <ele>141.45</ele>
        <time>2020-05-23T10:30:05Z</time>
      </trkpt>
      <trkpt lat="50.69795" lon="4.70557">
        <ele>143.85</ele>
        <time>2020-05-23T10:30:14Z</time>
      </trkpt>
      <trkpt lat="50.69778" lon="4.70568">
        <ele>146.74</ele>
        <time>2020-05-23T10:30:23Z</time>
      </trkpt>
      <trkpt lat="50.6976" lon="4.70582">
        <ele>150.1</ele>
        <time>2020-05-23T10:30:34Z</time>
      </trkpt>
      <trkpt lat="50.69743" lon="4.70595">
        <ele>152.51</ele>
        <time>2020-05-23T10:30:45Z</time>
      </trkpt>
      <trkpt lat="50.69732" lon="4.70603">
        <ele>154.91</ele>
        <time>2020-05-23T10:30:53Z</time>
      </trkpt>
      <trkpt lat="50.69717" lon="4.70613">
        <ele>157.79</ele>
        <time>2020-05-23T10:31:03Z</time>
      </trkpt>
      <trkpt lat="50.69701" lon="4.70624">
        <ele>155.39</ele>
        <time>2020-05-23T10:31:12Z</time>
      </trkpt>
      <trkpt lat="50.69681" lon="4.70641">
        <ele>154.43</ele>
        <time>2020-05-23T10:31:25Z</time>
      </trkpt>
      <trkpt lat="50.6966" lon="4.70661">
        <ele>153.47</ele>
        <time>2020-05-23T10:31:35Z</time>
      </trkpt>
      <trkpt lat="50.69646" lon="4.7067">
        <ele>152.51</ele>
        <time>2020-05-23T10:31:42Z</time>
      </trkpt>
      <trkpt lat="50.69644" lon="4.70671">
        <ele>152.99</ele>
        <time>2020-05-23T10:31:43Z</time>
      </trkpt>
      <trkpt lat="50.69643" lon="4.70672">
        <ele>152.51</ele>
        <time>2020-05-23T10:31:44Z</time>
      </trkpt>
      <trkpt lat="50.69619" lon="4.70692">
        <ele>150.1</ele>
        <time>2020-05-23T10:31:54Z</time>
      </trkpt>
      <trkpt lat="50.69597" lon="4.70711">
        <ele>152.99</ele>
        <time>2020-05-23T10:32:04Z</time>
      </trkpt>
      <trkpt lat="50.69579" lon="4.70726">
        <ele>156.35</ele>
        <time>2020-05-23T10:32:12Z</time>
      </trkpt>
      <trkpt lat="50.69559" lon="4.7074">
        <ele>160.2</ele>
        <time>2020-05-23T10:32:22Z</time>
      </trkpt>
      <trkpt lat="50.69533" lon="4.70756">
        <ele>159.72</ele>
        <time>2020-05-23T10:32:34Z</time>
      </trkpt>
      <trkpt lat="50.69516" lon="4.70769">
        <ele>158.27</ele>
        <time>2020-05-23T10:32:42Z</time>
      </trkpt>
      <trkpt lat="50.69494" lon="4.7079">
        <ele>154.43</ele>
        <time>2020-05-23T10:32:51Z</time>
      </trkpt>
      <trkpt lat="50.69476" lon="4.70803">
        <ele>153.47</ele>
        <time>2020-05-23T10:33:00Z</time>
      </trkpt>
      <trkpt lat="50.69454" lon="4.70821">
        <ele>153.47</ele>
        <time>2020-05-23T10:33:09Z</time>
      </trkpt>
      <trkpt lat="50.69426" lon="4.70842">
        <ele>151.54</ele>
        <time>2020-05-23T10:33:18Z</time>
      </trkpt>
      <trkpt lat="50.69405" lon="4.70858">
        <ele>151.54</ele>
        <time>2020-05-23T10:33:26Z</time>
      </trkpt>
      <trkpt lat="50.6938" lon="4.70878">
        <ele>152.99</ele>
        <time>2020-05-23T10:33:36Z</time>
      </trkpt>
      <trkpt lat="50.69366" lon="4.70882">
        <ele>154.91</ele>
        <time>2020-05-23T10:33:43Z</time>
      </trkpt>
      <trkpt lat="50.69366" lon="4.7088">
        <ele>154.91</ele>
        <time>2020-05-23T10:33:44Z</time>
      </trkpt>
      <trkpt lat="50.69366" lon="4.70877">
        <ele>154.91</ele>
        <time>2020-05-23T10:33:45Z</time>
      </trkpt>
      <trkpt lat="50.69366" lon="4.70845">
        <ele>152.99</ele>
        <time>2020-05-23T10:33:53Z</time>
      </trkpt>
      <trkpt lat="50.69362" lon="4.7079">
        <ele>152.99</ele>
        <time>2020-05-23T10:34:02Z</time>
      </trkpt>
      <trkpt lat="50.69361" lon="4.70783">
        <ele>152.99</ele>
        <time>2020-05-23T10:34:03Z</time>
      </trkpt>
      <trkpt lat="50.6936" lon="4.70775">
        <ele>152.99</ele>
        <time>2020-05-23T10:34:04Z</time>
      </trkpt>
      <trkpt lat="50.69361" lon="4.70708">
        <ele>152.03</ele>
        <time>2020-05-23T10:34:13Z</time>
      </trkpt>
      <trkpt lat="50.69362" lon="4.707">
        <ele>151.54</ele>
        <time>2020-05-23T10:34:14Z</time>
      </trkpt>
      <trkpt lat="50.69362" lon="4.70693">
        <ele>151.06</ele>
        <time>2020-05-23T10:34:15Z</time>
      </trkpt>
      <trkpt lat="50.69362" lon="4.70615">
        <ele>149.14</ele>
        <time>2020-05-23T10:34:23Z</time>
      </trkpt>
      <trkpt lat="50.69364" lon="4.70516">
        <ele>147.22</ele>
        <time>2020-05-23T10:34:33Z</time>
      </trkpt>
      <trkpt lat="50.6937" lon="4.70429">
        <ele>147.22</ele>
        <time>2020-05-23T10:34:43Z</time>
      </trkpt>
      <trkpt lat="50.69372" lon="4.70419">
        <ele>147.22</ele>
        <time>2020-05-23T10:34:44Z</time>
      </trkpt>
      <trkpt lat="50.69379" lon="4.70317">
        <ele>145.78</ele>
        <time>2020-05-23T10:34:54Z</time>
      </trkpt>
      <trkpt lat="50.69383" lon="4.70261">
        <ele>145.78</ele>
        <time>2020-05-23T10:35:01Z</time>
      </trkpt>
      <trkpt lat="50.69383" lon="4.70235">
        <ele>145.78</ele>
        <time>2020-05-23T10:35:04Z</time>
      </trkpt>
      <trkpt lat="50.69382" lon="4.70217">
        <ele>145.3</ele>
        <time>2020-05-23T10:35:06Z</time>
      </trkpt>
      <trkpt lat="50.69383" lon="4.70207">
        <ele>145.3</ele>
        <time>2020-05-23T10:35:07Z</time>
      </trkpt>
      <trkpt lat="50.69384" lon="4.70189">
        <ele>144.34</ele>
        <time>2020-05-23T10:35:09Z</time>
      </trkpt>
      <trkpt lat="50.69381" lon="4.70124">
        <ele>137.61</ele>
        <time>2020-05-23T10:35:19Z</time>
      </trkpt>
      <trkpt lat="50.6938" lon="4.70114">
        <ele>134.24</ele>
        <time>2020-05-23T10:35:29Z</time>
      </trkpt>
      <trkpt lat="50.69373" lon="4.70109">
        <ele>132.32</ele>
        <time>2020-05-23T10:35:41Z</time>
      </trkpt>
      <trkpt lat="50.69359" lon="4.70119">
        <ele>132.8</ele>
        <time>2020-05-23T10:35:51Z</time>
      </trkpt>
      <trkpt lat="50.69339" lon="4.7015">
        <ele>135.68</ele>
        <time>2020-05-23T10:36:01Z</time>
      </trkpt>
      <trkpt lat="50.69322" lon="4.70179">
        <ele>138.57</ele>
        <time>2020-05-23T10:36:11Z</time>
      </trkpt>
      <trkpt lat="50.6931" lon="4.70202">
        <ele>140.49</ele>
        <time>2020-05-23T10:36:19Z</time>
      </trkpt>
      <trkpt lat="50.69297" lon="4.70233">
        <ele>139.53</ele>
        <time>2020-05-23T10:36:29Z</time>
      </trkpt>
      <trkpt lat="50.69284" lon="4.70258">
        <ele>139.53</ele>
        <time>2020-05-23T10:36:37Z</time>
      </trkpt>
      <trkpt lat="50.69273" lon="4.7028">
        <ele>139.05</ele>
        <time>2020-05-23T10:36:45Z</time>
      </trkpt>
      <trkpt lat="50.69255" lon="4.70316">
        <ele>138.57</ele>
        <time>2020-05-23T10:36:54Z</time>
      </trkpt>
      <trkpt lat="50.69238" lon="4.70351">
        <ele>139.53</ele>
        <time>2020-05-23T10:37:04Z</time>
      </trkpt>
      <trkpt lat="50.6922" lon="4.70385">
        <ele>139.53</ele>
        <time>2020-05-23T10:37:15Z</time>
      </trkpt>
      <trkpt lat="50.69201" lon="4.70422">
        <ele>140.97</ele>
        <time>2020-05-23T10:37:26Z</time>
      </trkpt>
      <trkpt lat="50.692" lon="4.70427">
        <ele>140.97</ele>
        <time>2020-05-23T10:37:28Z</time>
      </trkpt>
      <trkpt lat="50.69199" lon="4.7043">
        <ele>140.97</ele>
        <time>2020-05-23T10:37:29Z</time>
      </trkpt>
      <trkpt lat="50.69197" lon="4.70433">
        <ele>140.97</ele>
        <time>2020-05-23T10:37:30Z</time>
      </trkpt>
      <trkpt lat="50.69192" lon="4.70466">
        <ele>141.93</ele>
        <time>2020-05-23T10:37:39Z</time>
      </trkpt>
      <trkpt lat="50.69182" lon="4.70504">
        <ele>140.01</ele>
        <time>2020-05-23T10:37:47Z</time>
      </trkpt>
      <trkpt lat="50.6918" lon="4.70507">
        <ele>139.53</ele>
        <time>2020-05-23T10:37:48Z</time>
      </trkpt>
      <trkpt lat="50.69178" lon="4.70509">
        <ele>139.05</ele>
        <time>2020-05-23T10:37:49Z</time>
      </trkpt>
      <trkpt lat="50.69176" lon="4.70511">
        <ele>138.57</ele>
        <time>2020-05-23T10:37:50Z</time>
      </trkpt>
      <trkpt lat="50.69174" lon="4.70513">
        <ele>138.57</ele>
        <time>2020-05-23T10:37:51Z</time>
      </trkpt>
      <trkpt lat="50.69172" lon="4.70515">
        <ele>138.09</ele>
        <time>2020-05-23T10:37:52Z</time>
      </trkpt>
      <trkpt lat="50.6917" lon="4.70517">
        <ele>138.09</ele>
        <time>2020-05-23T10:37:53Z</time>
      </trkpt>
      <trkpt lat="50.69167" lon="4.7052">
        <ele>138.09</ele>
        <time>2020-05-23T10:37:54Z</time>
      </trkpt>
      <trkpt lat="50.69164" lon="4.70523">
        <ele>138.09</ele>
        <time>2020-05-23T10:37:55Z</time>
      </trkpt>
      <trkpt lat="50.69139" lon="4.70545">
        <ele>135.68</ele>
        <time>2020-05-23T10:38:02Z</time>
      </trkpt>
      <trkpt lat="50.69135" lon="4.70551">
        <ele>135.68</ele>
        <time>2020-05-23T10:38:03Z</time>
      </trkpt>
      <trkpt lat="50.69131" lon="4.70555">
        <ele>135.68</ele>
        <time>2020-05-23T10:38:04Z</time>
      </trkpt>
      <trkpt lat="50.69128" lon="4.70558">
        <ele>135.68</ele>
        <time>2020-05-23T10:38:05Z</time>
      </trkpt>
      <trkpt lat="50.69125" lon="4.70561">
        <ele>135.68</ele>
        <time>2020-05-23T10:38:06Z</time>
      </trkpt>
      <trkpt lat="50.69121" lon="4.70562">
        <ele>136.16</ele>
        <time>2020-05-23T10:38:07Z</time>
      </trkpt>
      <trkpt lat="50.69118" lon="4.70563">
        <ele>136.16</ele>
        <time>2020-05-23T10:38:08Z</time>
      </trkpt>
      <trkpt lat="50.69116" lon="4.70563">
        <ele>135.68</ele>
        <time>2020-05-23T10:38:09Z</time>
      </trkpt>
      <trkpt lat="50.69113" lon="4.70564">
        <ele>135.68</ele>
        <time>2020-05-23T10:38:10Z</time>
      </trkpt>
      <trkpt lat="50.69111" lon="4.70566">
        <ele>135.68</ele>
        <time>2020-05-23T10:38:11Z</time>
      </trkpt>
      <trkpt lat="50.69087" lon="4.70584">
        <ele>135.68</ele>
        <time>2020-05-23T10:38:20Z</time>
      </trkpt>
      <trkpt lat="50.69072" lon="4.70594">
        <ele>139.53</ele>
        <time>2020-05-23T10:38:30Z</time>
      </trkpt>
      <trkpt lat="50.69066" lon="4.70599">
        <ele>141.93</ele>
        <time>2020-05-23T10:38:41Z</time>
      </trkpt>
      <trkpt lat="50.69056" lon="4.7061">
        <ele>143.37</ele>
        <time>2020-05-23T10:38:54Z</time>
      </trkpt>
      <trkpt lat="50.69044" lon="4.70618">
        <ele>144.34</ele>
        <time>2020-05-23T10:39:05Z</time>
      </trkpt>
      <trkpt lat="50.69028" lon="4.70627">
        <ele>142.41</ele>
        <time>2020-05-23T10:39:16Z</time>
      </trkpt>
      <trkpt lat="50.69026" lon="4.70627">
        <ele>142.89</ele>
        <time>2020-05-23T10:39:17Z</time>
      </trkpt>
      <trkpt lat="50.69024" lon="4.70628">
        <ele>143.37</ele>
        <time>2020-05-23T10:39:18Z</time>
      </trkpt>
      <trkpt lat="50.69022" lon="4.70629">
        <ele>143.37</ele>
        <time>2020-05-23T10:39:19Z</time>
      </trkpt>
      <trkpt lat="50.69021" lon="4.70631">
        <ele>143.85</ele>
        <time>2020-05-23T10:39:20Z</time>
      </trkpt>
      <trkpt lat="50.69003" lon="4.70642">
        <ele>145.78</ele>
        <time>2020-05-23T10:39:29Z</time>
      </trkpt>
      <trkpt lat="50.68985" lon="4.70651">
        <ele>149.14</ele>
        <time>2020-05-23T10:39:38Z</time>
      </trkpt>
      <trkpt lat="50.68985" lon="4.7065">
        <ele>149.14</ele>
        <time>2020-05-23T10:39:39Z</time>
      </trkpt>
      <trkpt lat="50.68985" lon="4.70649">
        <ele>148.66</ele>
        <time>2020-05-23T10:39:40Z</time>
      </trkpt>
      <trkpt lat="50.6898" lon="4.7062">
        <ele>143.85</ele>
        <time>2020-05-23T10:39:48Z</time>
      </trkpt>
      <trkpt lat="50.68989" lon="4.70569">
        <ele>140.97</ele>
        <time>2020-05-23T10:39:57Z</time>
      </trkpt>
      <trkpt lat="50.68999" lon="4.70526">
        <ele>138.57</ele>
        <time>2020-05-23T10:40:05Z</time>
      </trkpt>
      <trkpt lat="50.69002" lon="4.70486">
        <ele>136.64</ele>
        <time>2020-05-23T10:40:12Z</time>
      </trkpt>
      <trkpt lat="50.69001" lon="4.70458">
        <ele>135.68</ele>
        <time>2020-05-23T10:40:19Z</time>
      </trkpt>
      <trkpt lat="50.69001" lon="4.70434">
        <ele>134.24</ele>
        <time>2020-05-23T10:40:27Z</time>
      </trkpt>
      <trkpt lat="50.69003" lon="4.70398">
        <ele>133.76</ele>
        <time>2020-05-23T10:40:34Z</time>
      </trkpt>
      <trkpt lat="50.68996" lon="4.70345">
        <ele>132.8</ele>
        <time>2020-05-23T10:40:43Z</time>
      </trkpt>
      <trkpt lat="50.68991" lon="4.70325">
        <ele>131.84</ele>
        <time>2020-05-23T10:40:46Z</time>
      </trkpt>
      <trkpt lat="50.68952" lon="4.70258">
        <ele>126.55</ele>
        <time>2020-05-23T10:40:54Z</time>
      </trkpt>
      <trkpt lat="50.68934" lon="4.70224">
        <ele>123.67</ele>
        <time>2020-05-23T10:40:58Z</time>
      </trkpt>
      <trkpt lat="50.68899" lon="4.70172">
        <ele>119.34</ele>
        <time>2020-05-23T10:41:07Z</time>
      </trkpt>
      <trkpt lat="50.68862" lon="4.70138">
        <ele>113.09</ele>
        <time>2020-05-23T10:41:17Z</time>
      </trkpt>
      <trkpt lat="50.68845" lon="4.70121">
        <ele>111.17</ele>
        <time>2020-05-23T10:41:22Z</time>
      </trkpt>
      <trkpt lat="50.68825" lon="4.70103">
        <ele>111.17</ele>
        <time>2020-05-23T10:41:27Z</time>
      </trkpt>
      <trkpt lat="50.68821" lon="4.701">
        <ele>111.17</ele>
        <time>2020-05-23T10:41:28Z</time>
      </trkpt>
      <trkpt lat="50.688" lon="4.70083">
        <ele>111.65</ele>
        <time>2020-05-23T10:41:32Z</time>
      </trkpt>
      <trkpt lat="50.68791" lon="4.70077">
        <ele>112.13</ele>
        <time>2020-05-23T10:41:34Z</time>
      </trkpt>
      <trkpt lat="50.68786" lon="4.70074">
        <ele>112.13</ele>
        <time>2020-05-23T10:41:35Z</time>
      </trkpt>
      <trkpt lat="50.6878" lon="4.70072">
        <ele>112.13</ele>
        <time>2020-05-23T10:41:36Z</time>
      </trkpt>
      <trkpt lat="50.68775" lon="4.70071">
        <ele>112.61</ele>
        <time>2020-05-23T10:41:37Z</time>
      </trkpt>
      <trkpt lat="50.6877" lon="4.70069">
        <ele>113.09</ele>
        <time>2020-05-23T10:41:38Z</time>
      </trkpt>
      <trkpt lat="50.68765" lon="4.70066">
        <ele>113.09</ele>
        <time>2020-05-23T10:41:39Z</time>
      </trkpt>
      <trkpt lat="50.68744" lon="4.70058">
        <ele>113.57</ele>
        <time>2020-05-23T10:41:42Z</time>
      </trkpt>
      <trkpt lat="50.68724" lon="4.70051">
        <ele>113.09</ele>
        <time>2020-05-23T10:41:46Z</time>
      </trkpt>
      <trkpt lat="50.68713" lon="4.70046">
        <ele>112.61</ele>
        <time>2020-05-23T10:41:47Z</time>
      </trkpt>
      <trkpt lat="50.68707" lon="4.70041">
        <ele>112.13</ele>
        <time>2020-05-23T10:41:48Z</time>
      </trkpt>
      <trkpt lat="50.68703" lon="4.70036">
        <ele>111.17</ele>
        <time>2020-05-23T10:41:49Z</time>
      </trkpt>
      <trkpt lat="50.68696" lon="4.7003">
        <ele>110.21</ele>
        <time>2020-05-23T10:41:50Z</time>
      </trkpt>
      <trkpt lat="50.68695" lon="4.70025">
        <ele>110.21</ele>
        <time>2020-05-23T10:41:51Z</time>
      </trkpt>
      <trkpt lat="50.68692" lon="4.7002">
        <ele>109.73</ele>
        <time>2020-05-23T10:41:52Z</time>
      </trkpt>
      <trkpt lat="50.6869" lon="4.70015">
        <ele>109.25</ele>
        <time>2020-05-23T10:41:53Z</time>
      </trkpt>
      <trkpt lat="50.68674" lon="4.6995">
        <ele>102.52</ele>
        <time>2020-05-23T10:42:03Z</time>
      </trkpt>
      <trkpt lat="50.68676" lon="4.69924">
        <ele>101.08</ele>
        <time>2020-05-23T10:42:07Z</time>
      </trkpt>
      <trkpt lat="50.68676" lon="4.69918">
        <ele>101.08</ele>
        <time>2020-05-23T10:42:08Z</time>
      </trkpt>
      <trkpt lat="50.6867" lon="4.69857">
        <ele>98.19</ele>
        <time>2020-05-23T10:42:17Z</time>
      </trkpt>
      <trkpt lat="50.68668" lon="4.69844">
        <ele>98.19</ele>
        <time>2020-05-23T10:42:19Z</time>
      </trkpt>
      <trkpt lat="50.68666" lon="4.69836">
        <ele>97.23</ele>
        <time>2020-05-23T10:42:20Z</time>
      </trkpt>
      <trkpt lat="50.68653" lon="4.6977">
        <ele>91.94</ele>
        <time>2020-05-23T10:42:28Z</time>
      </trkpt>
      <trkpt lat="50.68641" lon="4.69697">
        <ele>85.69</ele>
        <time>2020-05-23T10:42:40Z</time>
      </trkpt>
      <trkpt lat="50.68637" lon="4.6969">
        <ele>85.69</ele>
        <time>2020-05-23T10:42:42Z</time>
      </trkpt>
      <trkpt lat="50.68637" lon="4.69686">
        <ele>85.21</ele>
        <time>2020-05-23T10:42:43Z</time>
      </trkpt>
      <trkpt lat="50.68635" lon="4.69682">
        <ele>85.21</ele>
        <time>2020-05-23T10:42:44Z</time>
      </trkpt>
      <trkpt lat="50.68634" lon="4.69679">
        <ele>85.21</ele>
        <time>2020-05-23T10:42:45Z</time>
      </trkpt>
      <trkpt lat="50.68633" lon="4.69676">
        <ele>85.21</ele>
        <time>2020-05-23T10:42:46Z</time>
      </trkpt>
      <trkpt lat="50.68632" lon="4.69669">
        <ele>85.21</ele>
        <time>2020-05-23T10:42:48Z</time>
      </trkpt>
      <trkpt lat="50.68633" lon="4.69664">
        <ele>84.73</ele>
        <time>2020-05-23T10:42:50Z</time>
      </trkpt>
      <trkpt lat="50.68632" lon="4.69661">
        <ele>84.25</ele>
        <time>2020-05-23T10:42:51Z</time>
      </trkpt>
      <trkpt lat="50.6862" lon="4.69618">
        <ele>83.29</ele>
        <time>2020-05-23T10:43:00Z</time>
      </trkpt>
      <trkpt lat="50.68607" lon="4.69567">
        <ele>83.29</ele>
        <time>2020-05-23T10:43:10Z</time>
      </trkpt>
      <trkpt lat="50.68601" lon="4.69533">
        <ele>83.77</ele>
        <time>2020-05-23T10:43:17Z</time>
      </trkpt>
      <trkpt lat="50.68584" lon="4.69493">
        <ele>81.85</ele>
        <time>2020-05-23T10:43:26Z</time>
      </trkpt>
      <trkpt lat="50.6857" lon="4.69443">
        <ele>80.41</ele>
        <time>2020-05-23T10:43:36Z</time>
      </trkpt>
      <trkpt lat="50.68555" lon="4.69408">
        <ele>81.85</ele>
        <time>2020-05-23T10:43:44Z</time>
      </trkpt>
      <trkpt lat="50.68534" lon="4.69389">
        <ele>83.77</ele>
        <time>2020-05-23T10:43:52Z</time>
      </trkpt>
      <trkpt lat="50.68515" lon="4.69384">
        <ele>84.73</ele>
        <time>2020-05-23T10:44:01Z</time>
      </trkpt>
      <trkpt lat="50.68501" lon="4.69392">
        <ele>84.25</ele>
        <time>2020-05-23T10:44:10Z</time>
      </trkpt>
      <trkpt lat="50.68485" lon="4.69403">
        <ele>83.77</ele>
        <time>2020-05-23T10:44:19Z</time>
      </trkpt>
      <trkpt lat="50.68484" lon="4.69404">
        <ele>83.77</ele>
        <time>2020-05-23T10:44:20Z</time>
      </trkpt>
      <trkpt lat="50.68484" lon="4.69407">
        <ele>83.77</ele>
        <time>2020-05-23T10:44:21Z</time>
      </trkpt>
      <trkpt lat="50.68484" lon="4.69409">
        <ele>83.77</ele>
        <time>2020-05-23T10:44:22Z</time>
      </trkpt>
      <trkpt lat="50.68487" lon="4.69422">
        <ele>83.77</ele>
        <time>2020-05-23T10:44:26Z</time>
      </trkpt>
      <trkpt lat="50.68487" lon="4.69427">
        <ele>83.77</ele>
        <time>2020-05-23T10:44:35Z</time>
      </trkpt>
      <trkpt lat="50.68487" lon="4.69428">
        <ele>83.29</ele>
        <time>2020-05-23T10:44:54Z</time>
      </trkpt>
    </trkseg>
  </trk>
</gpx>